Time,TemperatureF,DewpointF,PressureIn,WindDirection,WindDirectionDegrees,WindSpeedMPH,WindSpeedGustMPH,Humidity,HourlyPrecipIn,Conditions,Clouds,dailyrainin,SoftwareType,DateUTC
2013-03-05 00:00:00,60.3,36.5,29.97,SSW,202,4.9,4.9,41,0.00,,,0.00,VWS V14.01,2013-03-05 06:00:00,
2013-03-05 00:01:00,59.2,34.3,30.00,South,180,6.0,8.1,39,0.00,,,0.00,VWS V14.01,2013-03-05 06:01:00,
2013-03-05 00:02:00,59.4,35.1,30.00,SSE,158,5.4,6.0,40,0.00,,,0.00,VWS V14.01,2013-03-05 06:02:00,
2013-03-05 00:03:00,59.4,35.1,30.00,SSE,158,1.6,5.4,40,0.00,,,0.00,VWS V14.01,2013-03-05 06:03:00,
2013-03-05 00:04:00,59.5,36.5,30.00,SSE,158,5.8,5.8,42,0.00,,,0.00,VWS V14.01,2013-03-05 06:04:00,
2013-03-05 00:05:00,60.4,36.7,29.97,South,180,6.0,6.0,41,0.00,,,0.00,VWS V14.01,2013-03-05 06:05:00,
2013-03-05 00:06:00,59.5,35.8,30.00,SSE,158,1.6,5.6,41,0.00,,,0.00,VWS V14.01,2013-03-05 06:06:00,
2013-03-05 00:07:00,59.5,36.5,30.00,South,180,5.4,6.5,42,0.00,,,0.00,VWS V14.01,2013-03-05 06:07:00,
2013-03-05 00:08:00,59.5,36.5,30.00,SSW,202,4.0,5.8,42,0.00,,,0.00,VWS V14.01,2013-03-05 06:08:00,
2013-03-05 00:09:00,59.5,35.8,30.00,SSE,158,5.8,5.8,41,0.00,,,0.00,VWS V14.01,2013-03-05 06:09:00,
2013-03-05 00:10:00,60.6,36.8,29.97,SSE,158,8.7,8.7,41,0.00,,,0.00,VWS V14.01,2013-03-05 06:10:00,
2013-03-05 00:11:00,59.9,36.8,29.97,SE,135,4.0,4.3,42,0.00,,,0.00,VWS V14.01,2013-03-05 06:11:00,
2013-03-05 00:12:00,59.9,36.8,29.97,SSE,158,1.3,4.0,42,0.00,,,0.00,VWS V14.01,2013-03-05 06:12:00,
2013-03-05 00:13:00,59.9,36.8,29.97,SSE,158,9.6,9.6,42,0.00,,,0.00,VWS V14.01,2013-03-05 06:13:00,
2013-03-05 00:14:00,59.9,36.8,29.97,South,180,3.6,9.6,42,0.00,,,0.00,VWS V14.01,2013-03-05 06:14:00,
2013-03-05 00:15:00,60.6,36.8,29.97,SSW,202,3.6,7.4,41,0.00,,,0.00,VWS V14.01,2013-03-05 06:15:00,
2013-03-05 00:16:00,59.9,36.8,29.97,SE,135,4.0,4.0,42,0.00,,,0.00,VWS V14.01,2013-03-05 06:16:00,
2013-03-05 00:17:00,59.9,36.2,29.97,SSW,202,2.9,4.7,41,0.00,,,0.00,VWS V14.01,2013-03-05 06:17:00,
2013-03-05 00:18:00,59.9,36.2,29.97,SSW,202,2.5,3.8,41,0.00,,,0.00,VWS V14.01,2013-03-05 06:18:00,
2013-03-05 00:19:00,60.1,36.9,29.97,SSW,202,6.0,6.0,42,0.00,,,0.00,VWS V14.01,2013-03-05 06:19:00,
2013-03-05 00:20:00,60.8,36.3,29.97,SSE,158,5.6,5.6,40,0.00,,,0.00,VWS V14.01,2013-03-05 06:20:00,
2013-03-05 00:21:00,60.1,36.3,29.97,NE,45,3.4,6.5,41,0.00,,,0.00,VWS V14.01,2013-03-05 06:21:00,
2013-03-05 00:22:00,60.3,37.1,29.97,SSW,202,2.7,4.0,42,0.00,,,0.00,VWS V14.01,2013-03-05 06:22:00,
2013-03-05 00:23:00,60.1,36.3,29.97,SSW,202,4.0,4.0,41,0.00,,,0.00,VWS V14.01,2013-03-05 06:23:00,
2013-03-05 00:24:00,60.3,37.1,29.97,South,180,5.4,5.4,42,0.00,,,0.00,VWS V14.01,2013-03-05 06:24:00,
2013-03-05 00:25:00,61.0,36.5,29.97,SSE,158,2.5,3.4,40,0.00,,,0.00,VWS V14.01,2013-03-05 06:25:00,
2013-03-05 00:26:00,60.3,36.5,29.97,SSW,202,2.5,3.1,41,0.00,,,0.00,VWS V14.01,2013-03-05 06:26:00,
2013-03-05 00:27:00,60.4,37.3,29.97,SSW,202,4.3,4.9,42,0.00,,,0.00,VWS V14.01,2013-03-05 06:27:00,
2013-03-05 00:28:00,60.4,37.3,29.97,South,180,3.1,4.3,42,0.00,,,0.00,VWS V14.01,2013-03-05 06:28:00,
2013-03-05 00:29:00,60.4,37.3,29.97,SSE,158,3.8,6.3,42,0.00,,,0.00,VWS V14.01,2013-03-05 06:29:00,
2013-03-05 00:30:00,61.0,36.5,29.97,WSW,248,3.1,3.4,40,0.00,,,0.00,VWS V14.01,2013-03-05 06:30:00,
2013-03-05 00:31:00,60.4,36.7,29.97,SSE,158,3.1,4.0,41,0.00,,,0.00,VWS V14.01,2013-03-05 06:31:00,
2013-03-05 00:32:00,60.4,36.7,29.97,SSW,202,6.3,6.5,41,0.00,,,0.00,VWS V14.01,2013-03-05 06:32:00,
2013-03-05 00:33:00,60.4,36.7,29.97,South,180,1.1,6.3,41,0.00,,,0.00,VWS V14.01,2013-03-05 06:33:00,
2013-03-05 00:34:00,60.4,36.7,29.97,SSE,158,6.0,6.0,41,0.00,,,0.00,VWS V14.01,2013-03-05 06:34:00,
2013-03-05 00:35:00,61.2,36.7,29.97,ESE,112,5.6,5.6,40,0.00,,,0.00,VWS V14.01,2013-03-05 06:35:00,
2013-03-05 00:36:00,60.6,36.8,29.97,SSW,202,5.6,5.6,41,0.00,,,0.00,VWS V14.01,2013-03-05 06:36:00,
2013-03-05 00:37:00,60.6,36.8,29.97,SSE,158,4.9,8.7,41,0.00,,,0.00,VWS V14.01,2013-03-05 06:37:00,
2013-03-05 00:38:00,60.6,36.8,29.97,SSW,202,1.3,4.9,41,0.00,,,0.00,VWS V14.01,2013-03-05 06:38:00,
2013-03-05 00:39:00,60.6,36.8,29.97,SSE,158,6.5,6.5,41,0.00,,,0.00,VWS V14.01,2013-03-05 06:39:00,
2013-03-05 00:40:00,61.2,36.7,29.97,South,180,5.8,5.8,40,0.00,,,0.00,VWS V14.01,2013-03-05 06:40:00,
2013-03-05 00:41:00,60.6,36.8,29.97,SSE,158,4.9,4.9,41,0.00,,,0.00,VWS V14.01,2013-03-05 06:41:00,
2013-03-05 00:42:00,60.8,37.0,29.97,SSW,202,1.1,7.4,41,0.00,,,0.00,VWS V14.01,2013-03-05 06:42:00,
2013-03-05 00:43:00,60.6,36.8,29.97,SSE,158,3.8,5.8,41,0.00,,,0.00,VWS V14.01,2013-03-05 06:43:00,
2013-03-05 00:44:00,60.8,36.3,29.97,SSE,158,2.0,4.7,40,0.00,,,0.00,VWS V14.01,2013-03-05 06:44:00,
2013-03-05 00:45:00,61.2,36.7,29.97,South,180,3.8,5.8,40,0.00,,,0.00,VWS V14.01,2013-03-05 06:45:00,
2013-03-05 00:46:00,60.8,36.3,29.97,SSE,158,2.7,4.7,40,0.00,,,0.00,VWS V14.01,2013-03-05 06:46:00,
2013-03-05 00:47:00,60.8,36.3,29.97,SSE,158,4.9,5.6,40,0.00,,,0.00,VWS V14.01,2013-03-05 06:47:00,
2013-03-05 00:48:00,60.8,36.3,29.97,ESE,112,2.5,4.9,40,0.00,,,0.00,VWS V14.01,2013-03-05 06:48:00,
2013-03-05 00:49:00,60.8,36.3,29.97,SSE,158,2.9,5.6,40,0.00,,,0.00,VWS V14.01,2013-03-05 06:49:00,
2013-03-05 00:50:00,61.3,36.8,29.97,South,180,2.9,4.0,40,0.00,,,0.00,VWS V14.01,2013-03-05 06:50:00,
2013-03-05 00:51:00,61.0,36.5,29.97,SSE,158,3.4,4.9,40,0.00,,,0.00,VWS V14.01,2013-03-05 06:51:00,
2013-03-05 00:52:00,61.0,36.5,29.97,ESE,112,4.0,4.0,40,0.00,,,0.00,VWS V14.01,2013-03-05 06:52:00,
2013-03-05 00:53:00,61.0,36.5,29.97,SE,135,4.0,4.0,40,0.00,,,0.00,VWS V14.01,2013-03-05 06:53:00,
2013-03-05 00:54:00,61.0,36.5,29.97,WSW,248,4.7,4.7,40,0.00,,,0.00,VWS V14.01,2013-03-05 06:54:00,
2013-03-05 00:55:00,61.3,36.8,29.97,SSE,158,2.7,4.3,40,0.00,,,0.00,VWS V14.01,2013-03-05 06:55:00,
2013-03-05 00:56:00,61.0,36.5,29.97,SSW,202,3.4,3.8,40,0.00,,,0.00,VWS V14.01,2013-03-05 06:56:00,
2013-03-05 00:57:00,61.0,36.5,29.97,WSW,248,2.2,3.4,40,0.00,,,0.00,VWS V14.01,2013-03-05 06:57:00,
2013-03-05 00:58:00,61.0,36.5,29.97,SE,135,6.3,8.1,40,0.00,,,0.00,VWS V14.01,2013-03-05 06:58:00,
2013-03-05 00:59:00,61.0,36.5,29.97,East,90,4.9,6.3,40,0.00,,,0.00,VWS V14.01,2013-03-05 06:59:00,
2013-03-05 01:00:00,61.3,36.8,29.97,SSE,158,6.0,6.0,40,0.00,,,0.00,VWS V14.01,2013-03-05 07:00:00,
2013-03-05 01:01:00,61.0,36.5,29.97,SSW,202,5.4,5.4,40,0.00,,,0.00,VWS V14.01,2013-03-05 07:01:00,
2013-03-05 01:02:00,61.2,36.7,29.97,SE,135,3.1,5.6,40,0.00,,,0.00,VWS V14.01,2013-03-05 07:02:00,
2013-03-05 01:03:00,61.2,36.7,29.97,South,180,7.8,9.4,40,0.00,,,0.00,VWS V14.01,2013-03-05 07:03:00,
2013-03-05 01:04:00,61.2,36.7,29.97,SE,135,4.0,8.1,40,0.00,,,0.00,VWS V14.01,2013-03-05 07:04:00,
2013-03-05 01:05:00,61.3,36.8,29.97,SSW,202,4.7,5.8,40,0.00,,,0.00,VWS V14.01,2013-03-05 07:05:00,
2013-03-05 01:06:00,61.2,36.7,29.97,South,180,3.8,6.3,40,0.00,,,0.00,VWS V14.01,2013-03-05 07:06:00,
2013-03-05 01:07:00,61.2,36.7,29.97,SSE,158,5.8,5.8,40,0.00,,,0.00,VWS V14.01,2013-03-05 07:07:00,
2013-03-05 01:08:00,61.2,36.7,29.97,SSW,202,4.7,6.3,40,0.00,,,0.00,VWS V14.01,2013-03-05 07:08:00,
2013-03-05 01:09:00,61.2,36.7,29.97,SSW,202,6.3,6.3,40,0.00,,,0.00,VWS V14.01,2013-03-05 07:09:00,
2013-03-05 01:10:00,61.3,36.8,29.97,SSE,158,4.3,4.3,40,0.00,,,0.00,VWS V14.01,2013-03-05 07:10:00,
2013-03-05 01:11:00,61.3,36.8,29.97,SSE,158,3.8,4.9,40,0.00,,,0.00,VWS V14.01,2013-03-05 07:11:00,
2013-03-05 01:12:00,61.3,36.8,29.97,SE,135,3.1,5.8,40,0.00,,,0.00,VWS V14.01,2013-03-05 07:12:00,
2013-03-05 01:13:00,61.3,36.8,29.97,SSW,202,2.5,3.4,40,0.00,,,0.00,VWS V14.01,2013-03-05 07:13:00,
2013-03-05 01:14:00,61.3,36.8,29.97,SSE,158,3.1,5.6,40,0.00,,,0.00,VWS V14.01,2013-03-05 07:14:00,
2013-03-05 01:15:00,61.5,37.0,29.97,SSW,202,3.4,3.4,40,0.00,,,0.00,VWS V14.01,2013-03-05 07:15:00,
2013-03-05 01:16:00,61.3,36.8,29.97,SSE,158,4.0,5.8,40,0.00,,,0.00,VWS V14.01,2013-03-05 07:16:00,
2013-03-05 01:17:00,61.3,36.8,29.97,South,180,2.9,4.0,40,0.00,,,0.00,VWS V14.01,2013-03-05 07:17:00,
2013-03-05 01:18:00,61.3,36.8,29.97,SSE,158,3.8,3.8,40,0.00,,,0.00,VWS V14.01,2013-03-05 07:18:00,
2013-03-05 01:19:00,61.3,36.8,29.97,South,180,3.8,3.8,40,0.00,,,0.00,VWS V14.01,2013-03-05 07:19:00,
2013-03-05 01:20:00,61.5,37.0,29.97,WSW,248,7.2,7.2,40,0.00,,,0.00,VWS V14.01,2013-03-05 07:20:00,
2013-03-05 01:21:00,61.3,36.8,29.97,South,180,4.3,5.4,40,0.00,,,0.00,VWS V14.01,2013-03-05 07:21:00,
2013-03-05 01:22:00,61.3,36.8,29.97,SSW,202,6.9,6.9,40,0.00,,,0.00,VWS V14.01,2013-03-05 07:22:00,
2013-03-05 01:23:00,61.3,36.8,29.97,SSW,202,6.0,6.9,40,0.00,,,0.00,VWS V14.01,2013-03-05 07:23:00,
2013-03-05 01:24:00,61.3,36.8,29.97,SSW,202,5.6,6.0,40,0.00,,,0.00,VWS V14.01,2013-03-05 07:24:00,
2013-03-05 01:25:00,61.5,37.0,29.97,SSW,202,4.0,5.8,40,0.00,,,0.00,VWS V14.01,2013-03-05 07:25:00,
2013-03-05 01:26:00,61.3,36.8,29.97,SSW,202,3.6,6.0,40,0.00,,,0.00,VWS V14.01,2013-03-05 07:26:00,
2013-03-05 01:27:00,61.3,36.8,29.97,SSW,202,3.6,3.6,40,0.00,,,0.00,VWS V14.01,2013-03-05 07:27:00,
2013-03-05 01:28:00,61.3,36.8,29.97,SSW,202,6.0,6.0,40,0.00,,,0.00,VWS V14.01,2013-03-05 07:28:00,
2013-03-05 01:29:00,61.3,36.8,29.97,SSE,158,5.6,6.0,40,0.00,,,0.00,VWS V14.01,2013-03-05 07:29:00,
2013-03-05 01:30:00,61.5,37.0,29.97,South,180,2.9,3.1,40,0.00,,,0.00,VWS V14.01,2013-03-05 07:30:00,
2013-03-05 01:31:00,61.3,36.8,29.97,SSW,202,5.6,5.6,40,0.00,,,0.00,VWS V14.01,2013-03-05 07:31:00,
2013-03-05 01:32:00,61.3,36.8,29.97,SSW,202,1.1,5.8,40,0.00,,,0.00,VWS V14.01,2013-03-05 07:32:00,
2013-03-05 01:33:00,61.3,36.8,29.97,SSE,158,4.3,4.3,40,0.00,,,0.00,VWS V14.01,2013-03-05 07:33:00,
2013-03-05 01:34:00,61.3,36.8,29.97,SSE,158,5.4,5.4,40,0.00,,,0.00,VWS V14.01,2013-03-05 07:34:00,
2013-03-05 01:35:00,61.5,37.0,29.97,WSW,248,6.5,6.5,40,0.00,,,0.00,VWS V14.01,2013-03-05 07:35:00,
2013-03-05 01:36:00,61.3,36.8,29.97,South,180,4.0,5.4,40,0.00,,,0.00,VWS V14.01,2013-03-05 07:36:00,
2013-03-05 01:37:00,61.3,36.8,29.97,ESE,112,3.4,4.3,40,0.00,,,0.00,VWS V14.01,2013-03-05 07:37:00,
2013-03-05 01:38:00,61.3,36.8,29.97,SSE,158,2.5,4.3,40,0.00,,,0.00,VWS V14.01,2013-03-05 07:38:00,
2013-03-05 01:39:00,61.3,36.8,29.97,SW,225,3.4,7.4,40,0.00,,,0.00,VWS V14.01,2013-03-05 07:39:00,
2013-03-05 01:40:00,61.7,37.8,29.97,South,180,2.9,3.4,41,0.00,,,0.00,VWS V14.01,2013-03-05 07:40:00,
2013-03-05 01:41:00,61.5,37.0,29.97,SSW,202,2.7,2.7,40,0.00,,,0.00,VWS V14.01,2013-03-05 07:41:00,
2013-03-05 01:42:00,61.5,37.0,29.97,SSW,202,3.8,3.8,40,0.00,,,0.00,VWS V14.01,2013-03-05 07:42:00,
2013-03-05 01:43:00,61.5,37.0,29.97,South,180,2.9,3.8,40,0.00,,,0.00,VWS V14.01,2013-03-05 07:43:00,
2013-03-05 01:44:00,61.5,37.0,29.97,SSW,202,3.1,4.0,40,0.00,,,0.00,VWS V14.01,2013-03-05 07:44:00,
2013-03-05 01:45:00,61.7,37.8,29.97,SSW,202,3.1,3.6,41,0.00,,,0.00,VWS V14.01,2013-03-05 07:45:00,
2013-03-05 01:46:00,61.5,37.0,29.97,WSW,248,7.2,7.2,40,0.00,,,0.00,VWS V14.01,2013-03-05 07:46:00,
2013-03-05 01:47:00,61.5,37.0,29.97,SSW,202,3.4,7.2,40,0.00,,,0.00,VWS V14.01,2013-03-05 07:47:00,
2013-03-05 01:48:00,61.5,37.0,29.97,SSW,202,5.8,5.8,40,0.00,,,0.00,VWS V14.01,2013-03-05 07:48:00,
2013-03-05 01:49:00,61.5,37.0,29.97,SE,135,3.8,5.8,40,0.00,,,0.00,VWS V14.01,2013-03-05 07:49:00,
2013-03-05 01:50:00,61.7,37.8,29.97,South,180,4.9,6.0,41,0.00,,,0.00,VWS V14.01,2013-03-05 07:50:00,
2013-03-05 01:51:00,61.5,37.0,29.97,SSW,202,5.6,6.5,40,0.00,,,0.00,VWS V14.01,2013-03-05 07:51:00,
2013-03-05 01:52:00,61.5,37.0,29.97,SSW,202,5.4,5.8,40,0.00,,,0.00,VWS V14.01,2013-03-05 07:52:00,
2013-03-05 01:53:00,61.5,37.6,29.97,South,180,3.8,5.4,41,0.00,,,0.00,VWS V14.01,2013-03-05 07:53:00,
2013-03-05 01:54:00,61.5,37.6,29.97,SE,135,4.0,4.0,41,0.00,,,0.00,VWS V14.01,2013-03-05 07:54:00,
2013-03-05 01:55:00,61.7,37.8,29.97,SSE,158,4.3,4.3,41,0.00,,,0.00,VWS V14.01,2013-03-05 07:55:00,
2013-03-05 01:56:00,61.5,37.0,29.97,SW,225,3.1,6.0,40,0.00,,,0.00,VWS V14.01,2013-03-05 07:56:00,
2013-03-05 01:57:00,61.5,37.0,29.97,SSE,158,2.0,3.1,40,0.00,,,0.00,VWS V14.01,2013-03-05 07:57:00,
2013-03-05 01:58:00,61.5,37.0,29.97,SSE,158,5.4,5.4,40,0.00,,,0.00,VWS V14.01,2013-03-05 07:58:00,
2013-03-05 01:59:00,61.5,37.0,29.97,SSE,158,7.8,7.8,40,0.00,,,0.00,VWS V14.01,2013-03-05 07:59:00,
2013-03-05 02:00:00,61.7,38.4,29.97,SW,225,5.6,6.0,42,0.00,,,0.00,VWS V14.01,2013-03-05 08:00:00,
2013-03-05 02:01:00,61.7,37.8,29.97,SE,135,2.5,3.8,41,0.00,,,0.00,VWS V14.01,2013-03-05 08:01:00,
2013-03-05 02:02:00,61.5,37.0,29.97,SSW,202,3.1,6.5,40,0.00,,,0.00,VWS V14.01,2013-03-05 08:02:00,
2013-03-05 02:03:00,61.5,37.6,29.97,SSW,202,2.5,3.1,41,0.00,,,0.00,VWS V14.01,2013-03-05 08:03:00,
2013-03-05 02:04:00,61.7,37.8,29.97,South,180,1.3,4.0,41,0.00,,,0.00,VWS V14.01,2013-03-05 08:04:00,
2013-03-05 02:05:00,61.7,37.8,29.97,SSW,202,3.1,6.5,41,0.00,,,0.00,VWS V14.01,2013-03-05 08:05:00,
2013-03-05 02:06:00,61.7,37.8,29.97,SSW,202,3.4,5.8,41,0.00,,,0.00,VWS V14.01,2013-03-05 08:06:00,
2013-03-05 02:07:00,61.7,37.8,29.97,South,180,6.0,6.0,41,0.00,,,0.00,VWS V14.01,2013-03-05 08:07:00,
2013-03-05 02:08:00,61.5,37.6,29.97,SSW,202,4.3,6.0,41,0.00,,,0.00,VWS V14.01,2013-03-05 08:08:00,
2013-03-05 02:09:00,61.7,37.8,29.97,South,180,6.7,6.7,41,0.00,,,0.00,VWS V14.01,2013-03-05 08:09:00,
2013-03-05 02:10:00,61.7,37.8,29.97,South,180,2.7,2.7,41,0.00,,,0.00,VWS V14.01,2013-03-05 08:10:00,
2013-03-05 02:11:00,61.7,37.8,29.97,SSW,202,3.6,9.2,41,0.00,,,0.00,VWS V14.01,2013-03-05 08:11:00,
2013-03-05 02:12:00,61.7,37.8,29.97,SSW,202,3.1,3.6,41,0.00,,,0.00,VWS V14.01,2013-03-05 08:12:00,
2013-03-05 02:13:00,61.5,37.0,29.97,SSE,158,4.5,5.6,40,0.00,,,0.00,VWS V14.01,2013-03-05 08:13:00,
2013-03-05 02:14:00,61.7,37.8,29.97,South,180,2.9,4.5,41,0.00,,,0.00,VWS V14.01,2013-03-05 08:14:00,
2013-03-05 02:15:00,61.5,37.6,29.94,SSW,202,0.0,1.6,41,0.00,,,0.00,VWS V14.01,2013-03-05 08:15:00,
2013-03-05 02:16:00,61.7,37.8,29.97,South,180,6.0,6.0,41,0.00,,,0.00,VWS V14.01,2013-03-05 08:16:00,
2013-03-05 02:17:00,61.7,37.8,29.97,South,180,4.9,6.0,41,0.00,,,0.00,VWS V14.01,2013-03-05 08:17:00,
2013-03-05 02:18:00,61.7,37.8,29.97,SSW,202,2.5,4.9,41,0.00,,,0.00,VWS V14.01,2013-03-05 08:18:00,
2013-03-05 02:19:00,61.7,37.8,29.97,SSE,158,5.8,5.8,41,0.00,,,0.00,VWS V14.01,2013-03-05 08:19:00,
2013-03-05 02:20:00,61.5,38.2,29.94,WSW,248,5.6,5.6,42,0.00,,,0.00,VWS V14.01,2013-03-05 08:20:00,
2013-03-05 02:21:00,61.7,37.8,29.97,SSW,202,3.6,3.6,41,0.00,,,0.00,VWS V14.01,2013-03-05 08:21:00,
2013-03-05 02:22:00,61.7,37.8,29.97,South,180,3.1,4.3,41,0.00,,,0.00,VWS V14.01,2013-03-05 08:22:00,
2013-03-05 02:23:00,61.7,37.8,29.97,SW,225,4.3,4.3,41,0.00,,,0.00,VWS V14.01,2013-03-05 08:23:00,
2013-03-05 02:24:00,61.7,37.8,29.97,SSE,158,3.1,4.3,41,0.00,,,0.00,VWS V14.01,2013-03-05 08:24:00,
2013-03-05 02:25:00,61.5,37.6,29.94,West,270,3.1,4.0,41,0.00,,,0.00,VWS V14.01,2013-03-05 08:25:00,
2013-03-05 02:26:00,61.7,38.4,29.97,SSW,202,3.8,4.0,42,0.00,,,0.00,VWS V14.01,2013-03-05 08:26:00,
2013-03-05 02:27:00,61.7,38.4,29.97,SW,225,1.3,6.0,42,0.00,,,0.00,VWS V14.01,2013-03-05 08:27:00,
2013-03-05 02:28:00,61.7,38.4,29.97,SSW,202,3.6,5.8,42,0.00,,,0.00,VWS V14.01,2013-03-05 08:28:00,
2013-03-05 02:29:00,61.7,38.4,29.97,WSW,248,2.5,3.6,42,0.00,,,0.00,VWS V14.01,2013-03-05 08:29:00,
2013-03-05 02:30:00,61.5,37.6,29.97,SSE,158,1.6,3.1,41,0.00,,,0.00,VWS V14.01,2013-03-05 08:30:00,
2013-03-05 02:31:00,61.7,37.8,29.97,SSW,202,4.9,4.9,41,0.00,,,0.00,VWS V14.01,2013-03-05 08:31:00,
2013-03-05 02:32:00,61.7,37.8,29.97,South,180,3.4,6.5,41,0.00,,,0.00,VWS V14.01,2013-03-05 08:32:00,
2013-03-05 02:33:00,61.7,37.8,29.97,SSW,202,2.9,4.0,41,0.00,,,0.00,VWS V14.01,2013-03-05 08:33:00,
2013-03-05 02:34:00,61.7,37.8,29.97,SSW,202,3.8,7.2,41,0.00,,,0.00,VWS V14.01,2013-03-05 08:34:00,
2013-03-05 02:35:00,61.5,37.6,29.97,WSW,248,1.1,3.4,41,0.00,,,0.00,VWS V14.01,2013-03-05 08:35:00,
2013-03-05 02:36:00,61.7,37.8,29.97,WNW,292,2.5,3.6,41,0.00,,,0.00,VWS V14.01,2013-03-05 08:36:00,
2013-03-05 02:37:00,61.7,37.8,29.97,South,180,2.2,2.7,41,0.00,,,0.00,VWS V14.01,2013-03-05 08:37:00,
2013-03-05 02:38:00,61.7,37.8,29.97,WSW,248,2.7,2.9,41,0.00,,,0.00,VWS V14.01,2013-03-05 08:38:00,
2013-03-05 02:39:00,61.7,37.8,29.97,NNE,22,2.5,3.8,41,0.00,,,0.00,VWS V14.01,2013-03-05 08:39:00,
2013-03-05 02:40:00,61.3,37.5,29.97,WNW,292,0.9,0.9,41,0.00,,,0.00,VWS V14.01,2013-03-05 08:40:00,
2013-03-05 02:41:00,61.7,37.8,29.94,SSW,202,1.6,2.7,41,0.00,,,0.00,VWS V14.01,2013-03-05 08:41:00,
2013-03-05 02:42:00,61.5,37.6,29.94,SSE,158,1.6,1.6,41,0.00,,,0.00,VWS V14.01,2013-03-05 08:42:00,
2013-03-05 02:43:00,61.5,37.6,29.94,SSE,158,1.6,2.0,41,0.00,,,0.00,VWS V14.01,2013-03-05 08:43:00,
2013-03-05 02:44:00,61.5,37.6,29.94,ENE,68,3.6,5.4,41,0.00,,,0.00,VWS V14.01,2013-03-05 08:44:00,
2013-03-05 02:45:00,61.3,37.5,29.97,SSW,202,1.1,1.3,41,0.00,,,0.00,VWS V14.01,2013-03-05 08:45:00,
2013-03-05 02:46:00,61.5,37.6,29.94,WSW,248,5.6,5.8,41,0.00,,,0.00,VWS V14.01,2013-03-05 08:46:00,
2013-03-05 02:47:00,61.5,38.2,29.94,WSW,248,5.6,5.6,42,0.00,,,0.00,VWS V14.01,2013-03-05 08:47:00,
2013-03-05 02:48:00,61.5,38.2,29.94,SSE,158,2.0,5.6,42,0.00,,,0.00,VWS V14.01,2013-03-05 08:48:00,
2013-03-05 02:49:00,61.5,38.2,29.94,East,90,2.5,4.0,42,0.00,,,0.00,VWS V14.01,2013-03-05 08:49:00,
2013-03-05 02:50:00,61.3,37.5,29.97,SSW,202,2.0,2.2,41,0.00,,,0.00,VWS V14.01,2013-03-05 08:50:00,
2013-03-05 02:51:00,61.5,37.6,29.94,West,270,3.1,4.0,41,0.00,,,0.00,VWS V14.01,2013-03-05 08:51:00,
2013-03-05 02:52:00,61.5,37.6,29.94,SSW,202,5.6,5.6,41,0.00,,,0.00,VWS V14.01,2013-03-05 08:52:00,
2013-03-05 02:53:00,61.5,37.6,29.94,South,180,1.6,5.6,41,0.00,,,0.00,VWS V14.01,2013-03-05 08:53:00,
2013-03-05 02:54:00,61.5,37.6,29.94,West,270,1.6,3.8,41,0.00,,,0.00,VWS V14.01,2013-03-05 08:54:00,
2013-03-05 02:55:00,61.3,37.5,29.97,SSW,202,3.8,3.8,41,0.00,,,0.00,VWS V14.01,2013-03-05 08:55:00,
2013-03-05 02:56:00,61.5,37.6,29.97,South,180,3.1,3.8,41,0.00,,,0.00,VWS V14.01,2013-03-05 08:56:00,
2013-03-05 02:57:00,61.5,37.6,29.97,SE,135,2.9,3.4,41,0.00,,,0.00,VWS V14.01,2013-03-05 08:57:00,
2013-03-05 02:58:00,61.5,37.6,29.97,SE,135,4.0,4.0,41,0.00,,,0.00,VWS V14.01,2013-03-05 08:58:00,
2013-03-05 02:59:00,61.5,37.6,29.97,WSW,248,2.2,4.0,41,0.00,,,0.00,VWS V14.01,2013-03-05 08:59:00,
2013-03-05 03:00:00,61.3,37.5,29.97,SSW,202,2.7,3.6,41,0.00,,,0.00,VWS V14.01,2013-03-05 09:00:00,
2013-03-05 03:01:00,61.5,37.6,29.97,WSW,248,3.4,5.4,41,0.00,,,0.00,VWS V14.01,2013-03-05 09:01:00,
2013-03-05 03:02:00,61.5,37.6,29.97,WSW,248,2.9,3.4,41,0.00,,,0.00,VWS V14.01,2013-03-05 09:02:00,
2013-03-05 03:03:00,61.3,37.5,29.97,South,180,3.4,3.4,41,0.00,,,0.00,VWS V14.01,2013-03-05 09:03:00,
2013-03-05 03:04:00,61.3,37.5,29.97,SSW,202,3.1,4.3,41,0.00,,,0.00,VWS V14.01,2013-03-05 09:04:00,
2013-03-05 03:05:00,61.3,37.5,29.97,SSW,202,2.2,2.7,41,0.00,,,0.00,VWS V14.01,2013-03-05 09:05:00,
2013-03-05 03:06:00,61.3,37.5,29.97,SSW,202,0.0,2.7,41,0.00,,,0.00,VWS V14.01,2013-03-05 09:06:00,
2013-03-05 03:07:00,61.3,37.5,29.97,SSE,158,2.0,3.6,41,0.00,,,0.00,VWS V14.01,2013-03-05 09:07:00,
2013-03-05 03:08:00,61.3,37.5,29.97,SSW,202,1.6,4.0,41,0.00,,,0.00,VWS V14.01,2013-03-05 09:08:00,
2013-03-05 03:09:00,61.3,37.5,29.97,SSW,202,1.3,1.6,41,0.00,,,0.00,VWS V14.01,2013-03-05 09:09:00,
2013-03-05 03:10:00,61.3,37.5,29.97,WSW,248,2.5,3.1,41,0.00,,,0.00,VWS V14.01,2013-03-05 09:10:00,
2013-03-05 03:11:00,61.3,37.5,29.97,South,180,1.3,3.4,41,0.00,,,0.00,VWS V14.01,2013-03-05 09:11:00,
2013-03-05 03:12:00,61.3,37.5,29.97,WSW,248,1.1,1.3,41,0.00,,,0.00,VWS V14.01,2013-03-05 09:12:00,
2013-03-05 03:13:00,61.3,37.5,29.97,SSW,202,3.6,3.6,41,0.00,,,0.00,VWS V14.01,2013-03-05 09:13:00,
2013-03-05 03:14:00,61.3,37.5,29.97,SW,225,2.2,3.6,41,0.00,,,0.00,VWS V14.01,2013-03-05 09:14:00,
2013-03-05 03:15:00,61.3,38.1,29.97,SSE,158,1.3,2.0,42,0.00,,,0.00,VWS V14.01,2013-03-05 09:15:00,
2013-03-05 03:16:00,61.3,37.5,29.97,SSW,202,2.2,2.7,41,0.00,,,0.00,VWS V14.01,2013-03-05 09:16:00,
2013-03-05 03:17:00,61.3,37.5,29.97,SSW,202,2.0,2.2,41,0.00,,,0.00,VWS V14.01,2013-03-05 09:17:00,
2013-03-05 03:18:00,61.3,37.5,29.97,WSW,248,0.0,2.0,41,0.00,,,0.00,VWS V14.01,2013-03-05 09:18:00,
2013-03-05 03:19:00,61.3,37.5,29.97,WSW,248,0.0,2.5,41,0.00,,,0.00,VWS V14.01,2013-03-05 09:19:00,
2013-03-05 03:20:00,61.3,37.5,29.97,SSW,202,1.3,1.3,41,0.00,,,0.00,VWS V14.01,2013-03-05 09:20:00,
2013-03-05 03:21:00,61.3,37.5,29.97,SW,225,3.4,3.8,41,0.00,,,0.00,VWS V14.01,2013-03-05 09:21:00,
2013-03-05 03:22:00,61.3,37.5,29.97,SSW,202,2.9,3.8,41,0.00,,,0.00,VWS V14.01,2013-03-05 09:22:00,
2013-03-05 03:23:00,61.3,37.5,29.97,SW,225,0.0,2.9,41,0.00,,,0.00,VWS V14.01,2013-03-05 09:23:00,
2013-03-05 03:24:00,61.3,37.5,29.97,WSW,248,2.2,2.9,41,0.00,,,0.00,VWS V14.01,2013-03-05 09:24:00,
2013-03-05 03:25:00,61.3,37.5,29.97,SSE,158,2.7,2.7,41,0.00,,,0.00,VWS V14.01,2013-03-05 09:25:00,
2013-03-05 03:26:00,61.3,37.5,29.97,West,270,3.6,3.6,41,0.00,,,0.00,VWS V14.01,2013-03-05 09:26:00,
2013-03-05 03:27:00,61.3,37.5,29.97,SSW,202,1.3,3.6,41,0.00,,,0.00,VWS V14.01,2013-03-05 09:27:00,
2013-03-05 03:28:00,61.3,37.5,29.97,SSW,202,1.3,2.0,41,0.00,,,0.00,VWS V14.01,2013-03-05 09:28:00,
2013-03-05 03:29:00,61.3,37.5,29.97,WSW,248,2.0,2.0,41,0.00,,,0.00,VWS V14.01,2013-03-05 09:29:00,
2013-03-05 03:30:00,61.3,37.5,29.97,WSW,248,1.6,2.9,41,0.00,,,0.00,VWS V14.01,2013-03-05 09:30:00,
2013-03-05 03:31:00,61.3,37.5,29.97,SSW,202,2.7,3.8,41,0.00,,,0.00,VWS V14.01,2013-03-05 09:31:00,
2013-03-05 03:32:00,61.3,37.5,29.97,SSW,202,1.1,2.7,41,0.00,,,0.00,VWS V14.01,2013-03-05 09:32:00,
2013-03-05 03:33:00,61.3,37.5,29.97,SW,225,1.1,2.2,41,0.00,,,0.00,VWS V14.01,2013-03-05 09:33:00,
2013-03-05 03:34:00,61.3,37.5,29.97,SE,135,1.1,1.3,41,0.00,,,0.00,VWS V14.01,2013-03-05 09:34:00,
2013-03-05 03:35:00,61.3,37.5,29.97,SSW,202,4.0,4.0,41,0.00,,,0.00,VWS V14.01,2013-03-05 09:35:00,
2013-03-05 03:36:00,61.3,37.5,29.97,SW,225,3.1,3.1,41,0.00,,,0.00,VWS V14.01,2013-03-05 09:36:00,
2013-03-05 03:37:00,61.3,37.5,29.97,SSW,202,2.9,3.1,41,0.00,,,0.00,VWS V14.01,2013-03-05 09:37:00,
2013-03-05 03:38:00,61.3,37.5,29.97,WSW,248,0.9,2.9,41,0.00,,,0.00,VWS V14.01,2013-03-05 09:38:00,
2013-03-05 03:39:00,61.3,38.1,29.97,SSW,202,1.1,2.2,42,0.00,,,0.00,VWS V14.01,2013-03-05 09:39:00,
2013-03-05 03:40:00,61.3,37.5,29.97,South,180,1.3,1.3,41,0.00,,,0.00,VWS V14.01,2013-03-05 09:40:00,
2013-03-05 03:41:00,61.3,37.5,29.97,SW,225,2.0,2.0,41,0.00,,,0.00,VWS V14.01,2013-03-05 09:41:00,
2013-03-05 03:42:00,61.3,38.1,29.97,SSE,158,0.0,3.4,42,0.00,,,0.00,VWS V14.01,2013-03-05 09:42:00,
2013-03-05 03:43:00,61.3,38.1,29.97,SSE,158,0.0,0.0,42,0.00,,,0.00,VWS V14.01,2013-03-05 09:43:00,
2013-03-05 03:44:00,61.3,38.1,29.97,South,180,2.7,3.1,42,0.00,,,0.00,VWS V14.01,2013-03-05 09:44:00,
2013-03-05 03:45:00,61.3,37.5,29.97,SSW,202,2.7,3.4,41,0.00,,,0.00,VWS V14.01,2013-03-05 09:45:00,
2013-03-05 03:46:00,61.3,37.5,29.97,SSW,202,0.0,3.6,41,0.00,,,0.00,VWS V14.01,2013-03-05 09:46:00,
2013-03-05 03:48:00,61.3,37.5,29.97,SSW,202,1.3,1.3,41,0.00,,,0.00,VWS V14.01,2013-03-05 09:48:00,
2013-03-05 03:49:00,61.3,37.5,29.97,SSW,202,0.9,1.3,41,0.00,,,0.00,VWS V14.01,2013-03-05 09:49:00,
2013-03-05 03:50:00,61.3,37.5,29.97,SW,225,0.0,0.0,41,0.00,,,0.00,VWS V14.01,2013-03-05 09:50:00,
2013-03-05 03:51:00,61.3,37.5,29.97,South,180,2.0,3.4,41,0.00,,,0.00,VWS V14.01,2013-03-05 09:51:00,
2013-03-05 03:52:00,61.3,37.5,29.97,SSE,158,2.9,3.1,41,0.00,,,0.00,VWS V14.01,2013-03-05 09:52:00,
2013-03-05 03:53:00,61.3,37.5,29.97,SSE,158,2.5,2.9,41,0.00,,,0.00,VWS V14.01,2013-03-05 09:53:00,
2013-03-05 03:54:00,61.3,38.1,29.97,SSE,158,2.7,4.9,42,0.00,,,0.00,VWS V14.01,2013-03-05 09:54:00,
2013-03-05 03:55:00,61.3,37.5,29.97,SSW,202,1.6,1.6,41,0.00,,,0.00,VWS V14.01,2013-03-05 09:55:00,
2013-03-05 03:56:00,61.3,37.5,29.97,WSW,248,2.5,2.7,41,0.00,,,0.00,VWS V14.01,2013-03-05 09:56:00,
2013-03-05 03:57:00,61.3,37.5,29.97,WSW,248,1.3,2.9,41,0.00,,,0.00,VWS V14.01,2013-03-05 09:57:00,
2013-03-05 03:58:00,61.3,38.1,29.97,WSW,248,0.0,3.1,42,0.00,,,0.00,VWS V14.01,2013-03-05 09:58:00,
2013-03-05 03:59:00,61.3,38.1,29.97,WSW,248,1.3,1.6,42,0.00,,,0.00,VWS V14.01,2013-03-05 09:59:00,
2013-03-05 04:00:00,61.3,37.5,29.97,WSW,248,2.0,2.0,41,0.00,,,0.00,VWS V14.01,2013-03-05 10:00:00,
2013-03-05 04:01:00,61.3,37.5,29.97,WSW,248,0.0,2.5,41,0.00,,,0.00,VWS V14.01,2013-03-05 10:01:00,
2013-03-05 04:02:00,61.3,38.1,29.97,SSW,202,2.5,4.0,42,0.00,,,0.00,VWS V14.01,2013-03-05 10:02:00,
2013-03-05 04:03:00,61.3,37.5,29.97,SSW,202,1.1,2.7,41,0.00,,,0.00,VWS V14.01,2013-03-05 10:03:00,
2013-03-05 04:04:00,61.3,37.5,29.97,SSW,202,1.1,1.1,41,0.00,,,0.00,VWS V14.01,2013-03-05 10:04:00,
2013-03-05 04:05:00,61.3,38.1,29.97,SSW,202,1.6,2.7,42,0.00,,,0.00,VWS V14.01,2013-03-05 10:05:00,
2013-03-05 04:06:00,61.3,37.5,29.97,South,180,0.0,2.9,41,0.00,,,0.00,VWS V14.01,2013-03-05 10:06:00,
2013-03-05 04:07:00,61.3,37.5,29.97,South,180,0.0,1.3,41,0.00,,,0.00,VWS V14.01,2013-03-05 10:07:00,
2013-03-05 04:08:00,61.3,37.5,29.97,South,180,0.0,1.3,41,0.00,,,0.00,VWS V14.01,2013-03-05 10:08:00,
2013-03-05 04:09:00,61.3,37.5,29.97,SSW,202,2.5,3.8,41,0.00,,,0.00,VWS V14.01,2013-03-05 10:09:00,
2013-03-05 04:10:00,61.3,38.1,29.97,WSW,248,2.9,2.9,42,0.00,,,0.00,VWS V14.01,2013-03-05 10:10:00,
2013-03-05 04:11:00,61.3,37.5,29.97,WSW,248,3.4,3.4,41,0.00,,,0.00,VWS V14.01,2013-03-05 10:11:00,
2013-03-05 04:12:00,61.3,37.5,29.97,SSW,202,2.9,3.4,41,0.00,,,0.00,VWS V14.01,2013-03-05 10:12:00,
2013-03-05 04:13:00,61.3,37.5,29.97,WSW,248,2.5,2.9,41,0.00,,,0.00,VWS V14.01,2013-03-05 10:13:00,
2013-03-05 04:14:00,61.3,37.5,29.97,SSW,202,1.1,3.8,41,0.00,,,0.00,VWS V14.01,2013-03-05 10:14:00,
2013-03-05 04:15:00,61.5,37.6,29.97,South,180,0.0,1.6,41,0.00,,,0.00,VWS V14.01,2013-03-05 10:15:00,
2013-03-05 04:16:00,61.3,37.5,29.97,SW,225,0.0,1.6,41,0.00,,,0.00,VWS V14.01,2013-03-05 10:16:00,
2013-03-05 04:17:00,61.3,37.5,29.97,SSW,202,0.0,0.0,41,0.00,,,0.00,VWS V14.01,2013-03-05 10:17:00,
2013-03-05 04:18:00,61.3,37.5,29.97,SSW,202,2.5,3.6,41,0.00,,,0.00,VWS V14.01,2013-03-05 10:18:00,
2013-03-05 04:19:00,61.3,37.5,29.97,SSE,158,2.9,2.9,41,0.00,,,0.00,VWS V14.01,2013-03-05 10:19:00,
2013-03-05 04:20:00,61.5,37.6,29.97,South,180,3.6,4.5,41,0.00,,,0.00,VWS V14.01,2013-03-05 10:20:00,
2013-03-05 04:21:00,61.3,37.5,29.97,SSW,202,0.0,2.7,41,0.00,,,0.00,VWS V14.01,2013-03-05 10:21:00,
2013-03-05 04:22:00,61.3,37.5,29.97,SSW,202,0.9,1.6,41,0.00,,,0.00,VWS V14.01,2013-03-05 10:22:00,
2013-03-05 04:23:00,61.3,37.5,29.97,South,180,0.0,0.9,41,0.00,,,0.00,VWS V14.01,2013-03-05 10:23:00,
2013-03-05 04:24:00,61.3,37.5,29.97,SSW,202,2.5,3.6,41,0.00,,,0.00,VWS V14.01,2013-03-05 10:24:00,
2013-03-05 04:25:00,61.5,38.2,29.97,WSW,248,1.6,4.0,42,0.00,,,0.00,VWS V14.01,2013-03-05 10:25:00,
2013-03-05 04:26:00,61.3,37.5,29.97,WSW,248,0.0,3.1,41,0.00,,,0.00,VWS V14.01,2013-03-05 10:26:00,
2013-03-05 04:27:00,61.3,37.5,29.97,WSW,248,2.5,2.5,41,0.00,,,0.00,VWS V14.01,2013-03-05 10:27:00,
2013-03-05 04:28:00,61.3,37.5,29.97,SSW,202,2.5,3.4,41,0.00,,,0.00,VWS V14.01,2013-03-05 10:28:00,
2013-03-05 04:29:00,61.3,38.1,29.97,SSW,202,1.6,2.5,42,0.00,,,0.00,VWS V14.01,2013-03-05 10:29:00,
2013-03-05 04:30:00,61.5,37.6,29.97,WSW,248,5.4,6.5,41,0.00,,,0.00,VWS V14.01,2013-03-05 10:30:00,
2013-03-05 04:31:00,61.3,38.1,29.97,SSW,202,2.7,2.7,42,0.00,,,0.00,VWS V14.01,2013-03-05 10:31:00,
2013-03-05 04:32:00,61.3,37.5,29.97,South,180,3.6,3.6,41,0.00,,,0.00,VWS V14.01,2013-03-05 10:32:00,
2013-03-05 04:33:00,61.3,37.5,29.97,SE,135,3.4,3.6,41,0.00,,,0.00,VWS V14.01,2013-03-05 10:33:00,
2013-03-05 04:34:00,61.3,37.5,29.97,SSW,202,3.4,3.4,41,0.00,,,0.00,VWS V14.01,2013-03-05 10:34:00,
2013-03-05 04:35:00,61.5,37.6,29.97,WSW,248,1.1,2.0,41,0.00,,,0.00,VWS V14.01,2013-03-05 10:35:00,
2013-03-05 04:36:00,61.3,38.1,29.97,SSE,158,2.7,2.7,42,0.00,,,0.00,VWS V14.01,2013-03-05 10:36:00,
2013-03-05 04:37:00,61.3,38.1,29.97,WSW,248,4.0,4.3,42,0.00,,,0.00,VWS V14.01,2013-03-05 10:37:00,
2013-03-05 04:38:00,61.3,38.1,29.97,SW,225,2.0,4.0,42,0.00,,,0.00,VWS V14.01,2013-03-05 10:38:00,
2013-03-05 04:39:00,61.3,38.1,29.97,South,180,4.9,4.9,42,0.00,,,0.00,VWS V14.01,2013-03-05 10:39:00,
2013-03-05 04:40:00,61.5,37.6,29.97,WSW,248,2.5,2.5,41,0.00,,,0.00,VWS V14.01,2013-03-05 10:40:00,
2013-03-05 04:41:00,61.5,37.6,29.97,South,180,1.6,2.7,41,0.00,,,0.00,VWS V14.01,2013-03-05 10:41:00,
2013-03-05 04:42:00,61.5,37.6,29.97,South,180,0.0,1.6,41,0.00,,,0.00,VWS V14.01,2013-03-05 10:42:00,
2013-03-05 04:43:00,61.5,37.6,29.97,South,180,1.6,1.6,41,0.00,,,0.00,VWS V14.01,2013-03-05 10:43:00,
2013-03-05 04:44:00,61.5,37.6,29.97,South,180,0.0,1.6,41,0.00,,,0.00,VWS V14.01,2013-03-05 10:44:00,
2013-03-05 04:45:00,61.7,37.8,30.00,WNW,292,2.7,2.7,41,0.00,,,0.00,VWS V14.01,2013-03-05 10:45:00,
2013-03-05 04:46:00,61.5,37.6,29.97,SSE,158,4.5,4.5,41,0.00,,,0.00,VWS V14.01,2013-03-05 10:46:00,
2013-03-05 04:47:00,61.5,37.6,29.97,SSW,202,3.4,4.5,41,0.00,,,0.00,VWS V14.01,2013-03-05 10:47:00,
2013-03-05 04:48:00,61.5,37.6,29.97,SSW,202,3.6,3.6,41,0.00,,,0.00,VWS V14.01,2013-03-05 10:48:00,
2013-03-05 04:49:00,61.5,37.6,29.97,SSW,202,2.7,3.6,41,0.00,,,0.00,VWS V14.01,2013-03-05 10:49:00,
2013-03-05 04:50:00,61.5,37.6,30.00,SSW,202,3.8,3.8,41,0.00,,,0.00,VWS V14.01,2013-03-05 10:50:00,
2013-03-05 04:51:00,61.5,37.6,29.97,WSW,248,4.0,4.0,41,0.00,,,0.00,VWS V14.01,2013-03-05 10:51:00,
2013-03-05 04:52:00,61.5,37.6,29.97,WSW,248,0.0,4.0,41,0.00,,,0.00,VWS V14.01,2013-03-05 10:52:00,
2013-03-05 04:53:00,61.5,37.6,29.97,WSW,248,1.3,1.3,41,0.00,,,0.00,VWS V14.01,2013-03-05 10:53:00,
2013-03-05 04:54:00,61.5,37.6,29.97,SW,225,2.7,2.9,41,0.00,,,0.00,VWS V14.01,2013-03-05 10:54:00,
2013-03-05 04:55:00,61.5,37.6,30.00,SSW,202,4.0,4.0,41,0.00,,,0.00,VWS V14.01,2013-03-05 10:55:00,
2013-03-05 04:56:00,61.5,37.6,29.97,SSW,202,6.5,6.5,41,0.00,,,0.00,VWS V14.01,2013-03-05 10:56:00,
2013-03-05 04:57:00,61.5,37.6,29.97,SSW,202,2.7,6.5,41,0.00,,,0.00,VWS V14.01,2013-03-05 10:57:00,
2013-03-05 04:58:00,61.5,37.6,29.97,SSW,202,2.7,2.7,41,0.00,,,0.00,VWS V14.01,2013-03-05 10:58:00,
2013-03-05 04:59:00,61.5,37.6,29.97,SSE,158,1.1,2.7,41,0.00,,,0.00,VWS V14.01,2013-03-05 10:59:00,
2013-03-05 05:00:00,61.5,38.2,30.03,SSW,202,4.3,4.3,42,0.00,,,0.00,VWS V14.01,2013-03-05 11:00:00,
2013-03-05 05:01:00,61.5,37.6,29.97,SSE,158,2.0,2.0,41,0.00,,,0.00,VWS V14.01,2013-03-05 11:01:00,
2013-03-05 05:02:00,61.5,37.6,29.97,South,180,2.0,3.1,41,0.00,,,0.00,VWS V14.01,2013-03-05 11:02:00,
2013-03-05 05:03:00,61.5,37.6,29.97,South,180,3.1,4.5,41,0.00,,,0.00,VWS V14.01,2013-03-05 11:03:00,
2013-03-05 05:04:00,61.5,37.6,29.97,South,180,1.1,3.1,41,0.00,,,0.00,VWS V14.01,2013-03-05 11:04:00,
2013-03-05 05:05:00,61.5,37.6,30.03,WSW,248,2.2,3.8,41,0.00,,,0.00,VWS V14.01,2013-03-05 11:05:00,
2013-03-05 05:06:00,61.5,37.6,29.97,WSW,248,2.5,6.0,41,0.00,,,0.00,VWS V14.01,2013-03-05 11:06:00,
2013-03-05 05:07:00,61.5,37.6,29.97,WSW,248,2.5,2.5,41,0.00,,,0.00,VWS V14.01,2013-03-05 11:07:00,
2013-03-05 05:08:00,61.5,37.6,29.97,South,180,4.0,4.0,41,0.00,,,0.00,VWS V14.01,2013-03-05 11:08:00,
2013-03-05 05:09:00,61.5,37.6,29.97,WSW,248,3.6,4.3,41,0.00,,,0.00,VWS V14.01,2013-03-05 11:09:00,
2013-03-05 05:10:00,61.5,38.2,30.03,SSW,202,2.9,3.1,42,0.00,,,0.00,VWS V14.01,2013-03-05 11:10:00,
2013-03-05 05:11:00,61.5,37.6,30.00,South,180,2.7,2.7,41,0.00,,,0.00,VWS V14.01,2013-03-05 11:11:00,
2013-03-05 05:12:00,61.7,37.8,30.00,WNW,292,2.5,2.7,41,0.00,,,0.00,VWS V14.01,2013-03-05 11:12:00,
2013-03-05 05:13:00,61.7,37.8,30.00,WSW,248,2.9,2.9,41,0.00,,,0.00,VWS V14.01,2013-03-05 11:13:00,
2013-03-05 05:14:00,61.5,37.6,30.00,WSW,248,0.0,2.9,41,0.00,,,0.00,VWS V14.01,2013-03-05 11:14:00,
2013-03-05 05:15:00,61.5,37.6,30.00,SSW,202,0.0,1.1,41,0.00,,,0.00,VWS V14.01,2013-03-05 11:15:00,
2013-03-05 05:16:00,61.5,37.6,30.00,SW,225,2.0,2.5,41,0.00,,,0.00,VWS V14.01,2013-03-05 11:16:00,
2013-03-05 05:17:00,61.5,37.6,30.00,South,180,3.8,3.8,41,0.00,,,0.00,VWS V14.01,2013-03-05 11:17:00,
2013-03-05 05:18:00,61.5,37.6,30.00,South,180,1.3,3.8,41,0.00,,,0.00,VWS V14.01,2013-03-05 11:18:00,
2013-03-05 05:19:00,61.5,37.6,30.00,South,180,0.0,1.3,41,0.00,,,0.00,VWS V14.01,2013-03-05 11:19:00,
2013-03-05 05:20:00,61.5,37.6,30.00,West,270,0.0,1.3,41,0.00,,,0.00,VWS V14.01,2013-03-05 11:20:00,
2013-03-05 05:21:00,61.5,37.6,30.00,South,180,1.3,1.3,41,0.00,,,0.00,VWS V14.01,2013-03-05 11:21:00,
2013-03-05 05:22:00,61.5,37.6,30.00,WSW,248,2.5,4.0,41,0.00,,,0.00,VWS V14.01,2013-03-05 11:22:00,
2013-03-05 05:23:00,61.5,37.6,30.00,WSW,248,0.0,2.5,41,0.00,,,0.00,VWS V14.01,2013-03-05 11:23:00,
2013-03-05 05:24:00,61.5,37.6,30.00,WSW,248,0.0,0.0,41,0.00,,,0.00,VWS V14.01,2013-03-05 11:24:00,
2013-03-05 05:25:00,61.5,37.6,30.00,SSE,158,3.4,3.4,41,0.00,,,0.00,VWS V14.01,2013-03-05 11:25:00,
2013-03-05 05:26:00,61.5,37.6,30.03,South,180,1.6,2.0,41,0.00,,,0.00,VWS V14.01,2013-03-05 11:26:00,
2013-03-05 05:27:00,61.5,38.2,30.03,SW,225,1.1,4.3,42,0.00,,,0.00,VWS V14.01,2013-03-05 11:27:00,
2013-03-05 05:28:00,61.5,38.2,30.03,WSW,248,0.0,1.3,42,0.00,,,0.00,VWS V14.01,2013-03-05 11:28:00,
2013-03-05 05:29:00,61.5,38.2,30.03,WSW,248,0.0,0.0,42,0.00,,,0.00,VWS V14.01,2013-03-05 11:29:00,
2013-03-05 05:30:00,61.5,37.6,30.00,SSW,202,1.3,1.6,41,0.00,,,0.00,VWS V14.01,2013-03-05 11:30:00,
2013-03-05 05:31:00,61.5,37.6,30.03,West,270,3.8,3.8,41,0.00,,,0.00,VWS V14.01,2013-03-05 11:31:00,
2013-03-05 05:32:00,61.5,37.6,30.03,WSW,248,1.1,3.8,41,0.00,,,0.00,VWS V14.01,2013-03-05 11:32:00,
2013-03-05 05:33:00,61.5,37.6,30.03,WSW,248,0.0,1.1,41,0.00,,,0.00,VWS V14.01,2013-03-05 11:33:00,
2013-03-05 05:34:00,61.5,38.2,30.03,SSW,202,4.7,4.7,42,0.00,,,0.00,VWS V14.01,2013-03-05 11:34:00,
2013-03-05 05:35:00,61.5,37.6,30.00,WSW,248,0.0,0.0,41,0.00,,,0.00,VWS V14.01,2013-03-05 11:35:00,
2013-03-05 05:36:00,61.5,38.2,30.03,SSW,202,3.1,3.1,42,0.00,,,0.00,VWS V14.01,2013-03-05 11:36:00,
2013-03-05 05:37:00,61.5,38.2,30.03,South,180,2.9,3.1,42,0.00,,,0.00,VWS V14.01,2013-03-05 11:37:00,
2013-03-05 05:38:00,61.5,38.2,30.03,SSW,202,2.2,2.9,42,0.00,,,0.00,VWS V14.01,2013-03-05 11:38:00,
2013-03-05 05:39:00,61.5,38.2,30.03,SSW,202,0.9,2.2,42,0.00,,,0.00,VWS V14.01,2013-03-05 11:39:00,
2013-03-05 05:40:00,61.3,37.5,30.00,SSW,202,0.0,0.9,41,0.00,,,0.00,VWS V14.01,2013-03-05 11:40:00,
2013-03-05 05:41:00,61.5,37.6,30.00,SSW,202,0.9,0.9,41,0.00,,,0.00,VWS V14.01,2013-03-05 11:41:00,
2013-03-05 05:42:00,61.5,37.6,30.00,SSW,202,0.0,1.1,41,0.00,,,0.00,VWS V14.01,2013-03-05 11:42:00,
2013-03-05 05:43:00,61.5,37.6,30.00,SSW,202,2.0,2.0,41,0.00,,,0.00,VWS V14.01,2013-03-05 11:43:00,
2013-03-05 05:44:00,61.5,37.6,30.00,SSW,202,1.1,2.5,41,0.00,,,0.00,VWS V14.01,2013-03-05 11:44:00,
2013-03-05 05:45:00,61.3,37.5,30.00,SSW,202,3.1,3.1,41,0.00,,,0.00,VWS V14.01,2013-03-05 11:45:00,
2013-03-05 05:46:00,61.5,37.6,30.00,West,270,1.3,3.4,41,0.00,,,0.00,VWS V14.01,2013-03-05 11:46:00,
2013-03-05 05:47:00,61.5,37.6,30.00,SSW,202,2.9,2.9,41,0.00,,,0.00,VWS V14.01,2013-03-05 11:47:00,
2013-03-05 05:48:00,61.5,37.6,30.00,WSW,248,2.2,3.1,41,0.00,,,0.00,VWS V14.01,2013-03-05 11:48:00,
2013-03-05 05:49:00,61.5,37.6,30.00,SSW,202,3.1,3.1,41,0.00,,,0.00,VWS V14.01,2013-03-05 11:49:00,
2013-03-05 05:50:00,61.3,37.5,30.00,WSW,248,0.9,0.9,41,0.00,,,0.00,VWS V14.01,2013-03-05 11:50:00,
2013-03-05 05:51:00,61.5,37.6,30.00,SSW,202,1.1,1.3,41,0.00,,,0.00,VWS V14.01,2013-03-05 11:51:00,
2013-03-05 05:52:00,61.5,37.6,30.00,SSE,158,3.4,3.4,41,0.00,,,0.00,VWS V14.01,2013-03-05 11:52:00,
2013-03-05 05:53:00,61.5,37.6,30.00,SSW,202,1.6,3.4,41,0.00,,,0.00,VWS V14.01,2013-03-05 11:53:00,
2013-03-05 05:54:00,61.5,37.6,30.00,SSW,202,0.0,1.6,41,0.00,,,0.00,VWS V14.01,2013-03-05 11:54:00,
2013-03-05 05:55:00,61.3,37.5,30.00,WSW,248,2.0,2.0,41,0.00,,,0.00,VWS V14.01,2013-03-05 11:55:00,
2013-03-05 05:56:00,61.5,37.6,30.00,SSW,202,0.0,2.5,41,0.00,,,0.00,VWS V14.01,2013-03-05 11:56:00,
2013-03-05 05:57:00,61.5,37.6,30.00,SSW,202,2.2,2.2,41,0.00,,,0.00,VWS V14.01,2013-03-05 11:57:00,
2013-03-05 05:58:00,61.5,37.6,30.00,WSW,248,0.0,2.2,41,0.00,,,0.00,VWS V14.01,2013-03-05 11:58:00,
2013-03-05 05:59:00,61.5,37.6,30.00,WSW,248,0.9,0.9,41,0.00,,,0.00,VWS V14.01,2013-03-05 11:59:00,
2013-03-05 06:00:00,61.3,37.5,30.03,SSE,158,3.8,3.8,41,0.00,,,0.00,VWS V14.01,2013-03-05 12:00:00,
2013-03-05 06:01:00,61.5,37.6,30.00,WSW,248,0.0,0.9,41,0.00,,,0.00,VWS V14.01,2013-03-05 12:01:00,
2013-03-05 06:02:00,61.5,37.6,30.00,WSW,248,0.0,1.1,41,0.00,,,0.00,VWS V14.01,2013-03-05 12:02:00,
2013-03-05 06:03:00,61.5,37.6,30.00,WSW,248,0.0,1.6,41,0.00,,,0.00,VWS V14.01,2013-03-05 12:03:00,
2013-03-05 06:04:00,61.5,37.6,30.00,WSW,248,0.0,0.0,41,0.00,,,0.00,VWS V14.01,2013-03-05 12:04:00,
2013-03-05 06:05:00,61.3,37.5,30.03,SSW,202,0.0,1.1,41,0.00,,,0.00,VWS V14.01,2013-03-05 12:05:00,
2013-03-05 06:06:00,61.5,37.6,30.00,WSW,248,0.9,0.9,41,0.00,,,0.00,VWS V14.01,2013-03-05 12:06:00,
2013-03-05 06:07:00,61.3,37.5,30.00,SSW,202,0.0,0.9,41,0.00,,,0.00,VWS V14.01,2013-03-05 12:07:00,
2013-03-05 06:08:00,61.3,37.5,30.00,SSW,202,0.0,0.0,41,0.00,,,0.00,VWS V14.01,2013-03-05 12:08:00,
2013-03-05 06:09:00,61.3,37.5,30.00,SSW,202,3.1,3.1,41,0.00,,,0.00,VWS V14.01,2013-03-05 12:09:00,
2013-03-05 06:10:00,61.3,37.5,30.03,South,180,3.1,3.1,41,0.00,,,0.00,VWS V14.01,2013-03-05 12:10:00,
2013-03-05 06:11:00,61.3,37.5,30.00,SSW,202,3.1,3.1,41,0.00,,,0.00,VWS V14.01,2013-03-05 12:11:00,
2013-03-05 06:12:00,61.3,37.5,30.00,SSW,202,3.1,3.1,41,0.00,,,0.00,VWS V14.01,2013-03-05 12:12:00,
2013-03-05 06:14:00,61.3,37.5,30.00,WSW,248,0.0,3.1,41,0.00,,,0.00,VWS V14.01,2013-03-05 12:14:00,
2013-03-05 06:15:00,61.3,38.1,30.00,WSW,248,1.1,1.1,42,0.00,,,0.00,VWS V14.01,2013-03-05 12:15:00,
2013-03-05 06:16:00,61.3,37.5,30.00,WSW,248,0.0,2.5,41,0.00,,,0.00,VWS V14.01,2013-03-05 12:16:00,
2013-03-05 06:17:00,61.3,37.5,30.00,WSW,248,1.1,1.1,41,0.00,,,0.00,VWS V14.01,2013-03-05 12:17:00,
2013-03-05 06:18:00,61.3,37.5,30.00,WSW,248,1.1,1.6,41,0.00,,,0.00,VWS V14.01,2013-03-05 12:18:00,
2013-03-05 06:19:00,61.3,37.5,30.00,WSW,248,0.9,2.2,41,0.00,,,0.00,VWS V14.01,2013-03-05 12:19:00,
2013-03-05 06:20:00,61.2,37.9,30.00,SSW,202,2.2,2.5,42,0.00,,,0.00,VWS V14.01,2013-03-05 12:20:00,
2013-03-05 06:21:00,61.3,37.5,30.00,WSW,248,1.3,1.3,41,0.00,,,0.00,VWS V14.01,2013-03-05 12:21:00,
2013-03-05 06:22:00,61.3,37.5,30.00,WSW,248,0.0,2.0,41,0.00,,,0.00,VWS V14.01,2013-03-05 12:22:00,
2013-03-05 06:23:00,61.3,37.5,30.00,WSW,248,0.0,0.0,41,0.00,,,0.00,VWS V14.01,2013-03-05 12:23:00,
2013-03-05 06:25:00,61.3,38.7,30.00,SSE,158,2.0,2.0,43,0.00,,,0.00,VWS V14.01,2013-03-05 12:25:00,
2013-03-05 06:26:00,61.3,37.5,30.03,WSW,248,0.0,1.6,41,0.00,,,0.00,VWS V14.01,2013-03-05 12:26:00,
2013-03-05 06:27:00,61.3,37.5,30.03,South,180,2.5,3.8,41,0.00,,,0.00,VWS V14.01,2013-03-05 12:27:00,
2013-03-05 06:28:00,61.3,37.5,30.03,SSW,202,3.1,3.1,41,0.00,,,0.00,VWS V14.01,2013-03-05 12:28:00,
2013-03-05 06:29:00,61.3,37.5,30.03,SSW,202,2.7,3.6,41,0.00,,,0.00,VWS V14.01,2013-03-05 12:29:00,
2013-03-05 06:30:00,61.3,39.3,30.00,ESE,112,2.5,2.5,44,0.00,,,0.00,VWS V14.01,2013-03-05 12:30:00,
2013-03-05 06:31:00,61.3,37.5,30.03,SSW,202,0.0,2.7,41,0.00,,,0.00,VWS V14.01,2013-03-05 12:31:00,
2013-03-05 06:32:00,61.3,37.5,30.03,SSW,202,0.0,1.1,41,0.00,,,0.00,VWS V14.01,2013-03-05 12:32:00,
2013-03-05 06:33:00,61.3,37.5,30.03,SSW,202,0.0,0.0,41,0.00,,,0.00,VWS V14.01,2013-03-05 12:33:00,
2013-03-05 06:34:00,61.3,37.5,30.03,SSW,202,0.0,0.0,41,0.00,,,0.00,VWS V14.01,2013-03-05 12:34:00,
2013-03-05 06:35:00,61.3,39.3,30.00,SSW,202,1.1,1.1,44,0.00,,,0.00,VWS V14.01,2013-03-05 12:35:00,
2013-03-05 06:36:00,61.3,37.5,30.03,ESE,112,2.7,2.7,41,0.00,,,0.00,VWS V14.01,2013-03-05 12:36:00,
2013-03-05 06:37:00,61.3,37.5,30.03,South,180,0.0,3.1,41,0.00,,,0.00,VWS V14.01,2013-03-05 12:37:00,
2013-03-05 06:38:00,61.3,37.5,30.03,South,180,0.0,0.0,41,0.00,,,0.00,VWS V14.01,2013-03-05 12:38:00,
2013-03-05 06:39:00,61.3,37.5,30.03,WNW,292,1.6,2.0,41,0.00,,,0.00,VWS V14.01,2013-03-05 12:39:00,
2013-03-05 06:40:00,61.3,39.8,30.00,SSW,202,0.0,0.0,45,0.00,,,0.00,VWS V14.01,2013-03-05 12:40:00,
2013-03-05 06:41:00,61.3,38.1,30.00,WSW,248,0.9,2.7,42,0.00,,,0.00,VWS V14.01,2013-03-05 12:41:00,
2013-03-05 06:42:00,61.3,38.1,30.00,WSW,248,2.5,2.5,42,0.00,,,0.00,VWS V14.01,2013-03-05 12:42:00,
2013-03-05 06:43:00,61.3,38.1,30.00,WSW,248,0.0,2.5,42,0.00,,,0.00,VWS V14.01,2013-03-05 12:43:00,
2013-03-05 06:44:00,61.3,38.1,30.00,SSW,202,2.9,2.9,42,0.00,,,0.00,VWS V14.01,2013-03-05 12:44:00,
2013-03-05 06:45:00,61.3,39.8,30.00,SSE,158,0.0,0.9,45,0.00,,,0.00,VWS V14.01,2013-03-05 12:45:00,
2013-03-05 06:46:00,61.2,37.9,30.00,SSW,202,2.5,4.0,42,0.00,,,0.00,VWS V14.01,2013-03-05 12:46:00,
2013-03-05 06:47:00,61.3,38.1,30.00,South,180,2.9,2.9,42,0.00,,,0.00,VWS V14.01,2013-03-05 12:47:00,
2013-03-05 06:48:00,61.3,38.1,30.00,South,180,2.5,3.1,42,0.00,,,0.00,VWS V14.01,2013-03-05 12:48:00,
2013-03-05 06:49:00,61.3,38.1,30.00,South,180,2.5,2.5,42,0.00,,,0.00,VWS V14.01,2013-03-05 12:49:00,
2013-03-05 06:50:00,61.5,40.6,30.00,SSE,158,1.3,1.6,46,0.00,,,0.00,VWS V14.01,2013-03-05 12:50:00,
2013-03-05 06:51:00,61.3,39.3,30.00,SSE,158,2.0,2.0,44,0.00,,,0.00,VWS V14.01,2013-03-05 12:51:00,
2013-03-05 06:52:00,61.3,39.3,30.00,South,180,0.0,2.0,44,0.00,,,0.00,VWS V14.01,2013-03-05 12:52:00,
2013-03-05 06:53:00,61.3,39.3,30.00,SSW,202,2.9,2.9,44,0.00,,,0.00,VWS V14.01,2013-03-05 12:53:00,
2013-03-05 06:54:00,61.3,39.3,30.00,SSE,158,3.1,3.1,44,0.00,,,0.00,VWS V14.01,2013-03-05 12:54:00,
2013-03-05 06:55:00,61.5,40.6,30.00,WSW,248,2.2,2.2,46,0.00,,,0.00,VWS V14.01,2013-03-05 12:55:00,
2013-03-05 06:56:00,61.3,39.3,30.00,ESE,112,2.5,2.7,44,0.00,,,0.00,VWS V14.01,2013-03-05 12:56:00,
2013-03-05 06:57:00,61.3,39.3,30.00,SW,225,1.6,4.0,44,0.00,,,0.00,VWS V14.01,2013-03-05 12:57:00,
2013-03-05 06:58:00,61.3,39.3,30.00,SW,225,1.3,2.7,44,0.00,,,0.00,VWS V14.01,2013-03-05 12:58:00,
2013-03-05 06:59:00,61.3,39.3,30.00,SW,225,0.0,1.6,44,0.00,,,0.00,VWS V14.01,2013-03-05 12:59:00,
2013-03-05 07:00:00,61.5,40.6,30.03,SW,225,2.5,3.6,46,0.00,,,0.00,VWS V14.01,2013-03-05 13:00:00,
2013-03-05 07:01:00,61.3,39.3,30.00,SSW,202,1.1,3.1,44,0.00,,,0.00,VWS V14.01,2013-03-05 13:01:00,
2013-03-05 07:02:00,61.3,39.3,30.00,SSW,202,0.0,1.1,44,0.00,,,0.00,VWS V14.01,2013-03-05 13:02:00,
2013-03-05 07:03:00,61.3,39.3,30.00,SSW,202,0.0,0.0,44,0.00,,,0.00,VWS V14.01,2013-03-05 13:03:00,
2013-03-05 07:04:00,61.3,39.8,30.00,SSW,202,1.1,1.1,45,0.00,,,0.00,VWS V14.01,2013-03-05 13:04:00,
2013-03-05 07:05:00,61.7,40.7,30.03,WSW,248,2.5,2.5,46,0.00,,,0.00,VWS V14.01,2013-03-05 13:05:00,
2013-03-05 07:06:00,61.3,39.8,30.00,SSW,202,0.0,0.0,45,0.00,,,0.00,VWS V14.01,2013-03-05 13:06:00,
2013-03-05 07:07:00,61.3,39.8,30.00,SSW,202,0.0,0.0,45,0.00,,,0.00,VWS V14.01,2013-03-05 13:07:00,
2013-03-05 07:08:00,61.3,39.8,30.00,SW,225,0.0,0.0,45,0.00,,,0.00,VWS V14.01,2013-03-05 13:08:00,
2013-03-05 07:09:00,61.3,39.8,30.00,WSW,248,0.0,0.0,45,0.00,,,0.00,VWS V14.01,2013-03-05 13:09:00,
2013-03-05 07:10:00,61.7,41.3,30.03,SSW,202,2.9,2.9,47,0.00,,,0.00,VWS V14.01,2013-03-05 13:10:00,
2013-03-05 07:11:00,61.3,39.8,30.00,SSW,202,0.9,2.7,45,0.00,,,0.00,VWS V14.01,2013-03-05 13:11:00,
2013-03-05 07:12:00,61.3,39.8,30.00,SSW,202,3.8,3.8,45,0.00,,,0.00,VWS V14.01,2013-03-05 13:12:00,
2013-03-05 07:13:00,61.3,39.8,30.00,WSW,248,2.2,3.8,45,0.00,,,0.00,VWS V14.01,2013-03-05 13:13:00,
2013-03-05 07:14:00,61.3,39.8,30.00,SW,225,2.7,3.6,45,0.00,,,0.00,VWS V14.01,2013-03-05 13:14:00,
2013-03-05 07:15:00,61.7,41.8,30.00,SW,225,2.0,2.0,48,0.00,,,0.00,VWS V14.01,2013-03-05 13:15:00,
2013-03-05 07:16:00,61.5,40.6,30.00,SSE,158,1.6,3.8,46,0.00,,,0.00,VWS V14.01,2013-03-05 13:16:00,
2013-03-05 07:17:00,61.5,40.6,30.00,WSW,248,2.0,2.0,46,0.00,,,0.00,VWS V14.01,2013-03-05 13:17:00,
2013-03-05 07:18:00,61.5,40.6,30.00,WSW,248,2.2,2.2,46,0.00,,,0.00,VWS V14.01,2013-03-05 13:18:00,
2013-03-05 07:19:00,61.5,40.6,30.00,SSW,202,1.3,2.2,46,0.00,,,0.00,VWS V14.01,2013-03-05 13:19:00,
2013-03-05 07:20:00,61.9,42.0,30.00,WSW,248,2.5,2.5,48,0.00,,,0.00,VWS V14.01,2013-03-05 13:20:00,
2013-03-05 07:21:00,61.5,40.6,30.00,WSW,248,2.2,2.2,46,0.00,,,0.00,VWS V14.01,2013-03-05 13:21:00,
2013-03-05 07:22:00,61.5,40.6,30.00,WSW,248,0.0,2.2,46,0.00,,,0.00,VWS V14.01,2013-03-05 13:22:00,
2013-03-05 07:23:00,61.5,40.6,30.00,SSE,158,2.5,2.7,46,0.00,,,0.00,VWS V14.01,2013-03-05 13:23:00,
2013-03-05 07:25:00,61.9,41.5,30.00,SSW,202,0.0,0.0,47,0.00,,,0.00,VWS V14.01,2013-03-05 13:25:00,
2013-03-05 07:26:00,61.5,40.6,30.03,SW,225,3.6,3.6,46,0.00,,,0.00,VWS V14.01,2013-03-05 13:26:00,
2013-03-05 07:27:00,61.5,40.6,30.03,SSW,202,1.1,3.6,46,0.00,,,0.00,VWS V14.01,2013-03-05 13:27:00,
2013-03-05 07:28:00,61.5,40.6,30.03,South,180,3.1,3.1,46,0.00,,,0.00,VWS V14.01,2013-03-05 13:28:00,
2013-03-05 07:29:00,61.5,40.6,30.03,South,180,5.8,5.8,46,0.00,,,0.00,VWS V14.01,2013-03-05 13:29:00,
2013-03-05 07:30:00,61.9,41.5,30.03,SSW,202,0.0,0.0,47,0.00,,,0.00,VWS V14.01,2013-03-05 13:30:00,
2013-03-05 07:31:00,61.7,40.7,30.03,WSW,248,2.5,3.4,46,0.00,,,0.00,VWS V14.01,2013-03-05 13:31:00,
2013-03-05 07:32:00,61.7,41.3,30.03,WSW,248,1.1,3.4,47,0.00,,,0.00,VWS V14.01,2013-03-05 13:32:00,
2013-03-05 07:33:00,61.7,41.3,30.03,WSW,248,2.5,2.5,47,0.00,,,0.00,VWS V14.01,2013-03-05 13:33:00,
2013-03-05 07:34:00,61.7,41.3,30.03,SSW,202,2.2,3.8,47,0.00,,,0.00,VWS V14.01,2013-03-05 13:34:00,
2013-03-05 07:35:00,62.1,42.2,30.03,SE,135,2.5,3.1,48,0.00,,,0.00,VWS V14.01,2013-03-05 13:35:00,
2013-03-05 07:36:00,61.7,41.3,30.03,SSW,202,2.0,3.8,47,0.00,,,0.00,VWS V14.01,2013-03-05 13:36:00,
2013-03-05 07:37:00,61.7,41.3,30.03,SSE,158,2.9,3.4,47,0.00,,,0.00,VWS V14.01,2013-03-05 13:37:00,
2013-03-05 07:38:00,61.7,41.3,30.03,South,180,2.9,4.0,47,0.00,,,0.00,VWS V14.01,2013-03-05 13:38:00,
2013-03-05 07:39:00,61.7,41.3,30.03,SSW,202,2.0,2.9,47,0.00,,,0.00,VWS V14.01,2013-03-05 13:39:00,
2013-03-05 07:40:00,62.1,41.6,30.03,SSW,202,1.3,1.3,47,0.00,,,0.00,VWS V14.01,2013-03-05 13:40:00,
2013-03-05 07:41:00,61.7,41.8,30.00,SW,225,2.0,2.9,48,0.00,,,0.00,VWS V14.01,2013-03-05 13:41:00,
2013-03-05 07:43:00,61.7,41.8,30.00,SSE,158,5.8,5.8,48,0.00,,,0.00,VWS V14.01,2013-03-05 13:43:00,
2013-03-05 07:44:00,61.7,41.8,30.00,South,180,1.6,5.8,48,0.00,,,0.00,VWS V14.01,2013-03-05 13:44:00,
2013-03-05 07:45:00,62.2,42.3,30.03,WSW,248,4.3,4.3,48,0.00,,,0.00,VWS V14.01,2013-03-05 13:45:00,
2013-03-05 07:46:00,61.9,42.0,30.00,WSW,248,2.5,2.5,48,0.00,,,0.00,VWS V14.01,2013-03-05 13:46:00,
2013-03-05 07:47:00,61.9,42.0,30.00,SW,225,2.0,2.9,48,0.00,,,0.00,VWS V14.01,2013-03-05 13:47:00,
2013-03-05 07:48:00,61.9,42.0,30.00,SW,225,0.0,2.0,48,0.00,,,0.00,VWS V14.01,2013-03-05 13:48:00,
2013-03-05 07:49:00,62.2,42.3,30.03,WSW,248,1.1,1.1,48,0.00,,,0.00,VWS V14.01,2013-03-05 13:49:00,
2013-03-05 07:50:00,61.9,42.0,30.00,SSW,202,0.0,2.7,48,0.00,,,0.00,VWS V14.01,2013-03-05 13:50:00,
2013-03-05 07:51:00,61.9,41.5,30.00,SSW,202,0.0,0.0,47,0.00,,,0.00,VWS V14.01,2013-03-05 13:51:00,
2013-03-05 07:52:00,61.9,42.0,30.00,SSW,202,0.0,0.0,48,0.00,,,0.00,VWS V14.01,2013-03-05 13:52:00,
2013-03-05 07:53:00,61.9,41.5,30.00,SSW,202,0.0,0.0,47,0.00,,,0.00,VWS V14.01,2013-03-05 13:53:00,
2013-03-05 07:54:00,62.2,42.3,30.03,SSE,158,0.0,2.0,48,0.00,,,0.00,VWS V14.01,2013-03-05 13:54:00,
2013-03-05 07:55:00,61.9,41.5,30.03,SSW,202,0.0,0.0,47,0.00,,,0.00,VWS V14.01,2013-03-05 13:55:00,
2013-03-05 07:56:00,61.9,41.5,30.03,SSW,202,0.0,0.0,47,0.00,,,0.00,VWS V14.01,2013-03-05 13:56:00,
2013-03-05 07:57:00,62.1,42.2,30.03,SSW,202,3.4,3.4,48,0.00,,,0.00,VWS V14.01,2013-03-05 13:57:00,
2013-03-05 07:58:00,62.1,41.6,30.03,SSW,202,2.9,3.4,47,0.00,,,0.00,VWS V14.01,2013-03-05 13:58:00,
2013-03-05 07:59:00,62.4,42.5,30.00,WSW,248,0.0,2.0,48,0.00,,,0.00,VWS V14.01,2013-03-05 13:59:00,
2013-03-05 08:00:00,62.1,42.2,30.03,SE,135,2.0,2.7,48,0.00,,,0.00,VWS V14.01,2013-03-05 14:00:00,
2013-03-05 08:01:00,62.1,41.6,30.03,SE,135,1.1,3.1,47,0.00,,,0.00,VWS V14.01,2013-03-05 14:01:00,
2013-03-05 08:02:00,62.1,41.6,30.03,SE,135,1.6,1.6,47,0.00,,,0.00,VWS V14.01,2013-03-05 14:02:00,
2013-03-05 08:03:00,62.1,41.6,30.03,SW,225,1.1,2.2,47,0.00,,,0.00,VWS V14.01,2013-03-05 14:03:00,
2013-03-05 08:04:00,62.6,42.7,30.00,SW,225,0.9,1.6,48,0.00,,,0.00,VWS V14.01,2013-03-05 14:04:00,
2013-03-05 08:05:00,62.1,42.2,30.03,SW,225,0.0,1.3,48,0.00,,,0.00,VWS V14.01,2013-03-05 14:05:00,
2013-03-05 08:06:00,62.1,41.6,30.03,SSW,202,1.3,1.3,47,0.00,,,0.00,VWS V14.01,2013-03-05 14:06:00,
2013-03-05 08:07:00,62.1,41.6,30.03,SSW,202,0.0,2.7,47,0.00,,,0.00,VWS V14.01,2013-03-05 14:07:00,
2013-03-05 08:08:00,62.2,42.3,30.03,SSW,202,0.0,0.0,48,0.00,,,0.00,VWS V14.01,2013-03-05 14:08:00,
2013-03-05 08:09:00,62.6,43.2,30.00,WSW,248,3.8,3.8,49,0.00,,,0.00,VWS V14.01,2013-03-05 14:09:00,
2013-03-05 08:10:00,62.2,41.8,30.03,SSE,158,0.0,1.1,47,0.00,,,0.00,VWS V14.01,2013-03-05 14:10:00,
2013-03-05 08:11:00,62.2,42.3,30.03,WSW,248,4.3,4.3,48,0.00,,,0.00,VWS V14.01,2013-03-05 14:11:00,
2013-03-05 08:12:00,62.2,42.3,30.03,SSE,158,2.0,4.3,48,0.00,,,0.00,VWS V14.01,2013-03-05 14:12:00,
2013-03-05 08:13:00,62.2,42.3,30.03,WSW,248,2.9,2.9,48,0.00,,,0.00,VWS V14.01,2013-03-05 14:13:00,
2013-03-05 08:14:00,62.6,42.7,30.09,WSW,248,2.7,4.0,48,0.00,,,0.00,VWS V14.01,2013-03-05 14:14:00,
2013-03-05 08:15:00,62.2,42.3,30.03,WSW,248,0.0,1.6,48,0.00,,,0.00,VWS V14.01,2013-03-05 14:15:00,
2013-03-05 08:16:00,62.2,42.3,30.03,WSW,248,1.1,1.1,48,0.00,,,0.00,VWS V14.01,2013-03-05 14:16:00,
2013-03-05 08:17:00,62.2,42.3,30.03,WSW,248,2.2,2.2,48,0.00,,,0.00,VWS V14.01,2013-03-05 14:17:00,
2013-03-05 08:18:00,62.2,42.3,30.03,SSW,202,3.1,3.1,48,0.00,,,0.00,VWS V14.01,2013-03-05 14:18:00,
2013-03-05 08:19:00,62.6,43.2,30.09,WSW,248,1.3,1.3,49,0.00,,,0.00,VWS V14.01,2013-03-05 14:19:00,
2013-03-05 08:20:00,62.2,42.3,30.03,SSE,158,0.0,2.0,48,0.00,,,0.00,VWS V14.01,2013-03-05 14:20:00,
2013-03-05 08:21:00,62.2,42.3,30.03,SSE,158,0.0,0.0,48,0.00,,,0.00,VWS V14.01,2013-03-05 14:21:00,
2013-03-05 08:22:00,62.2,42.3,30.03,SSE,158,0.0,0.0,48,0.00,,,0.00,VWS V14.01,2013-03-05 14:22:00,
2013-03-05 08:23:00,62.4,42.5,30.03,SSE,158,0.0,0.0,48,0.00,,,0.00,VWS V14.01,2013-03-05 14:23:00,
2013-03-05 08:24:00,62.6,43.2,30.09,WSW,248,0.0,1.6,49,0.00,,,0.00,VWS V14.01,2013-03-05 14:24:00,
2013-03-05 08:25:00,62.4,42.5,30.00,WSW,248,2.0,2.2,48,0.00,,,0.00,VWS V14.01,2013-03-05 14:25:00,
2013-03-05 08:26:00,62.4,42.5,30.00,WSW,248,0.0,2.0,48,0.00,,,0.00,VWS V14.01,2013-03-05 14:26:00,
2013-03-05 08:27:00,62.4,42.5,30.00,WSW,248,0.0,0.0,48,0.00,,,0.00,VWS V14.01,2013-03-05 14:27:00,
2013-03-05 08:28:00,62.4,42.5,30.00,West,270,0.0,0.0,48,0.00,,,0.00,VWS V14.01,2013-03-05 14:28:00,
2013-03-05 08:29:00,62.8,43.4,30.09,SSW,202,2.5,2.5,49,0.00,,,0.00,VWS V14.01,2013-03-05 14:29:00,
2013-03-05 08:30:00,62.4,42.5,30.00,WSW,248,0.0,0.0,48,0.00,,,0.00,VWS V14.01,2013-03-05 14:30:00,
2013-03-05 08:31:00,62.6,42.7,30.00,SW,225,1.6,3.1,48,0.00,,,0.00,VWS V14.01,2013-03-05 14:31:00,
2013-03-05 08:32:00,62.6,42.7,30.00,SW,225,0.0,1.6,48,0.00,,,0.00,VWS V14.01,2013-03-05 14:32:00,
2013-03-05 08:33:00,62.6,42.7,30.00,WSW,248,0.0,0.0,48,0.00,,,0.00,VWS V14.01,2013-03-05 14:33:00,
2013-03-05 08:34:00,62.6,43.2,30.09,West,270,1.3,1.3,49,0.00,,,0.00,VWS V14.01,2013-03-05 14:34:00,
2013-03-05 08:35:00,62.6,42.7,30.00,WSW,248,3.4,3.4,48,0.00,,,0.00,VWS V14.01,2013-03-05 14:35:00,
2013-03-05 08:36:00,62.6,43.2,30.00,WSW,248,3.8,3.8,49,0.00,,,0.00,VWS V14.01,2013-03-05 14:36:00,
2013-03-05 08:37:00,62.6,43.2,30.00,WSW,248,2.0,3.8,49,0.00,,,0.00,VWS V14.01,2013-03-05 14:37:00,
2013-03-05 08:38:00,62.6,43.2,30.00,WSW,248,3.1,5.4,49,0.00,,,0.00,VWS V14.01,2013-03-05 14:38:00,
2013-03-05 08:39:00,62.8,43.9,30.09,SSW,202,0.0,0.0,50,0.00,,,0.00,VWS V14.01,2013-03-05 14:39:00,
2013-03-05 08:40:00,62.6,42.7,30.00,West,270,4.0,4.0,48,0.00,,,0.00,VWS V14.01,2013-03-05 14:40:00,
2013-03-05 08:41:00,62.6,42.7,30.09,WSW,248,2.7,4.0,48,0.00,,,0.00,VWS V14.01,2013-03-05 14:41:00,
2013-03-05 08:42:00,62.6,42.7,30.09,WSW,248,1.3,3.6,48,0.00,,,0.00,VWS V14.01,2013-03-05 14:42:00,
2013-03-05 08:43:00,62.6,43.2,30.09,WSW,248,2.9,2.9,49,0.00,,,0.00,VWS V14.01,2013-03-05 14:43:00,
2013-03-05 08:44:00,62.8,43.9,30.06,SSW,202,0.0,0.0,50,0.00,,,0.00,VWS V14.01,2013-03-05 14:44:00,
2013-03-05 08:45:00,62.6,43.2,30.09,SW,225,1.3,4.0,49,0.00,,,0.00,VWS V14.01,2013-03-05 14:45:00,
2013-03-05 08:46:00,62.6,43.2,30.09,WSW,248,1.3,3.1,49,0.00,,,0.00,VWS V14.01,2013-03-05 14:46:00,
2013-03-05 08:48:00,62.6,43.2,30.09,SSW,202,0.9,4.0,49,0.00,,,0.00,VWS V14.01,2013-03-05 14:48:00,
2013-03-05 08:49:00,62.8,43.9,30.06,WSW,248,2.7,2.7,50,0.00,,,0.00,VWS V14.01,2013-03-05 14:49:00,
2013-03-05 08:50:00,62.6,43.2,30.09,SSW,202,1.3,1.3,49,0.00,,,0.00,VWS V14.01,2013-03-05 14:50:00,
2013-03-05 08:51:00,62.6,43.2,30.09,WSW,248,0.0,1.6,49,0.00,,,0.00,VWS V14.01,2013-03-05 14:51:00,
2013-03-05 08:52:00,62.6,43.2,30.09,WSW,248,0.0,0.0,49,0.00,,,0.00,VWS V14.01,2013-03-05 14:52:00,
2013-03-05 08:53:00,62.6,43.2,30.09,WSW,248,0.0,0.0,49,0.00,,,0.00,VWS V14.01,2013-03-05 14:53:00,
2013-03-05 08:54:00,63.0,44.0,30.06,SSE,158,0.0,1.1,50,0.00,,,0.00,VWS V14.01,2013-03-05 14:54:00,
2013-03-05 08:55:00,62.8,43.4,30.09,SSW,202,2.9,3.1,49,0.00,,,0.00,VWS V14.01,2013-03-05 14:55:00,
2013-03-05 08:56:00,62.8,43.4,30.09,SSW,202,2.5,2.9,49,0.00,,,0.00,VWS V14.01,2013-03-05 14:56:00,
2013-03-05 08:57:00,62.6,43.7,30.09,SSW,202,1.3,2.5,50,0.00,,,0.00,VWS V14.01,2013-03-05 14:57:00,
2013-03-05 08:58:00,62.8,43.9,30.09,SSW,202,2.9,3.6,50,0.00,,,0.00,VWS V14.01,2013-03-05 14:58:00,
2013-03-05 08:59:00,63.0,44.0,30.06,SSW,202,2.9,4.7,50,0.00,,,0.00,VWS V14.01,2013-03-05 14:59:00,
2013-03-05 09:00:00,62.6,43.2,30.09,SSW,202,0.9,5.8,49,0.00,,,0.00,VWS V14.01,2013-03-05 15:00:00,
2013-03-05 09:01:00,62.6,43.2,30.09,West,270,1.3,2.7,49,0.00,,,0.00,VWS V14.01,2013-03-05 15:01:00,
2013-03-05 09:02:00,62.6,43.2,30.09,WSW,248,1.3,2.9,49,0.00,,,0.00,VWS V14.01,2013-03-05 15:02:00,
2013-03-05 09:03:00,62.8,43.4,30.09,WSW,248,3.4,3.8,49,0.00,,,0.00,VWS V14.01,2013-03-05 15:03:00,
2013-03-05 09:04:00,63.0,43.5,30.06,WSW,248,2.0,2.0,49,0.00,,,0.00,VWS V14.01,2013-03-05 15:04:00,
2013-03-05 09:06:00,62.8,43.9,30.09,SSW,202,0.0,2.5,50,0.00,,,0.00,VWS V14.01,2013-03-05 15:06:00,
2013-03-05 09:07:00,62.8,43.9,30.09,SSW,202,1.1,2.0,50,0.00,,,0.00,VWS V14.01,2013-03-05 15:07:00,
2013-03-05 09:08:00,62.8,43.9,30.09,SSW,202,1.6,2.5,50,0.00,,,0.00,VWS V14.01,2013-03-05 15:08:00,
2013-03-05 09:09:00,63.0,44.0,30.06,SSW,202,1.6,1.6,50,0.00,,,0.00,VWS V14.01,2013-03-05 15:09:00,
2013-03-05 09:10:00,62.8,43.4,30.06,SSW,202,0.0,1.6,49,0.00,,,0.00,VWS V14.01,2013-03-05 15:10:00,
2013-03-05 09:11:00,62.8,43.9,30.06,SSW,202,0.0,0.0,50,0.00,,,0.00,VWS V14.01,2013-03-05 15:11:00,
2013-03-05 09:12:00,62.8,43.4,30.06,SSW,202,0.0,0.0,49,0.00,,,0.00,VWS V14.01,2013-03-05 15:12:00,
2013-03-05 09:13:00,62.8,43.4,30.06,SSW,202,0.0,0.0,49,0.00,,,0.00,VWS V14.01,2013-03-05 15:13:00,
2013-03-05 09:14:00,63.0,44.0,30.06,SSW,202,1.3,2.7,50,0.00,,,0.00,VWS V14.01,2013-03-05 15:14:00,
2013-03-05 09:15:00,62.8,43.9,30.06,WSW,248,2.5,2.7,50,0.00,,,0.00,VWS V14.01,2013-03-05 15:15:00,
2013-03-05 09:16:00,62.8,43.9,30.06,West,270,1.1,2.5,50,0.00,,,0.00,VWS V14.01,2013-03-05 15:16:00,
2013-03-05 09:17:00,62.8,43.9,30.06,SSW,202,1.6,2.7,50,0.00,,,0.00,VWS V14.01,2013-03-05 15:17:00,
2013-03-05 09:18:00,62.8,43.9,30.06,SSE,158,2.0,2.9,50,0.00,,,0.00,VWS V14.01,2013-03-05 15:18:00,
2013-03-05 09:19:00,63.1,44.2,30.06,SSW,202,1.6,1.6,50,0.00,,,0.00,VWS V14.01,2013-03-05 15:19:00,
2013-03-05 09:20:00,62.8,43.9,30.06,SSE,158,1.1,1.1,50,0.00,,,0.00,VWS V14.01,2013-03-05 15:20:00,
2013-03-05 09:21:00,63.0,44.0,30.06,SSE,158,0.0,1.1,50,0.00,,,0.00,VWS V14.01,2013-03-05 15:21:00,
2013-03-05 09:22:00,63.0,44.0,30.06,SSE,158,0.0,0.0,50,0.00,,,0.00,VWS V14.01,2013-03-05 15:22:00,
2013-03-05 09:23:00,63.0,44.0,30.06,South,180,3.4,3.4,50,0.00,,,0.00,VWS V14.01,2013-03-05 15:23:00,
2013-03-05 09:24:00,63.1,44.2,30.06,SW,225,1.6,2.7,50,0.00,,,0.00,VWS V14.01,2013-03-05 15:24:00,
2013-03-05 09:25:00,63.0,44.0,30.06,South,180,4.7,4.7,50,0.00,,,0.00,VWS V14.01,2013-03-05 15:25:00,
2013-03-05 09:26:00,63.0,44.0,30.06,SSW,202,2.9,4.7,50,0.00,,,0.00,VWS V14.01,2013-03-05 15:26:00,
2013-03-05 09:27:00,63.0,43.5,30.06,NW,315,3.1,3.1,49,0.00,,,0.00,VWS V14.01,2013-03-05 15:27:00,
2013-03-05 09:28:00,63.0,43.5,30.06,WSW,248,2.5,3.6,49,0.00,,,0.00,VWS V14.01,2013-03-05 15:28:00,
2013-03-05 09:29:00,63.3,44.4,30.06,SW,225,5.8,5.8,50,0.00,,,0.00,VWS V14.01,2013-03-05 15:29:00,
2013-03-05 09:30:00,63.0,43.5,30.06,WSW,248,1.6,2.0,49,0.00,,,0.00,VWS V14.01,2013-03-05 15:30:00,
2013-03-05 09:31:00,63.0,43.5,30.06,WSW,248,2.0,3.4,49,0.00,,,0.00,VWS V14.01,2013-03-05 15:31:00,
2013-03-05 09:32:00,63.0,43.5,30.06,WSW,248,0.0,2.7,49,0.00,,,0.00,VWS V14.01,2013-03-05 15:32:00,
2013-03-05 09:33:00,63.0,44.0,30.06,SSW,202,0.0,2.2,50,0.00,,,0.00,VWS V14.01,2013-03-05 15:33:00,
2013-03-05 09:34:00,63.5,45.1,30.06,SSW,202,1.1,1.1,51,0.00,,,0.00,VWS V14.01,2013-03-05 15:34:00,
2013-03-05 09:35:00,63.0,44.0,30.06,SSW,202,1.6,1.6,50,0.00,,,0.00,VWS V14.01,2013-03-05 15:35:00,
2013-03-05 09:36:00,63.0,44.0,30.06,SSW,202,1.6,1.6,50,0.00,,,0.00,VWS V14.01,2013-03-05 15:36:00,
2013-03-05 09:37:00,63.0,44.0,30.06,SSW,202,0.0,2.7,50,0.00,,,0.00,VWS V14.01,2013-03-05 15:37:00,
2013-03-05 09:38:00,63.0,44.0,30.06,SSE,158,1.3,3.4,50,0.00,,,0.00,VWS V14.01,2013-03-05 15:38:00,
2013-03-05 09:39:00,63.5,45.1,30.06,SSW,202,2.9,2.9,51,0.00,,,0.00,VWS V14.01,2013-03-05 15:39:00,
2013-03-05 09:40:00,63.0,44.0,30.06,SSE,158,2.7,3.6,50,0.00,,,0.00,VWS V14.01,2013-03-05 15:40:00,
2013-03-05 09:41:00,63.0,44.0,30.06,SSW,202,1.3,2.7,50,0.00,,,0.00,VWS V14.01,2013-03-05 15:41:00,
2013-03-05 09:42:00,63.0,44.0,30.06,SSW,202,2.0,2.0,50,0.00,,,0.00,VWS V14.01,2013-03-05 15:42:00,
2013-03-05 09:43:00,63.0,44.0,30.06,SSW,202,0.0,2.0,50,0.00,,,0.00,VWS V14.01,2013-03-05 15:43:00,
2013-03-05 09:44:00,63.9,45.4,30.06,SSW,202,3.1,4.3,51,0.00,,,0.00,VWS V14.01,2013-03-05 15:44:00,
2013-03-05 09:45:00,63.1,44.2,30.06,SSW,202,1.6,1.6,50,0.00,,,0.00,VWS V14.01,2013-03-05 15:45:00,
2013-03-05 09:46:00,63.1,44.2,30.06,SSW,202,0.0,1.6,50,0.00,,,0.00,VWS V14.01,2013-03-05 15:46:00,
2013-03-05 09:47:00,63.1,44.2,30.06,SSW,202,1.1,1.1,50,0.00,,,0.00,VWS V14.01,2013-03-05 15:47:00,
2013-03-05 09:48:00,63.1,44.2,30.06,South,180,1.6,2.7,50,0.00,,,0.00,VWS V14.01,2013-03-05 15:48:00,
2013-03-05 09:49:00,64.2,45.7,30.06,SSW,202,5.6,6.0,51,0.00,,,0.00,VWS V14.01,2013-03-05 15:49:00,
2013-03-05 09:50:00,63.1,44.2,30.06,South,180,2.2,2.9,50,0.00,,,0.00,VWS V14.01,2013-03-05 15:50:00,
2013-03-05 09:51:00,63.1,44.2,30.06,SW,225,1.6,2.7,50,0.00,,,0.00,VWS V14.01,2013-03-05 15:51:00,
2013-03-05 09:52:00,63.1,44.2,30.06,SW,225,2.2,2.5,50,0.00,,,0.00,VWS V14.01,2013-03-05 15:52:00,
2013-03-05 09:53:00,63.3,44.4,30.06,SW,225,2.7,2.7,50,0.00,,,0.00,VWS V14.01,2013-03-05 15:53:00,
2013-03-05 09:54:00,64.4,45.9,30.06,SSW,202,8.7,8.7,51,0.00,,,0.00,VWS V14.01,2013-03-05 15:54:00,
2013-03-05 09:55:00,63.3,44.4,30.06,SW,225,5.8,5.8,50,0.00,,,0.00,VWS V14.01,2013-03-05 15:55:00,
2013-03-05 09:56:00,63.3,44.4,30.06,SW,225,5.8,5.8,50,0.00,,,0.00,VWS V14.01,2013-03-05 15:56:00,
2013-03-05 09:57:00,63.3,44.4,30.06,SSE,158,2.0,5.8,50,0.00,,,0.00,VWS V14.01,2013-03-05 15:57:00,
2013-03-05 09:58:00,63.3,44.4,30.06,SSE,158,1.1,2.2,50,0.00,,,0.00,VWS V14.01,2013-03-05 15:58:00,
2013-03-05 09:59:00,64.8,46.2,30.06,South,180,6.3,6.3,51,0.00,,,0.00,VWS V14.01,2013-03-05 15:59:00,
2013-03-05 10:00:00,63.5,44.5,30.06,SSW,202,2.7,4.9,50,0.00,,,0.00,VWS V14.01,2013-03-05 16:00:00,
2013-03-05 10:01:00,63.5,45.1,30.06,SSW,202,1.1,2.7,51,0.00,,,0.00,VWS V14.01,2013-03-05 16:01:00,
2013-03-05 10:02:00,63.5,45.1,30.06,SSW,202,0.0,1.1,51,0.00,,,0.00,VWS V14.01,2013-03-05 16:02:00,
2013-03-05 10:03:00,63.5,45.1,30.06,SE,135,4.0,4.9,51,0.00,,,0.00,VWS V14.01,2013-03-05 16:03:00,
2013-03-05 10:04:00,65.1,46.6,30.06,SSW,202,3.8,6.0,51,0.00,,,0.00,VWS V14.01,2013-03-05 16:04:00,
2013-03-05 10:05:00,63.5,45.1,30.06,South,180,2.7,5.8,51,0.00,,,0.00,VWS V14.01,2013-03-05 16:05:00,
2013-03-05 10:06:00,63.5,45.1,30.06,SSW,202,2.9,2.9,51,0.00,,,0.00,VWS V14.01,2013-03-05 16:06:00,
2013-03-05 10:07:00,63.7,44.7,30.06,South,180,2.0,4.3,50,0.00,,,0.00,VWS V14.01,2013-03-05 16:07:00,
2013-03-05 10:08:00,63.7,45.2,30.06,SSE,158,3.6,4.0,51,0.00,,,0.00,VWS V14.01,2013-03-05 16:08:00,
2013-03-05 10:09:00,65.5,46.4,30.06,SSW,202,2.7,7.4,50,0.00,,,0.00,VWS V14.01,2013-03-05 16:09:00,
2013-03-05 10:10:00,63.9,45.4,30.06,West,270,2.9,3.8,51,0.00,,,0.00,VWS V14.01,2013-03-05 16:10:00,
2013-03-05 10:11:00,63.9,45.4,30.06,SSW,202,3.1,4.3,51,0.00,,,0.00,VWS V14.01,2013-03-05 16:11:00,
2013-03-05 10:12:00,63.9,45.4,30.06,SSW,202,4.3,8.5,51,0.00,,,0.00,VWS V14.01,2013-03-05 16:12:00,
2013-03-05 10:13:00,64.0,45.6,30.06,South,180,6.0,6.0,51,0.00,,,0.00,VWS V14.01,2013-03-05 16:13:00,
2013-03-05 10:14:00,65.8,46.2,30.03,WSW,248,2.7,6.0,49,0.00,,,0.00,VWS V14.01,2013-03-05 16:14:00,
2013-03-05 10:15:00,64.0,45.6,30.06,WSW,248,2.7,6.0,51,0.00,,,0.00,VWS V14.01,2013-03-05 16:15:00,
2013-03-05 10:16:00,64.2,45.7,30.06,SSW,202,5.6,6.0,51,0.00,,,0.00,VWS V14.01,2013-03-05 16:16:00,
2013-03-05 10:17:00,64.2,45.7,30.06,SSW,202,4.3,6.5,51,0.00,,,0.00,VWS V14.01,2013-03-05 16:17:00,
2013-03-05 10:18:00,64.4,45.9,30.06,ENE,68,1.6,4.3,51,0.00,,,0.00,VWS V14.01,2013-03-05 16:18:00,
2013-03-05 10:19:00,66.0,46.3,30.03,SSE,158,5.8,6.3,49,0.00,,,0.00,VWS V14.01,2013-03-05 16:19:00,
2013-03-05 10:20:00,64.4,45.9,30.06,SSW,202,4.0,4.3,51,0.00,,,0.00,VWS V14.01,2013-03-05 16:20:00,
2013-03-05 10:22:00,64.4,45.9,30.06,SSW,202,8.7,8.7,51,0.00,,,0.00,VWS V14.01,2013-03-05 16:22:00,
2013-03-05 10:23:00,64.4,45.9,30.06,SSW,202,4.0,8.7,51,0.00,,,0.00,VWS V14.01,2013-03-05 16:23:00,
2013-03-05 10:24:00,66.2,46.0,30.03,WSW,248,5.6,6.9,48,0.00,,,0.00,VWS V14.01,2013-03-05 16:24:00,
2013-03-05 10:25:00,64.8,46.2,30.06,South,180,6.3,6.3,51,0.00,,,0.00,VWS V14.01,2013-03-05 16:25:00,
2013-03-05 10:26:00,64.8,46.2,30.06,South,180,6.3,6.3,51,0.00,,,0.00,VWS V14.01,2013-03-05 16:26:00,
2013-03-05 10:27:00,64.8,46.2,30.06,SSW,202,4.0,6.3,51,0.00,,,0.00,VWS V14.01,2013-03-05 16:27:00,
2013-03-05 10:28:00,64.9,46.4,30.06,South,180,3.1,5.4,51,0.00,,,0.00,VWS V14.01,2013-03-05 16:28:00,
2013-03-05 10:29:00,66.4,45.6,30.03,WNW,292,4.7,7.8,47,0.00,,,0.00,VWS V14.01,2013-03-05 16:29:00,
2013-03-05 10:30:00,64.9,46.4,30.06,SSW,202,5.4,6.7,51,0.00,,,0.00,VWS V14.01,2013-03-05 16:30:00,
2013-03-05 10:31:00,65.1,46.6,30.06,SSW,202,3.8,6.0,51,0.00,,,0.00,VWS V14.01,2013-03-05 16:31:00,
2013-03-05 10:32:00,65.1,46.0,30.06,SSW,202,2.9,8.1,50,0.00,,,0.00,VWS V14.01,2013-03-05 16:32:00,
2013-03-05 10:33:00,65.1,46.0,30.06,South,180,4.0,5.8,50,0.00,,,0.00,VWS V14.01,2013-03-05 16:33:00,
2013-03-05 10:34:00,66.6,45.7,30.03,SSE,158,5.6,7.6,47,0.00,,,0.00,VWS V14.01,2013-03-05 16:34:00,
2013-03-05 10:36:00,65.5,46.4,30.06,SSW,202,2.7,7.4,50,0.00,,,0.00,VWS V14.01,2013-03-05 16:36:00,
2013-03-05 10:37:00,65.5,46.4,30.06,SSW,202,6.3,6.3,50,0.00,,,0.00,VWS V14.01,2013-03-05 16:37:00,
2013-03-05 10:38:00,65.5,46.4,30.06,SSW,202,5.4,8.1,50,0.00,,,0.00,VWS V14.01,2013-03-05 16:38:00,
2013-03-05 10:39:00,66.9,44.9,30.03,South,180,5.4,8.7,45,0.00,,,0.00,VWS V14.01,2013-03-05 16:39:00,
2013-03-05 10:40:00,65.8,46.2,30.03,WSW,248,6.0,6.0,49,0.00,,,0.00,VWS V14.01,2013-03-05 16:40:00,
2013-03-05 10:41:00,65.8,46.2,30.03,WSW,248,2.7,6.0,49,0.00,,,0.00,VWS V14.01,2013-03-05 16:41:00,
2013-03-05 10:42:00,65.8,46.2,30.03,SSW,202,2.5,5.8,49,0.00,,,0.00,VWS V14.01,2013-03-05 16:42:00,
2013-03-05 10:43:00,66.0,46.3,30.03,WSW,248,8.5,8.5,49,0.00,,,0.00,VWS V14.01,2013-03-05 16:43:00,
2013-03-05 10:44:00,67.1,45.1,30.03,ESE,112,6.9,6.9,45,0.00,,,0.00,VWS V14.01,2013-03-05 16:44:00,
2013-03-05 10:45:00,66.0,46.3,30.03,SSW,202,6.0,8.5,49,0.00,,,0.00,VWS V14.01,2013-03-05 16:45:00,
2013-03-05 10:46:00,66.0,46.3,30.03,SSE,158,5.8,6.3,49,0.00,,,0.00,VWS V14.01,2013-03-05 16:46:00,
2013-03-05 10:47:00,66.0,46.3,30.03,SSW,202,5.6,5.8,49,0.00,,,0.00,VWS V14.01,2013-03-05 16:47:00,
2013-03-05 10:48:00,66.0,46.3,30.03,East,90,4.3,5.6,49,0.00,,,0.00,VWS V14.01,2013-03-05 16:48:00,
2013-03-05 10:49:00,67.1,44.5,30.03,NNW,338,5.8,5.8,44,0.00,,,0.00,VWS V14.01,2013-03-05 16:49:00,
2013-03-05 10:50:00,66.2,46.0,30.03,SSW,202,5.8,8.5,48,0.00,,,0.00,VWS V14.01,2013-03-05 16:50:00,
2013-03-05 10:51:00,66.2,46.0,30.03,SSE,158,5.4,6.9,48,0.00,,,0.00,VWS V14.01,2013-03-05 16:51:00,
2013-03-05 10:52:00,66.2,46.0,30.03,SSW,202,2.9,8.5,48,0.00,,,0.00,VWS V14.01,2013-03-05 16:52:00,
2013-03-05 10:53:00,66.2,46.0,30.03,SSW,202,5.4,5.4,48,0.00,,,0.00,VWS V14.01,2013-03-05 16:53:00,
2013-03-05 10:54:00,67.5,44.2,30.03,SSW,202,4.3,10.7,43,0.00,,,0.00,VWS V14.01,2013-03-05 16:54:00,
2013-03-05 10:55:00,66.2,45.4,30.03,SSW,202,5.8,6.5,47,0.00,,,0.00,VWS V14.01,2013-03-05 16:55:00,
2013-03-05 10:56:00,66.4,45.6,30.03,WNW,292,4.7,7.8,47,0.00,,,0.00,VWS V14.01,2013-03-05 16:56:00,
2013-03-05 10:57:00,66.4,45.6,30.03,SSE,158,5.6,6.7,47,0.00,,,0.00,VWS V14.01,2013-03-05 16:57:00,
2013-03-05 10:58:00,66.4,45.6,30.03,SSW,202,11.4,11.4,47,0.00,,,0.00,VWS V14.01,2013-03-05 16:58:00,
2013-03-05 10:59:00,67.6,43.8,30.03,SSW,202,7.8,7.8,42,0.00,,,0.00,VWS V14.01,2013-03-05 16:59:00,
2013-03-05 11:00:00,66.4,45.6,30.03,SE,135,4.3,4.3,47,0.00,,,0.00,VWS V14.01,2013-03-05 17:00:00,
2013-03-05 11:01:00,66.6,45.7,30.03,SSW,202,9.2,9.2,47,0.00,,,0.00,VWS V14.01,2013-03-05 17:01:00,
2013-03-05 11:02:00,66.7,45.3,30.03,SSW,202,7.8,9.2,46,0.00,,,0.00,VWS V14.01,2013-03-05 17:02:00,
2013-03-05 11:03:00,66.7,45.3,30.03,SSW,202,4.0,7.8,46,0.00,,,0.00,VWS V14.01,2013-03-05 17:03:00,
2013-03-05 11:04:00,67.8,42.0,30.03,SSE,158,4.0,4.7,39,0.00,,,0.00,VWS V14.01,2013-03-05 17:04:00,
2013-03-05 11:05:00,66.7,45.3,30.03,SSE,158,3.6,7.6,46,0.00,,,0.00,VWS V14.01,2013-03-05 17:05:00,
2013-03-05 11:06:00,66.9,44.9,30.03,SSW,202,4.3,8.7,45,0.00,,,0.00,VWS V14.01,2013-03-05 17:06:00,
2013-03-05 11:07:00,66.9,44.9,30.03,SSE,158,4.9,6.5,45,0.00,,,0.00,VWS V14.01,2013-03-05 17:07:00,
2013-03-05 11:08:00,66.9,44.9,30.03,SSE,158,2.7,4.9,45,0.00,,,0.00,VWS V14.01,2013-03-05 17:08:00,
2013-03-05 11:09:00,67.8,41.3,30.03,SSW,202,3.6,5.6,38,0.00,,,0.00,VWS V14.01,2013-03-05 17:09:00,
2013-03-05 11:10:00,66.9,44.9,30.03,SW,225,5.4,10.7,45,0.00,,,0.00,VWS V14.01,2013-03-05 17:10:00,
2013-03-05 11:11:00,67.1,45.1,30.03,ESE,112,6.9,6.9,45,0.00,,,0.00,VWS V14.01,2013-03-05 17:11:00,
2013-03-05 11:12:00,67.1,45.1,30.03,WSW,248,4.9,6.9,45,0.00,,,0.00,VWS V14.01,2013-03-05 17:12:00,
2013-03-05 11:13:00,67.1,45.1,30.03,WSW,248,3.1,4.9,45,0.00,,,0.00,VWS V14.01,2013-03-05 17:13:00,
2013-03-05 11:14:00,68.0,40.8,30.03,South,180,7.6,7.6,37,0.00,,,0.00,VWS V14.01,2013-03-05 17:14:00,
2013-03-05 11:15:00,67.3,44.7,30.03,SSW,202,4.0,10.1,44,0.00,,,0.00,VWS V14.01,2013-03-05 17:15:00,
2013-03-05 11:16:00,67.1,44.5,30.03,NNW,338,5.8,5.8,44,0.00,,,0.00,VWS V14.01,2013-03-05 17:16:00,
2013-03-05 11:17:00,67.3,44.7,30.03,SSW,202,7.8,12.1,44,0.00,,,0.00,VWS V14.01,2013-03-05 17:17:00,
2013-03-05 11:18:00,67.3,44.7,30.03,South,180,8.7,10.7,44,0.00,,,0.00,VWS V14.01,2013-03-05 17:18:00,
2013-03-05 11:19:00,68.4,40.4,30.03,WSW,248,10.3,10.7,36,0.00,,,0.00,VWS V14.01,2013-03-05 17:19:00,
2013-03-05 11:20:00,67.5,44.2,30.03,South,180,10.7,10.7,43,0.00,,,0.00,VWS V14.01,2013-03-05 17:20:00,
2013-03-05 11:21:00,67.5,44.2,30.03,SSW,202,8.5,10.7,43,0.00,,,0.00,VWS V14.01,2013-03-05 17:21:00,
2013-03-05 11:22:00,67.6,44.4,30.03,SW,225,7.2,9.6,43,0.00,,,0.00,VWS V14.01,2013-03-05 17:22:00,
2013-03-05 11:23:00,67.6,44.4,30.03,SW,225,7.2,7.2,43,0.00,,,0.00,VWS V14.01,2013-03-05 17:23:00,
2013-03-05 11:24:00,68.4,39.7,30.03,South,180,5.4,8.1,35,0.00,,,0.00,VWS V14.01,2013-03-05 17:24:00,
2013-03-05 11:25:00,67.6,43.8,30.03,South,180,3.8,6.5,42,0.00,,,0.00,VWS V14.01,2013-03-05 17:25:00,
2013-03-05 11:26:00,67.6,43.8,30.03,WSW,248,7.8,7.8,42,0.00,,,0.00,VWS V14.01,2013-03-05 17:26:00,
2013-03-05 11:27:00,67.6,43.1,30.03,WNW,292,5.4,7.8,41,0.00,,,0.00,VWS V14.01,2013-03-05 17:27:00,
2013-03-05 11:28:00,67.8,43.3,30.03,WSW,248,3.8,5.8,41,0.00,,,0.00,VWS V14.01,2013-03-05 17:28:00,
2013-03-05 11:29:00,68.2,39.5,30.03,SSW,202,6.5,7.8,35,0.00,,,0.00,VWS V14.01,2013-03-05 17:29:00,
2013-03-05 11:30:00,67.8,42.0,30.03,NNE,22,3.6,11.0,39,0.00,,,0.00,VWS V14.01,2013-03-05 17:30:00,
2013-03-05 11:32:00,67.8,42.0,30.03,SSE,158,4.0,4.7,39,0.00,,,0.00,VWS V14.01,2013-03-05 17:32:00,
2013-03-05 11:33:00,67.8,42.0,30.03,South,180,3.1,8.5,39,0.00,,,0.00,VWS V14.01,2013-03-05 17:33:00,
2013-03-05 11:34:00,68.4,38.9,30.03,SSW,202,2.9,8.5,34,0.00,,,0.00,VWS V14.01,2013-03-05 17:34:00,
2013-03-05 11:35:00,67.8,41.3,30.03,WSW,248,3.4,5.8,38,0.00,,,0.00,VWS V14.01,2013-03-05 17:35:00,
2013-03-05 11:36:00,67.8,41.3,30.03,SSW,202,3.6,5.6,38,0.00,,,0.00,VWS V14.01,2013-03-05 17:36:00,
2013-03-05 11:37:00,67.8,41.3,30.03,SSW,202,3.6,3.6,38,0.00,,,0.00,VWS V14.01,2013-03-05 17:37:00,
2013-03-05 11:38:00,67.8,41.3,30.03,South,180,6.0,6.0,38,0.00,,,0.00,VWS V14.01,2013-03-05 17:38:00,
2013-03-05 11:39:00,68.4,38.9,30.03,SSW,202,7.6,7.6,34,0.00,,,0.00,VWS V14.01,2013-03-05 17:39:00,
2013-03-05 11:40:00,67.8,40.6,30.03,ENE,68,5.8,6.5,37,0.00,,,0.00,VWS V14.01,2013-03-05 17:40:00,
2013-03-05 11:41:00,68.0,40.8,30.03,ESE,112,6.5,7.6,37,0.00,,,0.00,VWS V14.01,2013-03-05 17:41:00,
2013-03-05 11:42:00,68.0,40.8,30.03,SSW,202,5.6,8.5,37,0.00,,,0.00,VWS V14.01,2013-03-05 17:42:00,
2013-03-05 11:43:00,68.0,40.8,30.03,South,180,4.0,5.6,37,0.00,,,0.00,VWS V14.01,2013-03-05 17:43:00,
2013-03-05 11:44:00,68.4,38.9,30.00,South,180,3.8,12.5,34,0.00,,,0.00,VWS V14.01,2013-03-05 17:44:00,
2013-03-05 11:45:00,68.2,40.2,30.03,SE,135,10.7,10.7,36,0.00,,,0.00,VWS V14.01,2013-03-05 17:45:00,
2013-03-05 11:46:00,68.4,40.4,30.03,WSW,248,10.3,10.7,36,0.00,,,0.00,VWS V14.01,2013-03-05 17:46:00,
2013-03-05 11:47:00,68.4,40.4,30.03,SSW,202,4.0,10.3,36,0.00,,,0.00,VWS V14.01,2013-03-05 17:47:00,
2013-03-05 11:48:00,68.4,40.4,30.03,SSE,158,7.6,10.7,36,0.00,,,0.00,VWS V14.01,2013-03-05 17:48:00,
2013-03-05 11:49:00,68.2,38.0,30.00,SSW,202,4.0,7.4,33,0.00,,,0.00,VWS V14.01,2013-03-05 17:49:00,
2013-03-05 11:51:00,68.4,39.7,30.03,South,180,5.4,8.1,35,0.00,,,0.00,VWS V14.01,2013-03-05 17:51:00,
2013-03-05 11:52:00,68.4,39.7,30.03,SSE,158,7.2,7.2,35,0.00,,,0.00,VWS V14.01,2013-03-05 17:52:00,
2013-03-05 11:53:00,68.4,39.7,30.03,SSE,158,4.0,7.2,35,0.00,,,0.00,VWS V14.01,2013-03-05 17:53:00,
2013-03-05 11:54:00,68.2,38.8,30.00,South,180,10.5,10.5,34,0.00,,,0.00,VWS V14.01,2013-03-05 17:54:00,
2013-03-05 11:55:00,68.2,39.5,30.03,SSW,202,3.8,10.3,35,0.00,,,0.00,VWS V14.01,2013-03-05 17:55:00,
2013-03-05 11:56:00,68.2,39.5,30.03,SSW,202,6.5,7.8,35,0.00,,,0.00,VWS V14.01,2013-03-05 17:56:00,
2013-03-05 11:57:00,68.2,39.5,30.03,SW,225,6.3,10.1,35,0.00,,,0.00,VWS V14.01,2013-03-05 17:57:00,
2013-03-05 11:58:00,68.4,39.7,30.03,SSE,158,6.3,8.1,35,0.00,,,0.00,VWS V14.01,2013-03-05 17:58:00,
2013-03-05 11:59:00,68.0,37.8,30.03,SSE,158,2.7,8.7,33,0.00,,,0.00,VWS V14.01,2013-03-05 17:59:00,
2013-03-05 12:00:00,68.4,38.9,30.03,SSE,158,8.5,8.7,34,0.00,,,0.00,VWS V14.01,2013-03-05 18:00:00,
2013-03-05 12:01:00,68.4,38.9,30.03,South,180,2.7,8.5,34,0.00,,,0.00,VWS V14.01,2013-03-05 18:01:00,
2013-03-05 12:02:00,68.4,38.9,30.03,SSW,202,7.8,8.1,34,0.00,,,0.00,VWS V14.01,2013-03-05 18:02:00,
2013-03-05 12:03:00,68.4,38.9,30.03,SSW,202,2.9,7.8,34,0.00,,,0.00,VWS V14.01,2013-03-05 18:03:00,
2013-03-05 12:04:00,68.0,37.8,30.03,SSW,202,3.4,9.8,33,0.00,,,0.00,VWS V14.01,2013-03-05 18:04:00,
2013-03-05 12:05:00,68.4,38.9,30.03,SSW,202,3.8,9.4,34,0.00,,,0.00,VWS V14.01,2013-03-05 18:05:00,
2013-03-05 12:06:00,68.4,38.9,30.03,SSE,158,4.0,7.6,34,0.00,,,0.00,VWS V14.01,2013-03-05 18:06:00,
2013-03-05 12:07:00,68.4,38.9,30.03,SSW,202,1.6,7.4,34,0.00,,,0.00,VWS V14.01,2013-03-05 18:07:00,
2013-03-05 12:08:00,68.4,38.9,30.03,SW,225,7.8,7.8,34,0.00,,,0.00,VWS V14.01,2013-03-05 18:08:00,
2013-03-05 12:09:00,68.0,37.8,30.03,South,180,2.7,4.0,33,0.00,,,0.00,VWS V14.01,2013-03-05 18:09:00,
2013-03-05 12:10:00,68.4,38.9,30.00,SSW,202,12.5,12.5,34,0.00,,,0.00,VWS V14.01,2013-03-05 18:10:00,
2013-03-05 12:11:00,68.2,38.8,30.00,South,180,3.8,12.5,34,0.00,,,0.00,VWS V14.01,2013-03-05 18:11:00,
2013-03-05 12:12:00,68.2,38.8,30.00,WSW,248,2.9,5.4,34,0.00,,,0.00,VWS V14.01,2013-03-05 18:12:00,
2013-03-05 12:13:00,68.2,38.0,30.00,SSE,158,9.8,9.8,33,0.00,,,0.00,VWS V14.01,2013-03-05 18:13:00,
2013-03-05 12:14:00,68.0,37.8,30.00,SW,225,5.6,5.6,33,0.00,,,0.00,VWS V14.01,2013-03-05 18:14:00,
2013-03-05 12:15:00,68.2,38.0,30.00,SSW,202,4.0,6.0,33,0.00,,,0.00,VWS V14.01,2013-03-05 18:15:00,
2013-03-05 12:16:00,68.2,38.0,30.00,SSW,202,4.0,7.4,33,0.00,,,0.00,VWS V14.01,2013-03-05 18:16:00,
2013-03-05 12:17:00,68.2,38.0,30.00,WSW,248,4.9,4.9,33,0.00,,,0.00,VWS V14.01,2013-03-05 18:17:00,
2013-03-05 12:18:00,68.2,38.0,30.00,WSW,248,7.8,7.8,33,0.00,,,0.00,VWS V14.01,2013-03-05 18:18:00,
2013-03-05 12:19:00,68.0,37.8,30.00,SSE,158,4.9,4.9,33,0.00,,,0.00,VWS V14.01,2013-03-05 18:19:00,
2013-03-05 12:20:00,68.2,38.8,30.00,SSE,158,7.8,7.8,34,0.00,,,0.00,VWS V14.01,2013-03-05 18:20:00,
2013-03-05 12:21:00,68.2,38.8,30.00,South,180,10.5,10.5,34,0.00,,,0.00,VWS V14.01,2013-03-05 18:21:00,
2013-03-05 12:22:00,68.2,38.0,30.00,SSW,202,6.5,10.5,33,0.00,,,0.00,VWS V14.01,2013-03-05 18:22:00,
2013-03-05 12:23:00,68.0,38.6,30.00,WSW,248,8.5,8.5,34,0.00,,,0.00,VWS V14.01,2013-03-05 18:23:00,
2013-03-05 12:24:00,68.0,37.8,30.00,South,180,3.4,4.7,33,0.00,,,0.00,VWS V14.01,2013-03-05 18:24:00,
2013-03-05 12:25:00,68.2,38.8,30.03,SSW,202,6.3,6.5,34,0.00,,,0.00,VWS V14.01,2013-03-05 18:25:00,
2013-03-05 12:26:00,68.0,37.8,30.03,SSE,158,2.7,8.7,33,0.00,,,0.00,VWS V14.01,2013-03-05 18:26:00,
2013-03-05 12:28:00,68.0,37.8,30.03,South,180,5.6,5.6,33,0.00,,,0.00,VWS V14.01,2013-03-05 18:28:00,
2013-03-05 12:29:00,67.8,38.5,30.00,SSW,202,2.9,7.6,34,0.00,,,0.00,VWS V14.01,2013-03-05 18:29:00,
2013-03-05 12:30:00,68.0,37.8,30.03,SSW,202,5.6,7.6,33,0.00,,,0.00,VWS V14.01,2013-03-05 18:30:00,
2013-03-05 12:31:00,68.0,37.8,30.03,SSW,202,3.4,9.8,33,0.00,,,0.00,VWS V14.01,2013-03-05 18:31:00,
2013-03-05 12:32:00,68.0,37.8,30.03,SSW,202,6.0,6.0,33,0.00,,,0.00,VWS V14.01,2013-03-05 18:32:00,
2013-03-05 12:33:00,68.0,37.8,30.03,SW,225,4.3,6.0,33,0.00,,,0.00,VWS V14.01,2013-03-05 18:33:00,
2013-03-05 12:34:00,67.8,38.5,30.00,South,180,3.8,7.2,34,0.00,,,0.00,VWS V14.01,2013-03-05 18:34:00,
2013-03-05 12:35:00,68.0,37.8,30.03,SSW,202,4.0,12.8,33,0.00,,,0.00,VWS V14.01,2013-03-05 18:35:00,
2013-03-05 12:36:00,68.0,37.8,30.03,SW,225,4.9,4.9,33,0.00,,,0.00,VWS V14.01,2013-03-05 18:36:00,
2013-03-05 12:37:00,68.0,37.8,30.03,SSW,202,4.3,6.5,33,0.00,,,0.00,VWS V14.01,2013-03-05 18:37:00,
2013-03-05 12:38:00,68.0,37.8,30.03,SSW,202,5.8,6.3,33,0.00,,,0.00,VWS V14.01,2013-03-05 18:38:00,
2013-03-05 12:39:00,67.6,38.3,30.00,South,180,4.9,8.1,34,0.00,,,0.00,VWS V14.01,2013-03-05 18:39:00,
2013-03-05 12:40:00,68.0,37.8,30.00,SW,225,4.7,8.5,33,0.00,,,0.00,VWS V14.01,2013-03-05 18:40:00,
2013-03-05 12:41:00,68.0,37.8,30.00,SSW,202,5.6,5.6,33,0.00,,,0.00,VWS V14.01,2013-03-05 18:41:00,
2013-03-05 12:42:00,68.0,37.8,30.00,SSW,202,5.8,7.6,33,0.00,,,0.00,VWS V14.01,2013-03-05 18:42:00,
2013-03-05 12:43:00,68.0,37.8,30.00,SSE,158,10.1,10.1,33,0.00,,,0.00,VWS V14.01,2013-03-05 18:43:00,
2013-03-05 12:44:00,67.6,38.3,29.97,SSE,158,4.3,4.3,34,0.00,,,0.00,VWS V14.01,2013-03-05 18:44:00,
2013-03-05 12:45:00,68.0,38.6,30.00,SSW,202,3.8,6.0,34,0.00,,,0.00,VWS V14.01,2013-03-05 18:45:00,
2013-03-05 12:47:00,68.0,37.8,30.00,SSE,158,4.9,4.9,33,0.00,,,0.00,VWS V14.01,2013-03-05 18:47:00,
2013-03-05 12:48:00,68.0,37.8,30.00,NE,45,2.5,4.9,33,0.00,,,0.00,VWS V14.01,2013-03-05 18:48:00,
2013-03-05 12:49:00,67.6,38.3,29.97,SSW,202,2.9,8.7,34,0.00,,,0.00,VWS V14.01,2013-03-05 18:49:00,
2013-03-05 12:50:00,68.0,37.8,30.00,South,180,4.7,6.0,33,0.00,,,0.00,VWS V14.01,2013-03-05 18:50:00,
2013-03-05 12:51:00,68.0,37.8,30.00,South,180,3.4,4.7,33,0.00,,,0.00,VWS V14.01,2013-03-05 18:51:00,
2013-03-05 12:52:00,68.0,37.8,30.00,SSE,158,8.1,8.1,33,0.00,,,0.00,VWS V14.01,2013-03-05 18:52:00,
2013-03-05 12:53:00,68.0,37.8,30.00,SSW,202,2.7,8.1,33,0.00,,,0.00,VWS V14.01,2013-03-05 18:53:00,
2013-03-05 12:54:00,67.6,38.3,29.97,SW,225,3.8,7.2,34,0.00,,,0.00,VWS V14.01,2013-03-05 18:54:00,
2013-03-05 12:56:00,67.8,38.5,30.00,SSE,158,6.3,7.6,34,0.00,,,0.00,VWS V14.01,2013-03-05 18:56:00,
2013-03-05 12:57:00,67.8,38.5,30.00,SW,225,4.7,6.3,34,0.00,,,0.00,VWS V14.01,2013-03-05 18:57:00,
2013-03-05 12:58:00,67.8,38.5,30.00,South,180,3.1,4.7,34,0.00,,,0.00,VWS V14.01,2013-03-05 18:58:00,
2013-03-05 12:59:00,67.6,38.3,29.97,WSW,248,3.4,6.3,34,0.00,,,0.00,VWS V14.01,2013-03-05 18:59:00,
2013-03-05 13:00:00,67.8,38.5,30.00,West,270,7.2,8.5,34,0.00,,,0.00,VWS V14.01,2013-03-05 19:00:00,
2013-03-05 13:01:00,67.8,38.5,30.00,SSW,202,7.4,7.4,34,0.00,,,0.00,VWS V14.01,2013-03-05 19:01:00,
2013-03-05 13:02:00,67.8,38.5,30.00,WNW,292,4.7,7.4,34,0.00,,,0.00,VWS V14.01,2013-03-05 19:02:00,
2013-03-05 13:03:00,67.6,38.3,30.00,SSW,202,1.6,5.4,34,0.00,,,0.00,VWS V14.01,2013-03-05 19:03:00,
2013-03-05 13:04:00,67.5,38.1,29.97,SSW,202,4.9,4.9,34,0.00,,,0.00,VWS V14.01,2013-03-05 19:04:00,
2013-03-05 13:05:00,67.6,38.3,30.00,SSW,202,0.9,2.9,34,0.00,,,0.00,VWS V14.01,2013-03-05 19:05:00,
2013-03-05 13:06:00,67.6,38.3,30.00,South,180,4.0,8.1,34,0.00,,,0.00,VWS V14.01,2013-03-05 19:06:00,
2013-03-05 13:07:00,67.6,38.3,30.00,SSE,158,4.7,5.8,34,0.00,,,0.00,VWS V14.01,2013-03-05 19:07:00,
2013-03-05 13:08:00,67.6,38.3,30.00,SE,135,3.6,4.7,34,0.00,,,0.00,VWS V14.01,2013-03-05 19:08:00,
2013-03-05 13:09:00,67.5,38.1,29.97,South,180,4.9,4.9,34,0.00,,,0.00,VWS V14.01,2013-03-05 19:09:00,
2013-03-05 13:10:00,67.6,38.3,29.97,South,180,4.0,5.8,34,0.00,,,0.00,VWS V14.01,2013-03-05 19:10:00,
2013-03-05 13:11:00,67.6,38.3,29.97,SSE,158,4.5,4.5,34,0.00,,,0.00,VWS V14.01,2013-03-05 19:11:00,
2013-03-05 13:12:00,67.6,38.3,29.97,SSE,158,4.3,5.8,34,0.00,,,0.00,VWS V14.01,2013-03-05 19:12:00,
2013-03-05 13:13:00,67.6,38.3,29.97,SSW,202,4.3,4.3,34,0.00,,,0.00,VWS V14.01,2013-03-05 19:13:00,
2013-03-05 13:14:00,67.5,38.1,29.97,WSW,248,4.0,5.6,34,0.00,,,0.00,VWS V14.01,2013-03-05 19:14:00,
2013-03-05 13:15:00,67.6,38.3,29.97,ESE,112,8.7,10.1,34,0.00,,,0.00,VWS V14.01,2013-03-05 19:15:00,
2013-03-05 13:16:00,67.6,38.3,29.97,SSW,202,4.0,8.7,34,0.00,,,0.00,VWS V14.01,2013-03-05 19:16:00,
2013-03-05 13:17:00,67.6,38.3,29.97,SSE,158,4.7,4.7,34,0.00,,,0.00,VWS V14.01,2013-03-05 19:17:00,
2013-03-05 13:18:00,67.6,38.3,29.97,WSW,248,4.9,7.6,34,0.00,,,0.00,VWS V14.01,2013-03-05 19:18:00,
2013-03-05 13:19:00,67.3,38.0,29.97,SSW,202,7.6,7.6,34,0.00,,,0.00,VWS V14.01,2013-03-05 19:19:00,
2013-03-05 13:20:00,67.6,38.3,29.97,SSW,202,5.6,8.1,34,0.00,,,0.00,VWS V14.01,2013-03-05 19:20:00,
2013-03-05 13:21:00,67.6,38.3,29.97,SW,225,3.8,7.2,34,0.00,,,0.00,VWS V14.01,2013-03-05 19:21:00,
2013-03-05 13:22:00,67.6,38.3,29.97,SSE,158,4.7,4.7,34,0.00,,,0.00,VWS V14.01,2013-03-05 19:22:00,
2013-03-05 13:23:00,67.6,38.3,29.97,WSW,248,4.5,4.7,34,0.00,,,0.00,VWS V14.01,2013-03-05 19:23:00,
2013-03-05 13:24:00,67.3,38.0,29.97,SW,225,5.8,5.8,34,0.00,,,0.00,VWS V14.01,2013-03-05 19:24:00,
2013-03-05 13:25:00,67.6,38.3,29.97,SSE,158,6.3,8.7,34,0.00,,,0.00,VWS V14.01,2013-03-05 19:25:00,
2013-03-05 13:26:00,67.6,38.3,29.97,WSW,248,7.8,7.8,34,0.00,,,0.00,VWS V14.01,2013-03-05 19:26:00,
2013-03-05 13:27:00,67.5,38.1,29.97,WSW,248,3.4,7.8,34,0.00,,,0.00,VWS V14.01,2013-03-05 19:27:00,
2013-03-05 13:28:00,67.5,38.1,29.97,SSE,158,5.4,6.5,34,0.00,,,0.00,VWS V14.01,2013-03-05 19:28:00,
2013-03-05 13:29:00,67.1,38.6,29.97,ESE,112,5.4,6.9,35,0.00,,,0.00,VWS V14.01,2013-03-05 19:29:00,
2013-03-05 13:30:00,67.5,38.1,29.97,SSW,202,1.3,5.4,34,0.00,,,0.00,VWS V14.01,2013-03-05 19:30:00,
2013-03-05 13:31:00,67.5,38.1,29.97,SSW,202,4.9,4.9,34,0.00,,,0.00,VWS V14.01,2013-03-05 19:31:00,
2013-03-05 13:32:00,67.5,38.1,29.97,SSW,202,2.7,4.9,34,0.00,,,0.00,VWS V14.01,2013-03-05 19:32:00,
2013-03-05 13:33:00,67.5,38.1,29.97,SSW,202,4.7,4.7,34,0.00,,,0.00,VWS V14.01,2013-03-05 19:33:00,
2013-03-05 13:34:00,67.1,38.6,29.97,SSW,202,4.5,8.7,35,0.00,,,0.00,VWS V14.01,2013-03-05 19:34:00,
2013-03-05 13:35:00,67.5,38.1,29.97,SSW,202,4.7,8.7,34,0.00,,,0.00,VWS V14.01,2013-03-05 19:35:00,
2013-03-05 13:36:00,67.5,38.1,29.97,SSW,202,3.8,4.9,34,0.00,,,0.00,VWS V14.01,2013-03-05 19:36:00,
2013-03-05 13:37:00,67.5,38.1,29.97,WSW,248,5.4,5.6,34,0.00,,,0.00,VWS V14.01,2013-03-05 19:37:00,
2013-03-05 13:38:00,67.5,38.1,29.97,SSW,202,12.3,12.3,34,0.00,,,0.00,VWS V14.01,2013-03-05 19:38:00,
2013-03-05 13:39:00,67.1,38.6,29.97,South,180,6.5,6.5,35,0.00,,,0.00,VWS V14.01,2013-03-05 19:39:00,
2013-03-05 13:40:00,67.5,38.1,29.97,South,180,3.8,12.3,34,0.00,,,0.00,VWS V14.01,2013-03-05 19:40:00,
2013-03-05 13:41:00,67.5,38.1,29.97,SSW,202,6.3,6.3,34,0.00,,,0.00,VWS V14.01,2013-03-05 19:41:00,
2013-03-05 13:42:00,67.3,38.0,29.97,SSE,158,8.1,9.2,34,0.00,,,0.00,VWS V14.01,2013-03-05 19:42:00,
2013-03-05 13:43:00,67.3,38.0,29.97,SSW,202,5.8,9.8,34,0.00,,,0.00,VWS V14.01,2013-03-05 19:43:00,
2013-03-05 13:44:00,67.1,39.3,29.97,SSW,202,2.9,4.7,36,0.00,,,0.00,VWS V14.01,2013-03-05 19:44:00,
2013-03-05 13:45:00,67.3,38.0,29.97,SSW,202,3.8,4.3,34,0.00,,,0.00,VWS V14.01,2013-03-05 19:45:00,
2013-03-05 13:46:00,67.3,38.0,29.97,SSE,158,7.2,7.6,34,0.00,,,0.00,VWS V14.01,2013-03-05 19:46:00,
2013-03-05 13:47:00,67.3,38.0,29.97,SSE,158,7.2,7.2,34,0.00,,,0.00,VWS V14.01,2013-03-05 19:47:00,
2013-03-05 13:48:00,67.3,38.0,29.97,SW,225,3.6,7.2,34,0.00,,,0.00,VWS V14.01,2013-03-05 19:48:00,
2013-03-05 13:49:00,67.1,39.3,29.97,South,180,7.4,9.2,36,0.00,,,0.00,VWS V14.01,2013-03-05 19:49:00,
2013-03-05 13:50:00,67.3,38.0,29.97,SSW,202,3.8,5.6,34,0.00,,,0.00,VWS V14.01,2013-03-05 19:50:00,
2013-03-05 13:51:00,67.3,38.0,29.97,SW,225,5.8,5.8,34,0.00,,,0.00,VWS V14.01,2013-03-05 19:51:00,
2013-03-05 13:52:00,67.3,38.0,29.97,SSW,202,3.1,5.8,34,0.00,,,0.00,VWS V14.01,2013-03-05 19:52:00,
2013-03-05 13:53:00,67.1,37.8,29.97,SW,225,2.5,7.4,34,0.00,,,0.00,VWS V14.01,2013-03-05 19:53:00,
2013-03-05 13:54:00,67.3,39.4,29.97,SSW,202,5.6,7.4,36,0.00,,,0.00,VWS V14.01,2013-03-05 19:54:00,
2013-03-05 13:55:00,67.1,37.8,29.97,SSE,158,6.5,8.1,34,0.00,,,0.00,VWS V14.01,2013-03-05 19:55:00,
2013-03-05 13:56:00,67.1,38.6,29.97,ESE,112,5.4,6.9,35,0.00,,,0.00,VWS V14.01,2013-03-05 19:56:00,
2013-03-05 13:57:00,67.1,38.6,29.97,WSW,248,3.8,5.6,35,0.00,,,0.00,VWS V14.01,2013-03-05 19:57:00,
2013-03-05 13:58:00,67.1,38.6,29.97,SSW,202,9.4,9.4,35,0.00,,,0.00,VWS V14.01,2013-03-05 19:58:00,
2013-03-05 13:59:00,67.5,39.6,29.97,SSW,202,8.7,8.7,36,0.00,,,0.00,VWS V14.01,2013-03-05 19:59:00,
2013-03-05 14:00:00,67.1,38.6,29.97,SSW,202,8.7,8.7,35,0.00,,,0.00,VWS V14.01,2013-03-05 20:00:00,
2013-03-05 14:01:00,67.1,38.6,29.97,SSW,202,4.5,8.7,35,0.00,,,0.00,VWS V14.01,2013-03-05 20:01:00,
2013-03-05 14:02:00,67.1,38.6,29.97,SSW,202,3.6,4.5,35,0.00,,,0.00,VWS V14.01,2013-03-05 20:02:00,
2013-03-05 14:03:00,67.1,38.6,29.97,SSE,158,6.5,6.5,35,0.00,,,0.00,VWS V14.01,2013-03-05 20:03:00,
2013-03-05 14:04:00,67.6,39.8,29.97,SSW,202,3.1,3.8,36,0.00,,,0.00,VWS V14.01,2013-03-05 20:04:00,
2013-03-05 14:05:00,67.1,38.6,29.97,SSW,202,4.7,6.0,35,0.00,,,0.00,VWS V14.01,2013-03-05 20:05:00,
2013-03-05 14:06:00,67.1,38.6,29.97,South,180,4.3,6.5,35,0.00,,,0.00,VWS V14.01,2013-03-05 20:06:00,
2013-03-05 14:07:00,67.1,38.6,29.97,SSW,202,5.4,10.7,35,0.00,,,0.00,VWS V14.01,2013-03-05 20:07:00,
2013-03-05 14:08:00,67.1,38.6,29.97,SW,225,5.4,5.4,35,0.00,,,0.00,VWS V14.01,2013-03-05 20:08:00,
2013-03-05 14:09:00,67.6,39.8,29.97,SSW,202,8.7,8.7,36,0.00,,,0.00,VWS V14.01,2013-03-05 20:09:00,
2013-03-05 14:10:00,67.1,38.6,29.97,SSW,202,3.4,8.5,35,0.00,,,0.00,VWS V14.01,2013-03-05 20:10:00,
2013-03-05 14:11:00,67.1,39.3,29.97,SW,225,2.9,4.7,36,0.00,,,0.00,VWS V14.01,2013-03-05 20:11:00,
2013-03-05 14:12:00,67.1,38.6,29.97,SSW,202,3.8,9.8,35,0.00,,,0.00,VWS V14.01,2013-03-05 20:12:00,
2013-03-05 14:13:00,67.1,39.3,29.97,South,180,0.9,5.4,36,0.00,,,0.00,VWS V14.01,2013-03-05 20:13:00,
2013-03-05 14:14:00,67.8,39.9,29.97,SSW,202,4.3,5.6,36,0.00,,,0.00,VWS V14.01,2013-03-05 20:14:00,
2013-03-05 14:15:00,67.3,39.4,29.97,SW,225,4.0,4.3,36,0.00,,,0.00,VWS V14.01,2013-03-05 20:15:00,
2013-03-05 14:16:00,67.1,39.3,29.97,SE,135,6.0,9.2,36,0.00,,,0.00,VWS V14.01,2013-03-05 20:16:00,
2013-03-05 14:17:00,67.1,39.3,29.97,SSW,202,7.8,8.7,36,0.00,,,0.00,VWS V14.01,2013-03-05 20:17:00,
2013-03-05 14:18:00,67.3,39.4,29.97,SW,225,7.4,7.8,36,0.00,,,0.00,VWS V14.01,2013-03-05 20:18:00,
2013-03-05 14:19:00,68.0,40.1,29.97,SSE,158,5.6,8.1,36,0.00,,,0.00,VWS V14.01,2013-03-05 20:19:00,
2013-03-05 14:20:00,67.3,39.4,29.97,SSW,202,3.8,3.8,36,0.00,,,0.00,VWS V14.01,2013-03-05 20:20:00,
2013-03-05 14:21:00,67.3,39.4,29.97,SSW,202,4.3,7.4,36,0.00,,,0.00,VWS V14.01,2013-03-05 20:21:00,
2013-03-05 14:22:00,67.5,39.6,29.97,WSW,248,3.6,4.3,36,0.00,,,0.00,VWS V14.01,2013-03-05 20:22:00,
2013-03-05 14:23:00,67.5,39.6,29.97,WSW,248,3.6,3.6,36,0.00,,,0.00,VWS V14.01,2013-03-05 20:23:00,
2013-03-05 14:24:00,68.0,40.1,29.97,SSW,202,2.9,4.3,36,0.00,,,0.00,VWS V14.01,2013-03-05 20:24:00,
2013-03-05 14:25:00,67.5,39.6,29.97,SSE,158,2.9,7.8,36,0.00,,,0.00,VWS V14.01,2013-03-05 20:25:00,
2013-03-05 14:26:00,67.5,39.6,29.97,SSW,202,6.5,8.7,36,0.00,,,0.00,VWS V14.01,2013-03-05 20:26:00,
2013-03-05 14:27:00,67.5,39.6,29.97,SSW,202,6.5,6.5,36,0.00,,,0.00,VWS V14.01,2013-03-05 20:27:00,
2013-03-05 14:28:00,67.6,39.8,29.97,SSW,202,7.6,8.5,36,0.00,,,0.00,VWS V14.01,2013-03-05 20:28:00,
2013-03-05 14:29:00,68.2,40.2,29.94,SSW,202,6.5,15.4,36,0.00,,,0.00,VWS V14.01,2013-03-05 20:29:00,
2013-03-05 14:30:00,67.6,39.8,29.97,South,180,3.1,6.0,36,0.00,,,0.00,VWS V14.01,2013-03-05 20:30:00,
2013-03-05 14:31:00,67.6,39.8,29.97,SSW,202,10.3,10.3,36,0.00,,,0.00,VWS V14.01,2013-03-05 20:31:00,
2013-03-05 14:32:00,67.6,39.8,29.97,South,180,7.2,10.3,36,0.00,,,0.00,VWS V14.01,2013-03-05 20:32:00,
2013-03-05 14:33:00,67.6,39.8,29.97,SW,225,2.0,8.7,36,0.00,,,0.00,VWS V14.01,2013-03-05 20:33:00,
2013-03-05 14:34:00,68.2,39.5,29.94,SSW,202,3.4,4.9,35,0.00,,,0.00,VWS V14.01,2013-03-05 20:34:00,
2013-03-05 14:35:00,67.6,39.8,29.97,SSW,202,8.5,8.5,36,0.00,,,0.00,VWS V14.01,2013-03-05 20:35:00,
2013-03-05 14:36:00,67.6,39.8,29.97,South,180,6.0,8.7,36,0.00,,,0.00,VWS V14.01,2013-03-05 20:36:00,
2013-03-05 14:37:00,67.6,39.8,29.97,South,180,3.6,6.0,36,0.00,,,0.00,VWS V14.01,2013-03-05 20:37:00,
2013-03-05 14:38:00,67.8,39.9,29.97,SE,135,9.4,9.4,36,0.00,,,0.00,VWS V14.01,2013-03-05 20:38:00,
2013-03-05 14:39:00,68.2,39.5,29.94,South,180,3.8,9.8,35,0.00,,,0.00,VWS V14.01,2013-03-05 20:39:00,
2013-03-05 14:40:00,67.8,39.9,29.97,WSW,248,5.6,6.5,36,0.00,,,0.00,VWS V14.01,2013-03-05 20:40:00,
2013-03-05 14:41:00,67.8,39.9,29.97,South,180,3.6,5.6,36,0.00,,,0.00,VWS V14.01,2013-03-05 20:41:00,
2013-03-05 14:42:00,67.8,39.9,29.97,SSW,202,7.8,7.8,36,0.00,,,0.00,VWS V14.01,2013-03-05 20:42:00,
2013-03-05 14:43:00,67.8,39.9,29.97,WNW,292,5.8,8.5,36,0.00,,,0.00,VWS V14.01,2013-03-05 20:43:00,
2013-03-05 14:44:00,68.2,39.5,29.94,SSW,202,5.8,10.1,35,0.00,,,0.00,VWS V14.01,2013-03-05 20:44:00,
2013-03-05 14:45:00,68.0,40.1,29.97,SSE,158,5.8,7.6,36,0.00,,,0.00,VWS V14.01,2013-03-05 20:45:00,
2013-03-05 14:46:00,68.0,40.1,29.97,SSW,202,5.8,8.1,36,0.00,,,0.00,VWS V14.01,2013-03-05 20:46:00,
2013-03-05 14:47:00,68.0,40.1,29.97,SSW,202,6.9,8.5,36,0.00,,,0.00,VWS V14.01,2013-03-05 20:47:00,
2013-03-05 14:48:00,68.0,40.1,29.97,SSE,158,5.4,6.9,36,0.00,,,0.00,VWS V14.01,2013-03-05 20:48:00,
2013-03-05 14:49:00,68.4,40.4,29.94,SSW,202,6.5,6.5,36,0.00,,,0.00,VWS V14.01,2013-03-05 20:49:00,
2013-03-05 14:50:00,68.0,40.1,29.97,SSW,202,4.3,4.3,36,0.00,,,0.00,VWS V14.01,2013-03-05 20:50:00,
2013-03-05 14:51:00,68.0,40.1,29.97,SSW,202,2.0,4.3,36,0.00,,,0.00,VWS V14.01,2013-03-05 20:51:00,
2013-03-05 14:52:00,68.0,40.1,29.97,SSW,202,4.9,5.6,36,0.00,,,0.00,VWS V14.01,2013-03-05 20:52:00,
2013-03-05 14:53:00,68.0,40.1,29.97,SSE,158,3.1,12.5,36,0.00,,,0.00,VWS V14.01,2013-03-05 20:53:00,
2013-03-05 14:54:00,68.4,40.4,29.94,East,90,3.6,7.8,36,0.00,,,0.00,VWS V14.01,2013-03-05 20:54:00,
2013-03-05 14:55:00,68.2,40.2,29.94,SSW,202,4.3,10.7,36,0.00,,,0.00,VWS V14.01,2013-03-05 20:55:00,
2013-03-05 14:56:00,68.2,40.2,29.94,South,180,10.7,15.4,36,0.00,,,0.00,VWS V14.01,2013-03-05 20:56:00,
2013-03-05 14:57:00,68.2,40.2,29.94,South,180,6.5,10.7,36,0.00,,,0.00,VWS V14.01,2013-03-05 20:57:00,
2013-03-05 14:58:00,68.2,39.5,29.94,SSW,202,8.7,9.2,35,0.00,,,0.00,VWS V14.01,2013-03-05 20:58:00,
2013-03-05 14:59:00,68.4,40.4,29.94,SSW,202,4.0,4.0,36,0.00,,,0.00,VWS V14.01,2013-03-05 20:59:00,
2013-03-05 15:00:00,68.2,39.5,29.94,SSW,202,2.9,9.6,35,0.00,,,0.00,VWS V14.01,2013-03-05 21:00:00,
2013-03-05 15:01:00,68.2,39.5,29.94,SSW,202,5.4,5.4,35,0.00,,,0.00,VWS V14.01,2013-03-05 21:01:00,
2013-03-05 15:02:00,68.2,39.5,29.94,WNW,292,12.5,12.5,35,0.00,,,0.00,VWS V14.01,2013-03-05 21:02:00,
2013-03-05 15:03:00,68.2,39.5,29.94,SSW,202,7.6,12.5,35,0.00,,,0.00,VWS V14.01,2013-03-05 21:03:00,
2013-03-05 15:04:00,68.4,39.7,29.94,West,270,3.1,8.7,35,0.00,,,0.00,VWS V14.01,2013-03-05 21:04:00,
2013-03-05 15:05:00,68.2,39.5,29.94,SSE,158,9.2,9.2,35,0.00,,,0.00,VWS V14.01,2013-03-05 21:05:00,
2013-03-05 15:06:00,68.2,39.5,29.94,South,180,3.8,9.8,35,0.00,,,0.00,VWS V14.01,2013-03-05 21:06:00,
2013-03-05 15:07:00,68.2,39.5,29.94,SW,225,2.7,3.8,35,0.00,,,0.00,VWS V14.01,2013-03-05 21:07:00,
2013-03-05 15:08:00,68.2,39.5,29.94,SSW,202,4.7,6.3,35,0.00,,,0.00,VWS V14.01,2013-03-05 21:08:00,
2013-03-05 15:09:00,68.5,39.8,29.94,SSW,202,3.8,6.7,35,0.00,,,0.00,VWS V14.01,2013-03-05 21:09:00,
2013-03-05 15:10:00,68.2,39.5,29.94,SSW,202,10.1,10.1,35,0.00,,,0.00,VWS V14.01,2013-03-05 21:10:00,
2013-03-05 15:11:00,68.2,39.5,29.94,SSW,202,5.6,10.1,35,0.00,,,0.00,VWS V14.01,2013-03-05 21:11:00,
2013-03-05 15:12:00,68.2,39.5,29.94,SSW,202,6.3,6.3,35,0.00,,,0.00,VWS V14.01,2013-03-05 21:12:00,
2013-03-05 15:13:00,68.4,40.4,29.94,SSE,158,3.6,9.8,36,0.00,,,0.00,VWS V14.01,2013-03-05 21:13:00,
2013-03-05 15:14:00,68.5,39.8,29.94,SSE,158,6.3,10.7,35,0.00,,,0.00,VWS V14.01,2013-03-05 21:14:00,
2013-03-05 15:15:00,68.4,40.4,29.94,SSW,202,3.4,4.7,36,0.00,,,0.00,VWS V14.01,2013-03-05 21:15:00,
2013-03-05 15:16:00,68.4,40.4,29.94,South,180,4.3,6.5,36,0.00,,,0.00,VWS V14.01,2013-03-05 21:16:00,
2013-03-05 15:17:00,68.4,40.4,29.94,SSE,158,5.6,5.6,36,0.00,,,0.00,VWS V14.01,2013-03-05 21:17:00,
2013-03-05 15:18:00,68.4,40.4,29.94,West,270,3.8,7.2,36,0.00,,,0.00,VWS V14.01,2013-03-05 21:18:00,
2013-03-05 15:19:00,68.5,39.8,29.94,South,180,6.5,6.5,35,0.00,,,0.00,VWS V14.01,2013-03-05 21:19:00,
2013-03-05 15:20:00,68.4,40.4,29.94,SSW,202,4.9,7.2,36,0.00,,,0.00,VWS V14.01,2013-03-05 21:20:00,
2013-03-05 15:21:00,68.4,40.4,29.94,SSW,202,3.4,7.8,36,0.00,,,0.00,VWS V14.01,2013-03-05 21:21:00,
2013-03-05 15:22:00,68.4,40.4,29.94,South,180,3.4,6.3,36,0.00,,,0.00,VWS V14.01,2013-03-05 21:22:00,
2013-03-05 15:23:00,68.4,40.4,29.94,SSW,202,5.4,5.4,36,0.00,,,0.00,VWS V14.01,2013-03-05 21:23:00,
2013-03-05 15:24:00,68.5,39.8,29.94,SSW,202,4.9,4.9,35,0.00,,,0.00,VWS V14.01,2013-03-05 21:24:00,
2013-03-05 15:25:00,68.4,40.4,29.94,WNW,292,2.5,3.1,36,0.00,,,0.00,VWS V14.01,2013-03-05 21:25:00,
2013-03-05 15:26:00,68.4,40.4,29.94,WSW,248,3.6,4.0,36,0.00,,,0.00,VWS V14.01,2013-03-05 21:26:00,
2013-03-05 15:27:00,68.4,39.7,29.94,SSW,202,3.8,3.8,35,0.00,,,0.00,VWS V14.01,2013-03-05 21:27:00,
2013-03-05 15:28:00,68.4,39.7,29.94,SSW,202,5.6,7.6,35,0.00,,,0.00,VWS V14.01,2013-03-05 21:28:00,
2013-03-05 15:29:00,68.5,39.8,29.94,SSE,158,3.4,6.3,35,0.00,,,0.00,VWS V14.01,2013-03-05 21:29:00,
2013-03-05 15:30:00,68.4,39.7,29.94,SSE,158,5.8,7.8,35,0.00,,,0.00,VWS V14.01,2013-03-05 21:30:00,
2013-03-05 15:31:00,68.4,39.7,29.94,SSW,202,7.2,8.7,35,0.00,,,0.00,VWS V14.01,2013-03-05 21:31:00,
2013-03-05 15:32:00,68.4,39.7,29.94,SSW,202,2.5,7.2,35,0.00,,,0.00,VWS V14.01,2013-03-05 21:32:00,
2013-03-05 15:33:00,68.4,39.7,29.94,SSE,158,8.5,8.5,35,0.00,,,0.00,VWS V14.01,2013-03-05 21:33:00,
2013-03-05 15:34:00,68.5,39.8,29.94,SSE,158,2.2,6.3,35,0.00,,,0.00,VWS V14.01,2013-03-05 21:34:00,
2013-03-05 15:35:00,68.5,39.8,29.94,SSW,202,6.7,10.7,35,0.00,,,0.00,VWS V14.01,2013-03-05 21:35:00,
2013-03-05 15:37:00,68.5,39.8,29.94,SSW,202,3.8,6.7,35,0.00,,,0.00,VWS V14.01,2013-03-05 21:37:00,
2013-03-05 15:38:00,68.5,39.8,29.94,SSW,202,3.8,3.8,35,0.00,,,0.00,VWS V14.01,2013-03-05 21:38:00,
2013-03-05 15:39:00,68.5,39.8,29.94,West,270,3.4,4.9,35,0.00,,,0.00,VWS V14.01,2013-03-05 21:39:00,
2013-03-05 15:40:00,68.5,39.8,29.94,SSW,202,6.3,6.3,35,0.00,,,0.00,VWS V14.01,2013-03-05 21:40:00,
2013-03-05 15:41:00,68.5,39.8,29.94,SSE,158,6.3,10.7,35,0.00,,,0.00,VWS V14.01,2013-03-05 21:41:00,
2013-03-05 15:42:00,68.5,39.8,29.94,SSW,202,2.2,6.5,35,0.00,,,0.00,VWS V14.01,2013-03-05 21:42:00,
2013-03-05 15:43:00,68.5,39.8,29.94,WSW,248,8.7,8.7,35,0.00,,,0.00,VWS V14.01,2013-03-05 21:43:00,
2013-03-05 15:44:00,68.5,39.8,29.94,South,180,3.1,3.8,35,0.00,,,0.00,VWS V14.01,2013-03-05 21:44:00,
2013-03-05 15:45:00,68.5,39.8,29.94,South,180,3.8,6.5,35,0.00,,,0.00,VWS V14.01,2013-03-05 21:45:00,
2013-03-05 15:46:00,68.5,39.8,29.94,South,180,4.7,7.2,35,0.00,,,0.00,VWS V14.01,2013-03-05 21:46:00,
2013-03-05 15:47:00,68.4,39.7,29.94,SSE,158,4.0,6.3,35,0.00,,,0.00,VWS V14.01,2013-03-05 21:47:00,
2013-03-05 15:49:00,68.4,39.7,29.94,WSW,248,5.8,5.8,35,0.00,,,0.00,VWS V14.01,2013-03-05 21:49:00,
2013-03-05 15:50:00,68.5,39.8,29.94,WSW,248,4.0,8.5,35,0.00,,,0.00,VWS V14.01,2013-03-05 21:50:00,
2013-03-05 15:51:00,68.4,39.7,29.94,South,180,2.9,4.9,35,0.00,,,0.00,VWS V14.01,2013-03-05 21:51:00,
2013-03-05 15:52:00,68.4,39.7,29.94,South,180,6.0,6.0,35,0.00,,,0.00,VWS V14.01,2013-03-05 21:52:00,
2013-03-05 15:53:00,68.5,39.8,29.94,South,180,2.9,6.0,35,0.00,,,0.00,VWS V14.01,2013-03-05 21:53:00,
2013-03-05 15:54:00,68.4,39.7,29.94,SSW,202,3.8,4.3,35,0.00,,,0.00,VWS V14.01,2013-03-05 21:54:00,
2013-03-05 15:55:00,68.5,39.8,29.94,WNW,292,6.3,7.8,35,0.00,,,0.00,VWS V14.01,2013-03-05 21:55:00,
2013-03-05 15:56:00,68.5,39.8,29.94,SW,225,5.6,6.3,35,0.00,,,0.00,VWS V14.01,2013-03-05 21:56:00,
2013-03-05 15:57:00,68.5,39.8,29.94,SSE,158,3.8,5.6,35,0.00,,,0.00,VWS V14.01,2013-03-05 21:57:00,
2013-03-05 15:58:00,68.5,39.8,29.94,SSW,202,5.8,5.8,35,0.00,,,0.00,VWS V14.01,2013-03-05 21:58:00,
2013-03-05 15:59:00,68.2,40.2,29.94,WSW,248,4.7,6.3,36,0.00,,,0.00,VWS V14.01,2013-03-05 21:59:00,
2013-03-05 16:00:00,68.5,39.8,29.94,SSW,202,6.3,7.8,35,0.00,,,0.00,VWS V14.01,2013-03-05 22:00:00,
2013-03-05 16:01:00,68.5,39.8,29.94,SSW,202,3.4,6.3,35,0.00,,,0.00,VWS V14.01,2013-03-05 22:01:00,
2013-03-05 16:02:00,68.5,39.8,29.94,SSE,158,6.5,6.5,35,0.00,,,0.00,VWS V14.01,2013-03-05 22:02:00,
2013-03-05 16:03:00,68.5,39.8,29.94,West,270,7.6,7.6,35,0.00,,,0.00,VWS V14.01,2013-03-05 22:03:00,
2013-03-05 16:04:00,68.2,40.2,29.94,SSE,158,4.0,4.5,36,0.00,,,0.00,VWS V14.01,2013-03-05 22:04:00,
2013-03-05 16:05:00,68.5,39.8,29.94,SSW,202,4.0,4.0,35,0.00,,,0.00,VWS V14.01,2013-03-05 22:05:00,
2013-03-05 16:06:00,68.5,39.8,29.94,SSW,202,6.3,6.7,35,0.00,,,0.00,VWS V14.01,2013-03-05 22:06:00,
2013-03-05 16:07:00,68.5,39.8,29.94,SSE,158,4.0,6.3,35,0.00,,,0.00,VWS V14.01,2013-03-05 22:07:00,
2013-03-05 16:08:00,68.5,39.8,29.94,SSW,202,6.0,6.0,35,0.00,,,0.00,VWS V14.01,2013-03-05 22:08:00,
2013-03-05 16:09:00,68.0,40.1,29.94,SW,225,4.3,5.4,36,0.00,,,0.00,VWS V14.01,2013-03-05 22:09:00,
2013-03-05 16:10:00,68.5,39.8,29.94,SSW,202,3.8,7.8,35,0.00,,,0.00,VWS V14.01,2013-03-05 22:10:00,
2013-03-05 16:11:00,68.5,39.8,29.94,SSW,202,2.9,3.8,35,0.00,,,0.00,VWS V14.01,2013-03-05 22:11:00,
2013-03-05 16:12:00,68.4,39.7,29.94,South,180,4.3,4.9,35,0.00,,,0.00,VWS V14.01,2013-03-05 22:12:00,
2013-03-05 16:13:00,68.4,39.7,29.94,South,180,3.1,7.4,35,0.00,,,0.00,VWS V14.01,2013-03-05 22:13:00,
2013-03-05 16:14:00,68.0,40.1,29.94,WSW,248,7.2,7.2,36,0.00,,,0.00,VWS V14.01,2013-03-05 22:14:00,
2013-03-05 16:15:00,68.4,39.7,29.94,SSW,202,5.8,10.1,35,0.00,,,0.00,VWS V14.01,2013-03-05 22:15:00,
2013-03-05 16:16:00,68.4,39.7,29.94,South,180,5.8,5.8,35,0.00,,,0.00,VWS V14.01,2013-03-05 22:16:00,
2013-03-05 16:17:00,68.4,39.7,29.94,SSW,202,6.3,6.9,35,0.00,,,0.00,VWS V14.01,2013-03-05 22:17:00,
2013-03-05 16:19:00,67.8,40.6,29.94,SSW,202,2.0,2.7,37,0.00,,,0.00,VWS V14.01,2013-03-05 22:19:00,
2013-03-05 16:20:00,68.4,40.4,29.94,West,270,4.3,7.4,36,0.00,,,0.00,VWS V14.01,2013-03-05 22:20:00,
2013-03-05 16:21:00,68.4,40.4,29.94,SSW,202,2.5,4.3,36,0.00,,,0.00,VWS V14.01,2013-03-05 22:21:00,
2013-03-05 16:22:00,68.2,39.5,29.94,SW,225,7.8,7.8,35,0.00,,,0.00,VWS V14.01,2013-03-05 22:22:00,
2013-03-05 16:23:00,68.2,40.2,29.94,SW,225,4.3,14.5,36,0.00,,,0.00,VWS V14.01,2013-03-05 22:23:00,
2013-03-05 16:24:00,67.8,40.6,29.94,South,180,2.5,3.6,37,0.00,,,0.00,VWS V14.01,2013-03-05 22:24:00,
2013-03-05 16:26:00,68.2,40.2,29.94,WSW,248,4.7,6.3,36,0.00,,,0.00,VWS V14.01,2013-03-05 22:26:00,
2013-03-05 16:27:00,68.2,40.2,29.94,SSW,202,2.0,4.7,36,0.00,,,0.00,VWS V14.01,2013-03-05 22:27:00,
2013-03-05 16:29:00,67.6,39.8,29.97,WSW,248,1.6,2.0,36,0.00,,,0.00,VWS V14.01,2013-03-05 22:29:00,
2013-03-05 16:30:00,68.2,40.2,29.94,SSW,202,4.5,4.5,36,0.00,,,0.00,VWS V14.01,2013-03-05 22:30:00,
2013-03-05 16:31:00,68.2,40.2,29.94,SSW,202,6.7,6.7,36,0.00,,,0.00,VWS V14.01,2013-03-05 22:31:00,
2013-03-05 16:32:00,68.2,40.2,29.94,SSW,202,3.8,6.7,36,0.00,,,0.00,VWS V14.01,2013-03-05 22:32:00,
2013-03-05 16:33:00,68.2,40.2,29.94,WSW,248,3.6,4.0,36,0.00,,,0.00,VWS V14.01,2013-03-05 22:33:00,
2013-03-05 16:34:00,67.5,40.3,29.97,WSW,248,2.0,2.0,37,0.00,,,0.00,VWS V14.01,2013-03-05 22:34:00,
2013-03-05 16:35:00,68.0,40.1,29.94,South,180,5.4,5.4,36,0.00,,,0.00,VWS V14.01,2013-03-05 22:35:00,
2013-03-05 16:36:00,68.0,40.1,29.94,SSW,202,2.9,5.4,36,0.00,,,0.00,VWS V14.01,2013-03-05 22:36:00,
2013-03-05 16:38:00,68.0,40.1,29.94,ENE,68,1.1,4.0,36,0.00,,,0.00,VWS V14.01,2013-03-05 22:38:00,
2013-03-05 16:39:00,67.5,41.0,29.97,ESE,112,2.0,3.1,38,0.00,,,0.00,VWS V14.01,2013-03-05 22:39:00,
2013-03-05 16:40:00,68.0,40.1,29.94,SSW,202,3.4,3.4,36,0.00,,,0.00,VWS V14.01,2013-03-05 22:40:00,
2013-03-05 16:41:00,68.0,40.1,29.94,SSW,202,3.8,7.2,36,0.00,,,0.00,VWS V14.01,2013-03-05 22:41:00,
2013-03-05 16:42:00,68.0,40.1,29.94,SSW,202,6.0,6.0,36,0.00,,,0.00,VWS V14.01,2013-03-05 22:42:00,
2013-03-05 16:43:00,68.0,40.1,29.94,SSW,202,3.1,6.0,36,0.00,,,0.00,VWS V14.01,2013-03-05 22:43:00,
2013-03-05 16:44:00,67.5,41.0,29.94,SSW,202,2.2,3.6,38,0.00,,,0.00,VWS V14.01,2013-03-05 22:44:00,
2013-03-05 16:45:00,67.8,40.6,29.94,SSW,202,2.5,4.3,37,0.00,,,0.00,VWS V14.01,2013-03-05 22:45:00,
2013-03-05 16:46:00,67.8,40.6,29.94,SSW,202,5.6,5.6,37,0.00,,,0.00,VWS V14.01,2013-03-05 22:46:00,
2013-03-05 16:47:00,67.8,40.6,29.94,WSW,248,4.7,5.6,37,0.00,,,0.00,VWS V14.01,2013-03-05 22:47:00,
2013-03-05 16:48:00,67.8,40.6,29.94,SSE,158,2.7,5.6,37,0.00,,,0.00,VWS V14.01,2013-03-05 22:48:00,
2013-03-05 16:49:00,67.5,41.0,29.94,SSW,202,0.0,1.3,38,0.00,,,0.00,VWS V14.01,2013-03-05 22:49:00,
2013-03-05 16:50:00,67.8,40.6,29.94,SSE,158,1.3,1.6,37,0.00,,,0.00,VWS V14.01,2013-03-05 22:50:00,
2013-03-05 16:51:00,67.8,39.9,29.94,WSW,248,3.8,3.8,36,0.00,,,0.00,VWS V14.01,2013-03-05 22:51:00,
2013-03-05 16:52:00,67.8,39.9,29.94,WSW,248,3.6,6.3,36,0.00,,,0.00,VWS V14.01,2013-03-05 22:52:00,
2013-03-05 16:53:00,67.8,39.9,29.94,WSW,248,4.0,4.0,36,0.00,,,0.00,VWS V14.01,2013-03-05 22:53:00,
2013-03-05 16:54:00,67.6,41.2,29.94,SSW,202,0.0,0.0,38,0.00,,,0.00,VWS V14.01,2013-03-05 22:54:00,
2013-03-05 16:55:00,67.6,39.8,29.97,NNW,338,1.6,3.6,36,0.00,,,0.00,VWS V14.01,2013-03-05 22:55:00,
2013-03-05 16:56:00,67.6,39.8,29.97,NE,45,4.3,4.3,36,0.00,,,0.00,VWS V14.01,2013-03-05 22:56:00,
2013-03-05 16:57:00,67.6,39.8,29.97,West,270,3.1,4.3,36,0.00,,,0.00,VWS V14.01,2013-03-05 22:57:00,
2013-03-05 16:58:00,67.6,39.8,29.97,WNW,292,3.8,5.4,36,0.00,,,0.00,VWS V14.01,2013-03-05 22:58:00,
2013-03-05 16:59:00,67.6,41.2,29.94,ESE,112,0.0,0.0,38,0.00,,,0.00,VWS V14.01,2013-03-05 22:59:00,
2013-03-05 17:00:00,67.5,40.3,29.97,WSW,248,2.0,2.7,37,0.00,,,0.00,VWS V14.01,2013-03-05 23:00:00,
2013-03-05 17:01:00,67.5,40.3,29.97,WSW,248,0.0,2.0,37,0.00,,,0.00,VWS V14.01,2013-03-05 23:01:00,
2013-03-05 17:02:00,67.5,40.3,29.97,NNE,22,3.6,3.6,37,0.00,,,0.00,VWS V14.01,2013-03-05 23:02:00,
2013-03-05 17:03:00,67.5,40.3,29.97,NNE,22,1.1,3.6,37,0.00,,,0.00,VWS V14.01,2013-03-05 23:03:00,
2013-03-05 17:04:00,67.6,41.2,29.94,NNW,338,2.5,2.5,38,0.00,,,0.00,VWS V14.01,2013-03-05 23:04:00,
2013-03-05 17:05:00,67.5,41.0,29.97,ESE,112,3.1,3.1,38,0.00,,,0.00,VWS V14.01,2013-03-05 23:05:00,
2013-03-05 17:06:00,67.5,41.0,29.97,ESE,112,2.0,3.1,38,0.00,,,0.00,VWS V14.01,2013-03-05 23:06:00,
2013-03-05 17:07:00,67.5,41.0,29.97,SE,135,3.1,3.1,38,0.00,,,0.00,VWS V14.01,2013-03-05 23:07:00,
2013-03-05 17:08:00,67.5,41.0,29.97,SE,135,2.2,3.1,38,0.00,,,0.00,VWS V14.01,2013-03-05 23:08:00,
2013-03-05 17:09:00,67.8,39.2,29.94,NNW,338,5.6,6.5,35,0.00,,,0.00,VWS V14.01,2013-03-05 23:09:00,
2013-03-05 17:10:00,67.5,41.0,29.94,SSW,202,3.1,3.1,38,0.00,,,0.00,VWS V14.01,2013-03-05 23:10:00,
2013-03-05 17:11:00,67.5,41.0,29.94,SSW,202,2.2,3.6,38,0.00,,,0.00,VWS V14.01,2013-03-05 23:11:00,
2013-03-05 17:12:00,67.5,41.0,29.94,SSW,202,0.0,2.2,38,0.00,,,0.00,VWS V14.01,2013-03-05 23:12:00,
2013-03-05 17:13:00,67.5,41.0,29.94,SSW,202,1.1,2.2,38,0.00,,,0.00,VWS V14.01,2013-03-05 23:13:00,
2013-03-05 17:14:00,67.8,38.5,29.97,NNW,338,2.2,6.5,34,0.00,,,0.00,VWS V14.01,2013-03-05 23:14:00,
2013-03-05 17:15:00,67.5,41.0,29.94,SSW,202,1.3,1.3,38,0.00,,,0.00,VWS V14.01,2013-03-05 23:15:00,
2013-03-05 17:16:00,67.5,41.0,29.94,SSW,202,0.0,1.3,38,0.00,,,0.00,VWS V14.01,2013-03-05 23:16:00,
2013-03-05 17:17:00,67.5,41.0,29.94,SSW,202,1.3,1.3,38,0.00,,,0.00,VWS V14.01,2013-03-05 23:17:00,
2013-03-05 17:18:00,67.5,41.0,29.94,SSW,202,0.0,1.3,38,0.00,,,0.00,VWS V14.01,2013-03-05 23:18:00,
2013-03-05 17:19:00,67.8,37.7,29.97,NW,315,1.1,3.6,33,0.00,,,0.00,VWS V14.01,2013-03-05 23:19:00,
2013-03-05 17:20:00,67.6,41.2,29.94,SSW,202,0.0,0.0,38,0.00,,,0.00,VWS V14.01,2013-03-05 23:20:00,
2013-03-05 17:21:00,67.6,41.2,29.94,SSW,202,0.0,0.0,38,0.00,,,0.00,VWS V14.01,2013-03-05 23:21:00,
2013-03-05 17:23:00,67.6,41.2,29.94,ESE,112,2.5,2.5,38,0.00,,,0.00,VWS V14.01,2013-03-05 23:23:00,
2013-03-05 17:24:00,67.6,37.5,29.97,North,0,1.3,1.3,33,0.00,,,0.00,VWS V14.01,2013-03-05 23:24:00,
2013-03-05 17:25:00,67.6,41.2,29.94,ESE,112,0.0,1.6,38,0.00,,,0.00,VWS V14.01,2013-03-05 23:25:00,
2013-03-05 17:26:00,67.6,41.2,29.94,ESE,112,0.0,0.0,38,0.00,,,0.00,VWS V14.01,2013-03-05 23:26:00,
2013-03-05 17:27:00,67.6,41.2,29.94,ESE,112,1.3,1.3,38,0.00,,,0.00,VWS V14.01,2013-03-05 23:27:00,
2013-03-05 17:28:00,67.6,41.2,29.94,ESE,112,1.6,3.1,38,0.00,,,0.00,VWS V14.01,2013-03-05 23:28:00,
2013-03-05 17:29:00,67.5,37.4,29.94,NNW,338,8.7,8.7,33,0.00,,,0.00,VWS V14.01,2013-03-05 23:29:00,
2013-03-05 17:30:00,67.6,41.2,29.94,ESE,112,1.3,2.2,38,0.00,,,0.00,VWS V14.01,2013-03-05 23:30:00,
2013-03-05 17:31:00,67.8,41.3,29.94,NNW,338,4.0,4.0,38,0.00,,,0.00,VWS V14.01,2013-03-05 23:31:00,
2013-03-05 17:32:00,67.6,39.8,29.94,North,0,10.5,10.5,36,0.00,,,0.00,VWS V14.01,2013-03-05 23:32:00,
2013-03-05 17:33:00,67.8,39.2,29.94,NNW,338,6.3,10.5,35,0.00,,,0.00,VWS V14.01,2013-03-05 23:33:00,
2013-03-05 17:34:00,67.3,35.6,29.94,WNW,292,2.9,2.9,31,0.00,,,0.00,VWS V14.01,2013-03-05 23:34:00,
2013-03-05 17:35:00,67.8,38.5,29.94,NNW,338,5.6,7.4,34,0.00,,,0.00,VWS V14.01,2013-03-05 23:35:00,
2013-03-05 17:36:00,67.8,39.2,29.94,WNW,292,6.3,6.5,35,0.00,,,0.00,VWS V14.01,2013-03-05 23:36:00,
2013-03-05 17:37:00,67.8,38.5,29.94,WNW,292,4.0,6.3,34,0.00,,,0.00,VWS V14.01,2013-03-05 23:37:00,
2013-03-05 17:38:00,67.8,38.5,29.94,NNW,338,3.8,4.0,34,0.00,,,0.00,VWS V14.01,2013-03-05 23:38:00,
2013-03-05 17:39:00,67.1,33.8,29.94,SSW,202,2.0,2.2,29,0.00,,,0.00,VWS V14.01,2013-03-05 23:39:00,
2013-03-05 17:40:00,67.8,37.7,29.97,North,0,2.9,5.4,33,0.00,,,0.00,VWS V14.01,2013-03-05 23:40:00,
2013-03-05 17:41:00,67.8,38.5,29.97,NNW,338,1.3,6.5,34,0.00,,,0.00,VWS V14.01,2013-03-05 23:41:00,
2013-03-05 17:42:00,67.8,38.5,29.97,North,0,6.0,6.0,34,0.00,,,0.00,VWS V14.01,2013-03-05 23:42:00,
2013-03-05 17:43:00,67.8,38.5,29.97,North,0,2.5,6.0,34,0.00,,,0.00,VWS V14.01,2013-03-05 23:43:00,
2013-03-05 17:44:00,66.9,31.0,30.00,NW,315,10.7,10.7,26,0.00,,,0.00,VWS V14.01,2013-03-05 23:44:00,
2013-03-05 17:45:00,67.8,37.7,29.97,WNW,292,3.6,4.7,33,0.00,,,0.00,VWS V14.01,2013-03-05 23:45:00,
2013-03-05 17:46:00,67.6,37.5,29.97,NNW,338,1.1,3.6,33,0.00,,,0.00,VWS V14.01,2013-03-05 23:46:00,
2013-03-05 17:47:00,67.6,37.5,29.97,NW,315,6.3,6.3,33,0.00,,,0.00,VWS V14.01,2013-03-05 23:47:00,
2013-03-05 17:48:00,67.6,37.5,29.97,WNW,292,2.2,6.3,33,0.00,,,0.00,VWS V14.01,2013-03-05 23:48:00,
2013-03-05 17:49:00,66.9,31.0,30.00,NNW,338,5.8,5.8,26,0.00,,,0.00,VWS V14.01,2013-03-05 23:49:00,
2013-03-05 17:50:00,67.6,37.5,29.97,North,0,0.0,2.5,33,0.00,,,0.00,VWS V14.01,2013-03-05 23:50:00,
2013-03-05 17:51:00,67.6,37.5,29.97,NNE,22,1.6,1.6,33,0.00,,,0.00,VWS V14.01,2013-03-05 23:51:00,
2013-03-05 17:52:00,67.6,37.5,29.97,WNW,292,2.0,2.0,33,0.00,,,0.00,VWS V14.01,2013-03-05 23:52:00,
2013-03-05 17:53:00,67.6,37.5,29.97,WNW,292,2.0,2.0,33,0.00,,,0.00,VWS V14.01,2013-03-05 23:53:00,
2013-03-05 17:54:00,66.6,28.7,30.00,WNW,292,2.7,2.7,24,0.00,,,0.00,VWS V14.01,2013-03-05 23:54:00,
2013-03-05 17:55:00,67.5,37.4,29.94,WNW,292,4.0,4.3,33,0.00,,,0.00,VWS V14.01,2013-03-05 23:55:00,
2013-03-05 17:56:00,67.5,37.4,29.94,SSW,202,4.0,8.7,33,0.00,,,0.00,VWS V14.01,2013-03-05 23:56:00,
2013-03-05 17:57:00,67.5,36.6,29.94,NW,315,2.5,4.9,32,0.00,,,0.00,VWS V14.01,2013-03-05 23:57:00,
2013-03-05 17:58:00,67.3,35.6,29.94,NW,315,2.0,2.9,31,0.00,,,0.00,VWS V14.01,2013-03-05 23:58:00,
2013-03-05 17:59:00,66.2,27.3,30.00,WSW,248,7.8,7.8,23,0.00,,,0.00,VWS V14.01,2013-03-05 23:59:00,
2013-03-05 18:00:00,67.3,35.6,29.94,West,270,1.3,2.9,31,0.00,,,0.00,VWS V14.01,2013-03-06 00:00:00,
2013-03-05 18:01:00,67.3,35.6,29.94,NW,315,3.6,3.6,31,0.00,,,0.00,VWS V14.01,2013-03-06 00:01:00,
2013-03-05 18:02:00,67.3,34.8,29.94,WNW,292,2.5,3.6,30,0.00,,,0.00,VWS V14.01,2013-03-06 00:02:00,
2013-03-05 18:03:00,67.3,34.8,29.94,West,270,2.7,3.6,30,0.00,,,0.00,VWS V14.01,2013-03-06 00:03:00,
2013-03-05 18:04:00,66.0,27.2,30.00,NNW,338,1.1,2.9,23,0.00,,,0.00,VWS V14.01,2013-03-06 00:04:00,
2013-03-05 18:05:00,67.1,33.8,29.94,SSW,202,2.2,3.8,29,0.00,,,0.00,VWS V14.01,2013-03-06 00:05:00,
2013-03-05 18:06:00,67.1,33.8,29.94,SSW,202,0.0,2.2,29,0.00,,,0.00,VWS V14.01,2013-03-06 00:06:00,
2013-03-05 18:07:00,66.9,32.8,29.94,SSW,202,0.0,0.0,28,0.00,,,0.00,VWS V14.01,2013-03-06 00:07:00,
2013-03-05 18:08:00,67.1,32.9,29.94,North,0,0.0,2.5,28,0.00,,,0.00,VWS V14.01,2013-03-06 00:08:00,
2013-03-05 18:09:00,66.0,27.2,30.00,NNE,22,0.0,0.0,23,0.00,,,0.00,VWS V14.01,2013-03-06 00:09:00,
2013-03-05 18:10:00,66.9,31.9,30.00,NNW,338,2.7,2.7,27,0.00,,,0.00,VWS V14.01,2013-03-06 00:10:00,
2013-03-05 18:11:00,66.9,31.0,30.00,NW,315,4.9,10.7,26,0.00,,,0.00,VWS V14.01,2013-03-06 00:11:00,
2013-03-05 18:12:00,66.9,31.0,30.00,NW,315,3.1,7.6,26,0.00,,,0.00,VWS V14.01,2013-03-06 00:12:00,
2013-03-05 18:13:00,66.9,30.0,30.00,NNW,338,2.7,5.6,25,0.00,,,0.00,VWS V14.01,2013-03-06 00:13:00,
2013-03-05 18:14:00,65.7,23.5,30.00,WSW,248,2.5,2.5,20,0.00,,,0.00,VWS V14.01,2013-03-06 00:14:00,
2013-03-05 18:15:00,66.9,31.0,30.00,NW,315,4.9,4.9,26,0.00,,,0.00,VWS V14.01,2013-03-06 00:15:00,
2013-03-05 18:16:00,66.9,31.0,30.00,WNW,292,8.1,8.1,26,0.00,,,0.00,VWS V14.01,2013-03-06 00:16:00,
2013-03-05 18:17:00,66.6,29.7,30.00,NW,315,6.9,8.1,25,0.00,,,0.00,VWS V14.01,2013-03-06 00:17:00,
2013-03-05 18:18:00,66.6,28.7,30.00,NNW,338,4.0,6.9,24,0.00,,,0.00,VWS V14.01,2013-03-06 00:18:00,
2013-03-05 18:19:00,65.7,23.5,30.03,WNW,292,4.3,4.3,20,0.00,,,0.00,VWS V14.01,2013-03-06 00:19:00,
2013-03-05 18:20:00,66.6,28.7,30.00,NW,315,1.3,1.3,24,0.00,,,0.00,VWS V14.01,2013-03-06 00:20:00,
2013-03-05 18:21:00,66.6,28.7,30.00,WNW,292,2.7,2.7,24,0.00,,,0.00,VWS V14.01,2013-03-06 00:21:00,
2013-03-05 18:23:00,66.6,28.7,30.00,NNW,338,2.5,2.9,24,0.00,,,0.00,VWS V14.01,2013-03-06 00:23:00,
2013-03-05 18:24:00,65.5,23.4,30.03,WNW,292,2.2,4.9,20,0.00,,,0.00,VWS V14.01,2013-03-06 00:24:00,
2013-03-05 18:25:00,66.6,28.7,30.00,WSW,248,2.9,5.4,24,0.00,,,0.00,VWS V14.01,2013-03-06 00:25:00,
2013-03-05 18:26:00,66.2,27.3,30.00,NNW,338,3.8,7.8,23,0.00,,,0.00,VWS V14.01,2013-03-06 00:26:00,
2013-03-05 18:27:00,66.4,27.5,30.00,SSW,202,2.2,3.8,23,0.00,,,0.00,VWS V14.01,2013-03-06 00:27:00,
2013-03-05 18:28:00,66.4,27.5,30.00,WNW,292,2.0,2.2,23,0.00,,,0.00,VWS V14.01,2013-03-06 00:28:00,
2013-03-05 18:29:00,65.3,26.6,30.03,WSW,248,2.0,2.0,23,0.00,,,0.00,VWS V14.01,2013-03-06 00:29:00,
2013-03-05 18:30:00,66.0,27.2,30.00,NNE,22,2.9,3.1,23,0.00,,,0.00,VWS V14.01,2013-03-06 00:30:00,
2013-03-05 18:31:00,66.2,26.3,30.00,WSW,248,3.4,3.4,22,0.00,,,0.00,VWS V14.01,2013-03-06 00:31:00,
2013-03-05 18:32:00,66.2,26.3,30.00,NNW,338,6.5,6.5,22,0.00,,,0.00,VWS V14.01,2013-03-06 00:32:00,
2013-03-05 18:33:00,66.2,26.3,30.00,SSW,202,2.0,6.5,22,0.00,,,0.00,VWS V14.01,2013-03-06 00:33:00,
2013-03-05 18:34:00,64.6,22.6,30.03,NNW,338,2.7,3.6,20,0.00,,,0.00,VWS V14.01,2013-03-06 00:34:00,
2013-03-05 18:35:00,66.0,27.2,30.00,NNE,22,0.0,1.6,23,0.00,,,0.00,VWS V14.01,2013-03-06 00:35:00,
2013-03-05 18:36:00,66.0,27.2,30.00,WNW,292,4.7,4.7,23,0.00,,,0.00,VWS V14.01,2013-03-06 00:36:00,
2013-03-05 18:37:00,66.0,27.2,30.00,ENE,68,2.2,4.7,23,0.00,,,0.00,VWS V14.01,2013-03-06 00:37:00,
2013-03-05 18:38:00,65.8,27.0,30.00,NNW,338,3.1,3.1,23,0.00,,,0.00,VWS V14.01,2013-03-06 00:38:00,
2013-03-05 18:39:00,64.8,26.1,30.03,NW,315,0.9,2.2,23,0.00,,,0.00,VWS V14.01,2013-03-06 00:39:00,
2013-03-05 18:40:00,65.7,23.5,30.00,NNW,338,0.0,0.0,20,0.00,,,0.00,VWS V14.01,2013-03-06 00:40:00,
2013-03-05 18:41:00,65.5,23.4,30.03,WNW,292,6.3,7.4,20,0.00,,,0.00,VWS V14.01,2013-03-06 00:41:00,
2013-03-05 18:42:00,65.5,23.4,30.03,WNW,292,3.8,6.3,20,0.00,,,0.00,VWS V14.01,2013-03-06 00:42:00,
2013-03-05 18:43:00,65.5,23.4,30.03,NNW,338,3.1,3.8,20,0.00,,,0.00,VWS V14.01,2013-03-06 00:43:00,
2013-03-05 18:44:00,64.6,22.6,30.03,NNW,338,1.1,1.1,20,0.00,,,0.00,VWS V14.01,2013-03-06 00:44:00,
2013-03-05 18:45:00,65.7,23.5,30.03,WNW,292,2.7,4.0,20,0.00,,,0.00,VWS V14.01,2013-03-06 00:45:00,
2013-03-05 18:47:00,65.5,23.4,30.03,WNW,292,3.8,4.3,20,0.00,,,0.00,VWS V14.01,2013-03-06 00:47:00,
2013-03-05 18:48:00,65.5,23.4,30.03,WNW,292,2.5,3.8,20,0.00,,,0.00,VWS V14.01,2013-03-06 00:48:00,
2013-03-05 18:49:00,64.2,23.5,30.03,WNW,292,3.4,5.6,21,0.00,,,0.00,VWS V14.01,2013-03-06 00:49:00,
2013-03-05 18:50:00,65.5,23.4,30.03,West,270,4.9,4.9,20,0.00,,,0.00,VWS V14.01,2013-03-06 00:50:00,
2013-03-05 18:51:00,65.5,23.4,30.03,WNW,292,6.3,6.3,20,0.00,,,0.00,VWS V14.01,2013-03-06 00:51:00,
2013-03-05 18:52:00,65.5,23.4,30.03,WNW,292,2.0,6.3,20,0.00,,,0.00,VWS V14.01,2013-03-06 00:52:00,
2013-03-05 18:53:00,65.5,23.4,30.03,WNW,292,0.0,2.2,20,0.00,,,0.00,VWS V14.01,2013-03-06 00:53:00,
2013-03-05 18:54:00,64.0,23.3,30.03,NW,315,6.0,7.8,21,0.00,,,0.00,VWS V14.01,2013-03-06 00:54:00,
2013-03-05 18:55:00,65.3,26.6,30.03,WNW,292,0.0,0.0,23,0.00,,,0.00,VWS V14.01,2013-03-06 00:55:00,
2013-03-05 18:56:00,65.3,26.6,30.03,WSW,248,1.6,2.0,23,0.00,,,0.00,VWS V14.01,2013-03-06 00:56:00,
2013-03-05 18:57:00,65.3,26.6,30.03,WSW,248,2.0,2.5,23,0.00,,,0.00,VWS V14.01,2013-03-06 00:57:00,
2013-03-05 18:58:00,65.3,26.6,30.03,WNW,292,2.5,3.8,23,0.00,,,0.00,VWS V14.01,2013-03-06 00:58:00,
2013-03-05 18:59:00,63.9,23.2,30.03,North,0,4.0,4.0,21,0.00,,,0.00,VWS V14.01,2013-03-06 00:59:00,
2013-03-05 19:00:00,64.6,22.6,30.03,NNW,338,3.4,5.4,20,0.00,,,0.00,VWS V14.01,2013-03-06 01:00:00,
2013-03-05 19:01:00,64.6,22.6,30.03,NW,315,2.5,3.6,20,0.00,,,0.00,VWS V14.01,2013-03-06 01:01:00,
2013-03-05 19:02:00,64.6,22.6,30.03,NW,315,2.0,2.5,20,0.00,,,0.00,VWS V14.01,2013-03-06 01:02:00,
2013-03-05 19:03:00,64.6,22.6,30.03,NW,315,0.0,2.0,20,0.00,,,0.00,VWS V14.01,2013-03-06 01:03:00,
2013-03-05 19:04:00,64.0,23.3,30.03,NNW,338,3.1,5.4,21,0.00,,,0.00,VWS V14.01,2013-03-06 01:04:00,
2013-03-05 19:05:00,64.9,26.3,30.03,NW,315,0.9,1.3,23,0.00,,,0.00,VWS V14.01,2013-03-06 01:05:00,
2013-03-05 19:06:00,64.8,26.1,30.03,NW,315,0.9,2.2,23,0.00,,,0.00,VWS V14.01,2013-03-06 01:06:00,
2013-03-05 19:07:00,64.8,26.1,30.03,NW,315,6.3,6.3,23,0.00,,,0.00,VWS V14.01,2013-03-06 01:07:00,
2013-03-05 19:08:00,64.8,26.1,30.03,West,270,3.1,6.3,23,0.00,,,0.00,VWS V14.01,2013-03-06 01:08:00,
2013-03-05 19:09:00,63.1,22.6,30.03,NNE,22,6.3,6.3,21,0.00,,,0.00,VWS V14.01,2013-03-06 01:09:00,
2013-03-05 19:10:00,64.6,22.6,30.03,NNW,338,0.0,0.9,20,0.00,,,0.00,VWS V14.01,2013-03-06 01:10:00,
2013-03-05 19:11:00,64.6,22.6,30.03,NNW,338,0.9,1.1,20,0.00,,,0.00,VWS V14.01,2013-03-06 01:11:00,
2013-03-05 19:12:00,64.4,25.8,30.03,NNW,338,3.4,4.9,23,0.00,,,0.00,VWS V14.01,2013-03-06 01:12:00,
2013-03-05 19:13:00,64.4,22.5,30.03,NNW,338,3.1,3.6,20,0.00,,,0.00,VWS V14.01,2013-03-06 01:13:00,
2013-03-05 19:14:00,63.5,22.9,30.06,WNW,292,6.5,6.5,21,0.00,,,0.00,VWS V14.01,2013-03-06 01:14:00,
2013-03-05 19:15:00,64.2,23.5,30.03,NW,315,3.8,4.3,21,0.00,,,0.00,VWS V14.01,2013-03-06 01:15:00,
2013-03-05 19:16:00,64.4,22.5,30.03,NW,315,4.0,5.6,20,0.00,,,0.00,VWS V14.01,2013-03-06 01:16:00,
2013-03-05 19:17:00,64.2,23.5,30.03,NW,315,2.0,4.3,21,0.00,,,0.00,VWS V14.01,2013-03-06 01:17:00,
2013-03-05 19:18:00,63.9,23.2,30.03,NNW,338,4.5,4.9,21,0.00,,,0.00,VWS V14.01,2013-03-06 01:18:00,
2013-03-05 19:19:00,63.1,19.0,30.06,North,0,2.0,2.0,18,0.00,,,0.00,VWS V14.01,2013-03-06 01:19:00,
2013-03-05 19:20:00,64.2,23.5,30.03,North,0,3.6,3.6,21,0.00,,,0.00,VWS V14.01,2013-03-06 01:20:00,
2013-03-05 19:21:00,64.0,23.3,30.03,West,270,2.0,7.8,21,0.00,,,0.00,VWS V14.01,2013-03-06 01:21:00,
2013-03-05 19:22:00,64.0,23.3,30.03,NW,315,5.4,5.4,21,0.00,,,0.00,VWS V14.01,2013-03-06 01:22:00,
2013-03-05 19:23:00,64.2,23.5,30.03,NNW,338,2.5,5.4,21,0.00,,,0.00,VWS V14.01,2013-03-06 01:23:00,
2013-03-05 19:24:00,63.0,18.8,30.06,NNW,338,3.1,3.1,18,0.00,,,0.00,VWS V14.01,2013-03-06 01:24:00,
2013-03-05 19:25:00,64.0,23.3,30.03,NNW,338,2.7,4.0,21,0.00,,,0.00,VWS V14.01,2013-03-06 01:25:00,
2013-03-05 19:26:00,63.9,23.2,30.03,North,0,2.5,4.0,21,0.00,,,0.00,VWS V14.01,2013-03-06 01:26:00,
2013-03-05 19:27:00,64.0,23.3,30.03,North,0,3.8,5.6,21,0.00,,,0.00,VWS V14.01,2013-03-06 01:27:00,
2013-03-05 19:28:00,64.0,23.3,30.03,NNW,338,3.1,3.8,21,0.00,,,0.00,VWS V14.01,2013-03-06 01:28:00,
2013-03-05 19:29:00,62.6,18.5,30.06,NNW,338,3.4,3.8,18,0.00,,,0.00,VWS V14.01,2013-03-06 01:29:00,
2013-03-05 19:30:00,64.0,23.3,30.03,NNE,22,3.6,4.0,21,0.00,,,0.00,VWS V14.01,2013-03-06 01:30:00,
2013-03-05 19:31:00,64.0,23.3,30.03,NNW,338,2.0,5.4,21,0.00,,,0.00,VWS V14.01,2013-03-06 01:31:00,
2013-03-05 19:32:00,63.5,22.9,30.03,NNW,338,3.1,3.6,21,0.00,,,0.00,VWS V14.01,2013-03-06 01:32:00,
2013-03-05 19:33:00,63.7,23.0,30.03,NW,315,2.7,3.1,21,0.00,,,0.00,VWS V14.01,2013-03-06 01:33:00,
2013-03-05 19:34:00,62.8,18.7,30.09,NNE,22,2.0,2.5,18,0.00,,,0.00,VWS V14.01,2013-03-06 01:34:00,
2013-03-05 19:35:00,63.9,23.2,30.03,NNW,338,2.9,2.9,21,0.00,,,0.00,VWS V14.01,2013-03-06 01:35:00,
2013-03-05 19:36:00,63.1,22.6,30.03,North,0,6.9,8.1,21,0.00,,,0.00,VWS V14.01,2013-03-06 01:36:00,
2013-03-05 19:37:00,63.3,22.8,30.03,NE,45,2.5,7.2,21,0.00,,,0.00,VWS V14.01,2013-03-06 01:37:00,
2013-03-05 19:38:00,63.3,22.8,30.03,NNW,338,3.1,6.0,21,0.00,,,0.00,VWS V14.01,2013-03-06 01:38:00,
2013-03-05 19:39:00,62.6,18.5,30.09,SE,135,2.0,2.9,18,0.00,,,0.00,VWS V14.01,2013-03-06 01:39:00,
2013-03-05 19:40:00,63.5,22.9,30.06,NNW,338,5.4,6.0,21,0.00,,,0.00,VWS V14.01,2013-03-06 01:40:00,
2013-03-05 19:41:00,63.3,19.1,30.06,NNW,338,4.9,6.5,18,0.00,,,0.00,VWS V14.01,2013-03-06 01:41:00,
2013-03-05 19:42:00,63.0,18.8,30.06,North,0,6.3,6.7,18,0.00,,,0.00,VWS V14.01,2013-03-06 01:42:00,
2013-03-05 19:43:00,63.1,19.0,30.06,NNW,338,4.3,8.5,18,0.00,,,0.00,VWS V14.01,2013-03-06 01:43:00,
2013-03-05 19:44:00,62.2,19.5,30.09,North,0,2.5,2.5,19,0.00,,,0.00,VWS V14.01,2013-03-06 01:44:00,
2013-03-05 19:45:00,63.1,19.0,30.06,North,0,2.0,6.5,18,0.00,,,0.00,VWS V14.01,2013-03-06 01:45:00,
2013-03-05 19:46:00,63.1,19.0,30.06,North,0,2.0,2.0,18,0.00,,,0.00,VWS V14.01,2013-03-06 01:46:00,
2013-03-05 19:47:00,63.1,19.0,30.06,NNW,338,1.6,2.7,18,0.00,,,0.00,VWS V14.01,2013-03-06 01:47:00,
2013-03-05 19:48:00,63.1,19.0,30.06,NNW,338,3.6,4.9,18,0.00,,,0.00,VWS V14.01,2013-03-06 01:48:00,
2013-03-05 19:49:00,62.1,19.3,30.09,West,270,2.9,2.9,19,0.00,,,0.00,VWS V14.01,2013-03-06 01:49:00,
2013-03-05 19:50:00,63.1,19.0,30.06,NNW,338,2.9,5.6,18,0.00,,,0.00,VWS V14.01,2013-03-06 01:50:00,
2013-03-05 19:51:00,63.0,18.8,30.06,NNW,338,3.4,4.9,18,0.00,,,0.00,VWS V14.01,2013-03-06 01:51:00,
2013-03-05 19:52:00,62.8,18.7,30.06,NNW,338,7.8,7.8,18,0.00,,,0.00,VWS V14.01,2013-03-06 01:52:00,
2013-03-05 19:53:00,62.6,18.5,30.06,NW,315,4.0,7.8,18,0.00,,,0.00,VWS V14.01,2013-03-06 01:53:00,
2013-03-05 19:54:00,61.9,19.2,30.09,NNW,338,3.4,3.4,19,0.00,,,0.00,VWS V14.01,2013-03-06 01:54:00,
2013-03-05 19:55:00,62.6,18.5,30.06,NNW,338,3.4,3.8,18,0.00,,,0.00,VWS V14.01,2013-03-06 01:55:00,
2013-03-05 19:57:00,62.6,18.5,30.09,NNW,338,2.7,10.5,18,0.00,,,0.00,VWS V14.01,2013-03-06 01:57:00,
2013-03-05 19:58:00,62.6,18.5,30.09,NNW,338,4.0,4.7,18,0.00,,,0.00,VWS V14.01,2013-03-06 01:58:00,
2013-03-05 19:59:00,61.3,18.8,30.09,ESE,112,2.5,2.5,19,0.00,,,0.00,VWS V14.01,2013-03-06 01:59:00,
2013-03-05 20:00:00,62.8,18.7,30.09,NNW,338,2.5,4.0,18,0.00,,,0.00,VWS V14.01,2013-03-06 02:00:00,
2013-03-05 20:01:00,62.8,18.7,30.09,NNW,338,5.4,5.4,18,0.00,,,0.00,VWS V14.01,2013-03-06 02:01:00,
2013-03-05 20:02:00,62.6,18.5,30.09,WNW,292,2.2,5.4,18,0.00,,,0.00,VWS V14.01,2013-03-06 02:02:00,
2013-03-05 20:03:00,62.8,18.7,30.09,WNW,292,7.6,7.6,18,0.00,,,0.00,VWS V14.01,2013-03-06 02:03:00,
2013-03-05 20:04:00,61.3,18.8,30.09,WNW,292,2.7,3.6,19,0.00,,,0.00,VWS V14.01,2013-03-06 02:04:00,
2013-03-05 20:05:00,62.6,18.5,30.09,WNW,292,0.0,7.6,18,0.00,,,0.00,VWS V14.01,2013-03-06 02:05:00,
2013-03-05 20:06:00,62.6,18.5,30.09,NNW,338,3.4,3.4,18,0.00,,,0.00,VWS V14.01,2013-03-06 02:06:00,
2013-03-05 20:07:00,62.4,19.6,30.09,NW,315,3.4,7.2,19,0.00,,,0.00,VWS V14.01,2013-03-06 02:07:00,
2013-03-05 20:09:00,60.1,15.1,30.09,West,270,2.7,5.4,17,0.00,,,0.00,VWS V14.01,2013-03-06 02:09:00,
2013-03-05 20:10:00,62.2,19.5,30.09,North,0,2.5,3.4,19,0.00,,,0.00,VWS V14.01,2013-03-06 02:10:00,
2013-03-05 20:11:00,62.2,19.5,30.09,NNE,22,4.9,5.4,19,0.00,,,0.00,VWS V14.01,2013-03-06 02:11:00,
2013-03-05 20:12:00,62.1,19.3,30.09,NNE,22,2.9,4.9,19,0.00,,,0.00,VWS V14.01,2013-03-06 02:12:00,
2013-03-05 20:14:00,60.6,18.2,30.06,North,0,4.9,4.9,19,0.00,,,0.00,VWS V14.01,2013-03-06 02:14:00,
2013-03-05 20:15:00,62.1,19.3,30.09,West,270,2.9,2.9,19,0.00,,,0.00,VWS V14.01,2013-03-06 02:15:00,
2013-03-05 20:16:00,62.1,19.3,30.09,West,270,0.0,2.9,19,0.00,,,0.00,VWS V14.01,2013-03-06 02:16:00,
2013-03-05 20:17:00,62.1,19.3,30.09,North,0,2.7,2.7,19,0.00,,,0.00,VWS V14.01,2013-03-06 02:17:00,
2013-03-05 20:18:00,62.1,19.3,30.09,WNW,292,2.9,5.8,19,0.00,,,0.00,VWS V14.01,2013-03-06 02:18:00,
2013-03-05 20:19:00,60.6,18.2,30.06,WNW,292,4.0,8.1,19,0.00,,,0.00,VWS V14.01,2013-03-06 02:19:00,
2013-03-05 20:20:00,61.9,19.2,30.09,WNW,292,2.9,2.9,19,0.00,,,0.00,VWS V14.01,2013-03-06 02:20:00,
2013-03-05 20:21:00,61.9,19.2,30.09,NNW,338,4.0,4.0,19,0.00,,,0.00,VWS V14.01,2013-03-06 02:21:00,
2013-03-05 20:22:00,61.9,19.2,30.09,NNW,338,5.8,6.0,19,0.00,,,0.00,VWS V14.01,2013-03-06 02:22:00,
2013-03-05 20:23:00,61.3,18.8,30.09,WNW,292,2.7,5.8,19,0.00,,,0.00,VWS V14.01,2013-03-06 02:23:00,
2013-03-05 20:24:00,60.3,17.9,30.06,NNE,22,8.5,8.5,19,0.00,,,0.00,VWS V14.01,2013-03-06 02:24:00,
2013-03-05 20:25:00,61.3,18.8,30.09,North,0,2.5,2.5,19,0.00,,,0.00,VWS V14.01,2013-03-06 02:25:00,
2013-03-05 20:26:00,61.3,18.8,30.09,North,0,4.3,4.3,19,0.00,,,0.00,VWS V14.01,2013-03-06 02:26:00,
2013-03-05 20:27:00,61.3,18.8,30.09,NNW,338,2.5,4.9,19,0.00,,,0.00,VWS V14.01,2013-03-06 02:27:00,
2013-03-05 20:28:00,61.3,18.8,30.09,NNE,22,5.8,7.8,19,0.00,,,0.00,VWS V14.01,2013-03-06 02:28:00,
2013-03-05 20:29:00,59.5,17.3,30.09,WNW,292,3.4,4.3,19,0.00,,,0.00,VWS V14.01,2013-03-06 02:29:00,
2013-03-05 20:30:00,61.3,18.8,30.09,WNW,292,2.7,3.6,19,0.00,,,0.00,VWS V14.01,2013-03-06 02:30:00,
2013-03-05 20:31:00,61.2,18.6,30.09,West,270,4.0,4.0,19,0.00,,,0.00,VWS V14.01,2013-03-06 02:31:00,
2013-03-05 20:32:00,61.2,18.6,30.09,NNW,338,2.9,5.4,19,0.00,,,0.00,VWS V14.01,2013-03-06 02:32:00,
2013-03-05 20:33:00,60.6,18.2,30.09,NNW,338,6.3,6.9,19,0.00,,,0.00,VWS V14.01,2013-03-06 02:33:00,
2013-03-05 20:34:00,59.2,17.0,30.09,NNW,338,3.6,3.6,19,0.00,,,0.00,VWS V14.01,2013-03-06 02:34:00,
2013-03-05 20:35:00,60.6,18.2,30.09,NW,315,5.4,6.5,19,0.00,,,0.00,VWS V14.01,2013-03-06 02:35:00,
2013-03-05 20:36:00,60.1,15.1,30.09,NW,315,2.9,5.4,17,0.00,,,0.00,VWS V14.01,2013-03-06 02:36:00,
2013-03-05 20:37:00,60.6,18.2,30.09,WSW,248,3.4,4.0,19,0.00,,,0.00,VWS V14.01,2013-03-06 02:37:00,
2013-03-05 20:38:00,60.8,18.3,30.09,WSW,248,3.4,3.4,19,0.00,,,0.00,VWS V14.01,2013-03-06 02:38:00,
2013-03-05 20:39:00,59.5,17.3,30.09,North,0,2.7,3.1,19,0.00,,,0.00,VWS V14.01,2013-03-06 02:39:00,
2013-03-05 20:40:00,60.6,18.2,30.06,North,0,4.9,4.9,19,0.00,,,0.00,VWS V14.01,2013-03-06 02:40:00,
2013-03-05 20:41:00,60.8,18.3,30.06,NNW,338,4.9,4.9,19,0.00,,,0.00,VWS V14.01,2013-03-06 02:41:00,
2013-03-05 20:42:00,60.8,18.3,30.06,North,0,3.4,4.9,19,0.00,,,0.00,VWS V14.01,2013-03-06 02:42:00,
2013-03-05 20:43:00,60.4,18.0,30.06,North,0,3.6,3.8,19,0.00,,,0.00,VWS V14.01,2013-03-06 02:43:00,
2013-03-05 20:44:00,58.5,16.4,30.12,North,0,4.0,6.0,19,0.00,,,0.00,VWS V14.01,2013-03-06 02:44:00,
2013-03-05 20:45:00,60.6,18.2,30.06,NNW,338,8.1,8.1,19,0.00,,,0.00,VWS V14.01,2013-03-06 02:45:00,
2013-03-05 20:46:00,60.3,17.9,30.06,NNW,338,5.8,8.1,19,0.00,,,0.00,VWS V14.01,2013-03-06 02:46:00,
2013-03-05 20:47:00,60.3,17.9,30.06,North,0,6.0,6.0,19,0.00,,,0.00,VWS V14.01,2013-03-06 02:47:00,
2013-03-05 20:48:00,60.3,17.9,30.06,NW,315,3.1,10.1,19,0.00,,,0.00,VWS V14.01,2013-03-06 02:48:00,
2013-03-05 20:49:00,59.2,17.0,30.12,WNW,292,3.1,3.6,19,0.00,,,0.00,VWS V14.01,2013-03-06 02:49:00,
2013-03-05 20:50:00,60.3,17.9,30.06,NNW,338,2.0,5.8,19,0.00,,,0.00,VWS V14.01,2013-03-06 02:50:00,
2013-03-05 20:51:00,60.3,17.9,30.06,WNW,292,5.8,8.5,19,0.00,,,0.00,VWS V14.01,2013-03-06 02:51:00,
2013-03-05 20:52:00,60.3,17.9,30.06,North,0,7.2,7.2,19,0.00,,,0.00,VWS V14.01,2013-03-06 02:52:00,
2013-03-05 20:53:00,59.7,17.4,30.06,NW,315,5.6,7.2,19,0.00,,,0.00,VWS V14.01,2013-03-06 02:53:00,
2013-03-05 20:54:00,58.6,16.5,30.12,NNW,338,5.4,7.4,19,0.00,,,0.00,VWS V14.01,2013-03-06 02:54:00,
2013-03-05 20:55:00,59.5,17.3,30.09,NNW,338,4.0,4.7,19,0.00,,,0.00,VWS V14.01,2013-03-06 02:55:00,
2013-03-05 20:56:00,59.7,17.4,30.09,NNW,338,1.6,4.3,19,0.00,,,0.00,VWS V14.01,2013-03-06 02:56:00,
2013-03-05 20:57:00,59.5,17.3,30.09,NNW,338,9.8,9.8,19,0.00,,,0.00,VWS V14.01,2013-03-06 02:57:00,
2013-03-05 20:58:00,59.5,17.3,30.09,NW,315,3.4,9.8,19,0.00,,,0.00,VWS V14.01,2013-03-06 02:58:00,
2013-03-05 20:59:00,58.8,16.7,30.12,NNW,338,1.3,2.2,19,0.00,,,0.00,VWS V14.01,2013-03-06 02:59:00,
2013-03-05 21:00:00,59.4,17.1,30.09,NNW,338,2.0,6.3,19,0.00,,,0.00,VWS V14.01,2013-03-06 03:00:00,
2013-03-05 21:01:00,59.2,17.0,30.09,NW,315,3.1,3.6,19,0.00,,,0.00,VWS V14.01,2013-03-06 03:01:00,
2013-03-05 21:02:00,59.4,17.1,30.09,NNW,338,5.4,9.8,19,0.00,,,0.00,VWS V14.01,2013-03-06 03:02:00,
2013-03-05 21:03:00,59.4,17.1,30.09,NNW,338,5.4,5.4,19,0.00,,,0.00,VWS V14.01,2013-03-06 03:03:00,
2013-03-05 21:04:00,59.0,16.8,30.12,NNW,338,0.0,1.3,19,0.00,,,0.00,VWS V14.01,2013-03-06 03:04:00,
2013-03-05 21:05:00,59.7,17.4,30.09,WNW,292,2.5,3.6,19,0.00,,,0.00,VWS V14.01,2013-03-06 03:05:00,
2013-03-05 21:06:00,59.5,17.3,30.09,NNE,22,4.9,4.9,19,0.00,,,0.00,VWS V14.01,2013-03-06 03:06:00,
2013-03-05 21:07:00,59.7,17.4,30.09,North,0,5.8,5.8,19,0.00,,,0.00,VWS V14.01,2013-03-06 03:07:00,
2013-03-05 21:08:00,59.7,17.4,30.09,NNW,338,4.7,5.8,19,0.00,,,0.00,VWS V14.01,2013-03-06 03:08:00,
2013-03-05 21:09:00,58.8,16.7,30.12,NNE,22,2.7,2.7,19,0.00,,,0.00,VWS V14.01,2013-03-06 03:09:00,
2013-03-05 21:10:00,58.5,16.4,30.12,NNW,338,6.0,6.0,19,0.00,,,0.00,VWS V14.01,2013-03-06 03:10:00,
2013-03-05 21:11:00,58.5,16.4,30.12,North,0,4.0,6.0,19,0.00,,,0.00,VWS V14.01,2013-03-06 03:11:00,
2013-03-05 21:12:00,58.5,16.4,30.12,NNW,338,3.4,4.0,19,0.00,,,0.00,VWS V14.01,2013-03-06 03:12:00,
2013-03-05 21:13:00,58.5,16.4,30.12,WNW,292,3.1,4.0,19,0.00,,,0.00,VWS V14.01,2013-03-06 03:13:00,
2013-03-05 21:14:00,58.8,16.7,30.15,NNE,22,1.6,1.6,19,0.00,,,0.00,VWS V14.01,2013-03-06 03:14:00,
2013-03-05 21:15:00,59.2,17.0,30.12,WNW,292,3.1,3.6,19,0.00,,,0.00,VWS V14.01,2013-03-06 03:15:00,
2013-03-05 21:16:00,59.0,16.8,30.12,WNW,292,3.1,3.1,19,0.00,,,0.00,VWS V14.01,2013-03-06 03:16:00,
2013-03-05 21:17:00,58.8,16.7,30.12,North,0,7.6,7.6,19,0.00,,,0.00,VWS V14.01,2013-03-06 03:17:00,
2013-03-05 21:18:00,58.8,16.7,30.12,NW,315,4.9,7.6,19,0.00,,,0.00,VWS V14.01,2013-03-06 03:18:00,
2013-03-05 21:19:00,58.6,16.5,30.15,NNE,22,2.7,2.7,19,0.00,,,0.00,VWS V14.01,2013-03-06 03:19:00,
2013-03-05 21:20:00,58.6,16.5,30.12,NNW,338,7.4,7.4,19,0.00,,,0.00,VWS V14.01,2013-03-06 03:20:00,
2013-03-05 21:21:00,58.5,16.4,30.12,NW,315,2.5,7.4,19,0.00,,,0.00,VWS V14.01,2013-03-06 03:21:00,
2013-03-05 21:22:00,58.5,16.4,30.12,NNE,22,4.9,4.9,19,0.00,,,0.00,VWS V14.01,2013-03-06 03:22:00,
2013-03-05 21:23:00,58.6,16.5,30.12,NNW,338,1.6,4.9,19,0.00,,,0.00,VWS V14.01,2013-03-06 03:23:00,
2013-03-05 21:24:00,58.6,16.5,30.15,NNE,22,2.0,2.0,19,0.00,,,0.00,VWS V14.01,2013-03-06 03:24:00,
2013-03-05 21:25:00,58.8,16.7,30.12,NNW,338,2.2,5.6,19,0.00,,,0.00,VWS V14.01,2013-03-06 03:25:00,
2013-03-05 21:26:00,58.6,16.5,30.12,NNW,338,2.5,2.5,19,0.00,,,0.00,VWS V14.01,2013-03-06 03:26:00,
2013-03-05 21:27:00,58.8,16.7,30.12,NNE,22,2.0,4.9,19,0.00,,,0.00,VWS V14.01,2013-03-06 03:27:00,
2013-03-05 21:28:00,58.8,16.7,30.12,NNE,22,2.0,2.0,19,0.00,,,0.00,VWS V14.01,2013-03-06 03:28:00,
2013-03-05 21:29:00,58.5,16.4,30.15,NNE,22,2.7,4.0,19,0.00,,,0.00,VWS V14.01,2013-03-06 03:29:00,
2013-03-05 21:30:00,59.0,16.8,30.12,NNW,338,1.3,3.8,19,0.00,,,0.00,VWS V14.01,2013-03-06 03:30:00,
2013-03-05 21:31:00,59.0,16.8,30.12,NNW,338,1.3,2.0,19,0.00,,,0.00,VWS V14.01,2013-03-06 03:31:00,
2013-03-05 21:32:00,59.0,16.8,30.12,NNW,338,1.3,1.3,19,0.00,,,0.00,VWS V14.01,2013-03-06 03:32:00,
2013-03-05 21:33:00,58.8,16.7,30.12,NNW,338,1.3,1.6,19,0.00,,,0.00,VWS V14.01,2013-03-06 03:33:00,
2013-03-05 21:34:00,58.6,16.5,30.15,North,0,3.6,3.6,19,0.00,,,0.00,VWS V14.01,2013-03-06 03:34:00,
2013-03-05 21:35:00,58.8,16.7,30.12,ENE,68,1.6,2.9,19,0.00,,,0.00,VWS V14.01,2013-03-06 03:35:00,
2013-03-05 21:36:00,58.8,16.7,30.12,NNE,22,1.3,2.7,19,0.00,,,0.00,VWS V14.01,2013-03-06 03:36:00,
2013-03-05 21:37:00,58.8,16.7,30.12,NNE,22,1.6,2.9,19,0.00,,,0.00,VWS V14.01,2013-03-06 03:37:00,
2013-03-05 21:38:00,58.6,16.5,30.12,North,0,4.0,5.4,19,0.00,,,0.00,VWS V14.01,2013-03-06 03:38:00,
2013-03-05 21:39:00,58.5,16.4,30.15,NNE,22,0.0,0.0,19,0.00,,,0.00,VWS V14.01,2013-03-06 03:39:00,
2013-03-05 21:40:00,58.8,16.7,30.15,North,0,0.0,1.6,19,0.00,,,0.00,VWS V14.01,2013-03-06 03:40:00,
2013-03-05 21:41:00,58.8,16.7,30.15,NNE,22,2.7,3.8,19,0.00,,,0.00,VWS V14.01,2013-03-06 03:41:00,
2013-03-05 21:42:00,58.6,16.5,30.15,WNW,292,1.3,2.7,19,0.00,,,0.00,VWS V14.01,2013-03-06 03:42:00,
2013-03-05 21:43:00,58.8,16.7,30.15,WNW,292,2.0,3.1,19,0.00,,,0.00,VWS V14.01,2013-03-06 03:43:00,
2013-03-05 21:44:00,58.1,16.1,30.15,NW,315,3.8,3.8,19,0.00,,,0.00,VWS V14.01,2013-03-06 03:44:00,
2013-03-05 21:45:00,58.8,16.7,30.15,WNW,292,2.7,2.7,19,0.00,,,0.00,VWS V14.01,2013-03-06 03:45:00,
2013-03-05 21:46:00,58.6,16.5,30.15,North,0,2.9,3.8,19,0.00,,,0.00,VWS V14.01,2013-03-06 03:46:00,
2013-03-05 21:47:00,58.5,16.4,30.15,North,0,2.7,3.1,19,0.00,,,0.00,VWS V14.01,2013-03-06 03:47:00,
2013-03-05 21:48:00,58.6,16.5,30.15,NNE,22,3.6,5.4,19,0.00,,,0.00,VWS V14.01,2013-03-06 03:48:00,
2013-03-05 21:49:00,58.1,16.1,30.15,North,0,3.6,3.6,19,0.00,,,0.00,VWS V14.01,2013-03-06 03:49:00,
2013-03-05 21:50:00,58.6,16.5,30.15,NNE,22,2.0,2.0,19,0.00,,,0.00,VWS V14.01,2013-03-06 03:50:00,
2013-03-05 21:51:00,58.6,16.5,30.15,NNE,22,2.0,2.0,19,0.00,,,0.00,VWS V14.01,2013-03-06 03:51:00,
2013-03-05 21:52:00,58.6,16.5,30.15,NNE,22,2.7,2.9,19,0.00,,,0.00,VWS V14.01,2013-03-06 03:52:00,
2013-03-05 21:53:00,58.6,16.5,30.15,NNE,22,2.2,2.7,19,0.00,,,0.00,VWS V14.01,2013-03-06 03:53:00,
2013-03-05 21:54:00,57.9,15.9,30.15,NW,315,3.4,3.4,19,0.00,,,0.00,VWS V14.01,2013-03-06 03:54:00,
2013-03-05 21:55:00,58.5,16.4,30.15,NNE,22,4.0,4.0,19,0.00,,,0.00,VWS V14.01,2013-03-06 03:55:00,
2013-03-05 21:56:00,58.6,16.5,30.15,NNE,22,1.6,4.0,19,0.00,,,0.00,VWS V14.01,2013-03-06 03:56:00,
2013-03-05 21:57:00,58.5,16.4,30.15,NNE,22,2.5,2.5,19,0.00,,,0.00,VWS V14.01,2013-03-06 03:57:00,
2013-03-05 21:58:00,58.5,16.4,30.15,NNE,22,2.7,2.7,19,0.00,,,0.00,VWS V14.01,2013-03-06 03:58:00,
2013-03-05 21:59:00,57.6,15.6,30.15,NNW,338,1.3,2.9,19,0.00,,,0.00,VWS V14.01,2013-03-06 03:59:00,
2013-03-05 22:00:00,58.6,16.5,30.15,NNE,22,3.6,3.6,19,0.00,,,0.00,VWS V14.01,2013-03-06 04:00:00,
2013-03-05 22:01:00,58.6,16.5,30.15,North,0,0.9,5.6,19,0.00,,,0.00,VWS V14.01,2013-03-06 04:01:00,
2013-03-05 22:02:00,58.3,16.2,30.15,North,0,0.9,0.9,19,0.00,,,0.00,VWS V14.01,2013-03-06 04:02:00,
2013-03-05 22:03:00,58.5,16.4,30.15,NNE,22,2.5,4.0,19,0.00,,,0.00,VWS V14.01,2013-03-06 04:03:00,
2013-03-05 22:04:00,57.4,15.5,30.15,NNW,338,2.5,2.5,19,0.00,,,0.00,VWS V14.01,2013-03-06 04:04:00,
2013-03-05 22:05:00,58.5,16.4,30.15,NNE,22,0.0,0.0,19,0.00,,,0.00,VWS V14.01,2013-03-06 04:05:00,
2013-03-05 22:06:00,58.3,16.2,30.15,North,0,2.7,2.7,19,0.00,,,0.00,VWS V14.01,2013-03-06 04:06:00,
2013-03-05 22:07:00,57.9,15.9,30.15,NNE,22,2.9,4.3,19,0.00,,,0.00,VWS V14.01,2013-03-06 04:07:00,
2013-03-05 22:08:00,58.1,16.1,30.15,NNE,22,3.4,3.4,19,0.00,,,0.00,VWS V14.01,2013-03-06 04:08:00,
2013-03-05 22:09:00,57.6,15.6,30.15,NNE,22,4.0,4.0,19,0.00,,,0.00,VWS V14.01,2013-03-06 04:09:00,
2013-03-05 22:10:00,58.1,16.1,30.15,North,0,1.3,3.8,19,0.00,,,0.00,VWS V14.01,2013-03-06 04:10:00,
2013-03-05 22:11:00,58.1,16.1,30.15,NNW,338,2.5,3.8,19,0.00,,,0.00,VWS V14.01,2013-03-06 04:11:00,
2013-03-05 22:12:00,58.1,16.1,30.15,NNW,338,1.3,2.5,19,0.00,,,0.00,VWS V14.01,2013-03-06 04:12:00,
2013-03-05 22:13:00,58.1,16.1,30.15,NNW,338,0.0,1.3,19,0.00,,,0.00,VWS V14.01,2013-03-06 04:13:00,
2013-03-05 22:14:00,57.4,15.5,30.15,NNE,22,2.9,2.9,19,0.00,,,0.00,VWS V14.01,2013-03-06 04:14:00,
2013-03-05 22:15:00,58.1,16.1,30.15,NNW,338,2.9,2.9,19,0.00,,,0.00,VWS V14.01,2013-03-06 04:15:00,
2013-03-05 22:16:00,58.1,16.1,30.15,North,0,1.6,4.9,19,0.00,,,0.00,VWS V14.01,2013-03-06 04:16:00,
2013-03-05 22:17:00,58.1,16.1,30.15,North,0,2.5,2.5,19,0.00,,,0.00,VWS V14.01,2013-03-06 04:17:00,
2013-03-05 22:18:00,58.1,16.1,30.15,North,0,2.2,2.5,19,0.00,,,0.00,VWS V14.01,2013-03-06 04:18:00,
2013-03-05 22:19:00,57.0,16.4,30.15,North,0,3.8,4.0,20,0.00,,,0.00,VWS V14.01,2013-03-06 04:19:00,
2013-03-05 22:20:00,57.9,15.9,30.15,North,0,1.6,3.4,19,0.00,,,0.00,VWS V14.01,2013-03-06 04:20:00,
2013-03-05 22:21:00,57.9,15.9,30.15,NNW,338,1.6,3.8,19,0.00,,,0.00,VWS V14.01,2013-03-06 04:21:00,
2013-03-05 22:22:00,57.9,15.9,30.15,NNW,338,2.9,3.1,19,0.00,,,0.00,VWS V14.01,2013-03-06 04:22:00,
2013-03-05 22:23:00,57.9,15.9,30.15,NW,315,3.4,3.6,19,0.00,,,0.00,VWS V14.01,2013-03-06 04:23:00,
2013-03-05 22:24:00,57.2,15.3,30.15,NNW,338,2.7,2.7,19,0.00,,,0.00,VWS V14.01,2013-03-06 04:24:00,
2013-03-05 22:25:00,57.6,15.6,30.15,NNW,338,2.9,3.1,19,0.00,,,0.00,VWS V14.01,2013-03-06 04:25:00,
2013-03-05 22:26:00,57.6,15.6,30.15,NNW,338,1.3,2.9,19,0.00,,,0.00,VWS V14.01,2013-03-06 04:26:00,
2013-03-05 22:27:00,57.6,15.6,30.15,NNW,338,1.3,1.3,19,0.00,,,0.00,VWS V14.01,2013-03-06 04:27:00,
2013-03-05 22:28:00,57.6,15.6,30.15,NNW,338,2.2,2.9,19,0.00,,,0.00,VWS V14.01,2013-03-06 04:28:00,
2013-03-05 22:29:00,57.2,15.3,30.15,NNW,338,0.9,1.1,19,0.00,,,0.00,VWS V14.01,2013-03-06 04:29:00,
2013-03-05 22:30:00,57.7,15.8,30.15,NNW,338,1.3,1.3,19,0.00,,,0.00,VWS V14.01,2013-03-06 04:30:00,
2013-03-05 22:31:00,57.4,15.5,30.15,NNW,338,2.2,2.5,19,0.00,,,0.00,VWS V14.01,2013-03-06 04:31:00,
2013-03-05 22:32:00,57.6,15.6,30.15,NNE,22,3.6,3.6,19,0.00,,,0.00,VWS V14.01,2013-03-06 04:32:00,
2013-03-05 22:33:00,57.7,15.8,30.15,NNE,22,2.5,4.0,19,0.00,,,0.00,VWS V14.01,2013-03-06 04:33:00,
2013-03-05 22:34:00,56.8,16.2,30.15,NNW,338,1.1,1.6,20,0.00,,,0.00,VWS V14.01,2013-03-06 04:34:00,
2013-03-05 22:35:00,57.6,15.6,30.15,NNE,22,3.8,3.8,19,0.00,,,0.00,VWS V14.01,2013-03-06 04:35:00,
2013-03-05 22:37:00,57.6,15.6,30.15,NNE,22,2.7,4.0,19,0.00,,,0.00,VWS V14.01,2013-03-06 04:37:00,
2013-03-05 22:38:00,57.6,15.6,30.15,NNE,22,1.3,2.7,19,0.00,,,0.00,VWS V14.01,2013-03-06 04:38:00,
2013-03-05 22:39:00,56.8,16.2,30.15,North,0,2.0,2.2,20,0.00,,,0.00,VWS V14.01,2013-03-06 04:39:00,
2013-03-05 22:40:00,57.4,15.5,30.15,NNE,22,1.6,2.7,19,0.00,,,0.00,VWS V14.01,2013-03-06 04:40:00,
2013-03-05 22:41:00,57.4,15.5,30.15,NNE,22,2.0,3.1,19,0.00,,,0.00,VWS V14.01,2013-03-06 04:41:00,
2013-03-05 22:42:00,57.6,15.6,30.15,NNE,22,5.4,5.4,19,0.00,,,0.00,VWS V14.01,2013-03-06 04:42:00,
2013-03-05 22:43:00,57.4,15.5,30.15,NNE,22,2.5,5.4,19,0.00,,,0.00,VWS V14.01,2013-03-06 04:43:00,
2013-03-05 22:44:00,56.5,15.9,30.15,North,0,1.1,2.7,20,0.00,,,0.00,VWS V14.01,2013-03-06 04:44:00,
2013-03-05 22:45:00,57.0,16.4,30.15,North,0,4.0,6.0,20,0.00,,,0.00,VWS V14.01,2013-03-06 04:45:00,
2013-03-05 22:46:00,57.0,16.4,30.15,North,0,1.6,4.0,20,0.00,,,0.00,VWS V14.01,2013-03-06 04:46:00,
2013-03-05 22:47:00,57.2,15.3,30.15,North,0,2.5,2.5,19,0.00,,,0.00,VWS V14.01,2013-03-06 04:47:00,
2013-03-05 22:48:00,57.2,15.3,30.15,North,0,3.1,3.1,19,0.00,,,0.00,VWS V14.01,2013-03-06 04:48:00,
2013-03-05 22:49:00,56.3,15.8,30.15,NNW,338,2.5,3.1,20,0.00,,,0.00,VWS V14.01,2013-03-06 04:49:00,
2013-03-05 22:50:00,57.2,15.3,30.15,NNW,338,2.5,5.4,19,0.00,,,0.00,VWS V14.01,2013-03-06 04:50:00,
2013-03-05 22:51:00,57.2,15.3,30.15,North,0,4.0,4.0,19,0.00,,,0.00,VWS V14.01,2013-03-06 04:51:00,
2013-03-05 22:52:00,57.2,15.3,30.15,North,0,1.1,4.0,19,0.00,,,0.00,VWS V14.01,2013-03-06 04:52:00,
2013-03-05 22:53:00,57.2,15.3,30.15,NNW,338,2.9,2.9,19,0.00,,,0.00,VWS V14.01,2013-03-06 04:53:00,
2013-03-05 22:54:00,56.3,15.8,30.15,NNW,338,2.2,2.2,20,0.00,,,0.00,VWS V14.01,2013-03-06 04:54:00,
2013-03-05 22:55:00,57.2,15.3,30.15,NNW,338,2.2,2.2,19,0.00,,,0.00,VWS V14.01,2013-03-06 04:55:00,
2013-03-05 22:56:00,57.0,16.4,30.15,NNE,22,3.8,3.8,20,0.00,,,0.00,VWS V14.01,2013-03-06 04:56:00,
2013-03-05 22:57:00,57.0,16.4,30.15,NNE,22,2.9,5.8,20,0.00,,,0.00,VWS V14.01,2013-03-06 04:57:00,
2013-03-05 22:58:00,57.0,16.4,30.15,NNE,22,2.7,3.4,20,0.00,,,0.00,VWS V14.01,2013-03-06 04:58:00,
2013-03-05 22:59:00,56.5,15.9,30.15,NW,315,1.3,2.2,20,0.00,,,0.00,VWS V14.01,2013-03-06 04:59:00,
2013-03-05 23:00:00,56.3,15.8,30.15,NNW,338,2.7,2.7,20,0.00,,,0.00,VWS V14.01,2013-03-06 05:00:00,
2013-03-05 23:01:00,56.8,16.2,30.15,North,0,2.9,3.4,20,0.00,,,0.00,VWS V14.01,2013-03-06 05:01:00,
2013-03-05 23:02:00,56.8,16.2,30.15,NNW,338,2.9,3.6,20,0.00,,,0.00,VWS V14.01,2013-03-06 05:02:00,
2013-03-05 23:04:00,56.8,16.2,30.15,NNE,22,1.3,3.1,20,0.00,,,0.00,VWS V14.01,2013-03-06 05:04:00,
2013-03-05 23:05:00,56.3,15.8,30.15,NNW,338,0.9,1.1,20,0.00,,,0.00,VWS V14.01,2013-03-06 05:05:00,
2013-03-05 23:06:00,56.8,16.2,30.15,North,0,1.6,2.2,20,0.00,,,0.00,VWS V14.01,2013-03-06 05:06:00,
2013-03-05 23:07:00,56.7,16.1,30.15,North,0,1.3,2.7,20,0.00,,,0.00,VWS V14.01,2013-03-06 05:07:00,
2013-03-05 23:08:00,56.7,16.1,30.15,North,0,2.0,2.0,20,0.00,,,0.00,VWS V14.01,2013-03-06 05:08:00,
2013-03-05 23:09:00,56.5,15.9,30.15,North,0,2.9,2.9,20,0.00,,,0.00,VWS V14.01,2013-03-06 05:09:00,
2013-03-05 23:10:00,56.5,15.9,30.15,NW,315,1.1,1.3,20,0.00,,,0.00,VWS V14.01,2013-03-06 05:10:00,
2013-03-05 23:11:00,56.5,15.9,30.15,North,0,2.0,2.7,20,0.00,,,0.00,VWS V14.01,2013-03-06 05:11:00,
2013-03-05 23:12:00,56.5,15.9,30.15,North,0,0.9,2.0,20,0.00,,,0.00,VWS V14.01,2013-03-06 05:12:00,
2013-03-05 23:13:00,56.5,15.9,30.15,NNW,338,1.3,2.5,20,0.00,,,0.00,VWS V14.01,2013-03-06 05:13:00,
2013-03-05 23:14:00,55.9,15.5,30.15,NNW,338,3.1,3.8,20,0.00,,,0.00,VWS V14.01,2013-03-06 05:14:00,
2013-03-05 23:15:00,56.3,15.8,30.18,NW,315,0.0,0.0,20,0.00,,,0.00,VWS V14.01,2013-03-06 05:15:00,
2013-03-05 23:16:00,56.3,15.8,30.15,NNW,338,2.5,3.1,20,0.00,,,0.00,VWS V14.01,2013-03-06 05:16:00,
2013-03-05 23:17:00,56.5,15.9,30.15,NNW,338,3.1,4.7,20,0.00,,,0.00,VWS V14.01,2013-03-06 05:17:00,
2013-03-05 23:18:00,56.5,15.9,30.15,NNW,338,2.2,3.4,20,0.00,,,0.00,VWS V14.01,2013-03-06 05:18:00,
2013-03-05 23:19:00,56.5,15.9,30.15,NNW,338,1.3,2.2,20,0.00,,,0.00,VWS V14.01,2013-03-06 05:19:00,
2013-03-05 23:20:00,56.3,15.8,30.18,NW,315,0.0,0.0,20,0.00,,,0.00,VWS V14.01,2013-03-06 05:20:00,
2013-03-05 23:21:00,56.3,15.8,30.15,NNW,338,2.0,2.2,20,0.00,,,0.00,VWS V14.01,2013-03-06 05:21:00,
2013-03-05 23:22:00,56.3,15.8,30.15,NNW,338,0.0,2.0,20,0.00,,,0.00,VWS V14.01,2013-03-06 05:22:00,
2013-03-05 23:23:00,56.5,15.9,30.15,NNW,338,2.2,2.2,20,0.00,,,0.00,VWS V14.01,2013-03-06 05:23:00,
2013-03-05 23:24:00,56.5,15.9,30.15,NNW,338,1.1,2.2,20,0.00,,,0.00,VWS V14.01,2013-03-06 05:24:00,
2013-03-05 23:25:00,56.1,15.6,30.18,NW,315,0.0,0.0,20,0.00,,,0.00,VWS V14.01,2013-03-06 05:25:00,
2013-03-05 23:26:00,56.3,15.8,30.15,NNW,338,2.0,2.2,20,0.00,,,0.00,VWS V14.01,2013-03-06 05:26:00,
2013-03-05 23:27:00,56.3,15.8,30.15,NW,315,0.0,2.7,20,0.00,,,0.00,VWS V14.01,2013-03-06 05:27:00,
2013-03-05 23:28:00,56.3,15.8,30.15,NW,315,1.6,2.0,20,0.00,,,0.00,VWS V14.01,2013-03-06 05:28:00,
2013-03-05 23:29:00,56.3,15.8,30.15,NW,315,0.0,1.6,20,0.00,,,0.00,VWS V14.01,2013-03-06 05:29:00,
2013-03-05 23:30:00,56.1,15.6,30.18,NW,315,0.0,0.0,20,0.00,,,0.00,VWS V14.01,2013-03-06 05:30:00,
2013-03-05 23:31:00,56.3,15.8,30.15,NNW,338,0.0,2.0,20,0.00,,,0.00,VWS V14.01,2013-03-06 05:31:00,
2013-03-05 23:32:00,56.3,15.8,30.15,NW,315,0.9,1.1,20,0.00,,,0.00,VWS V14.01,2013-03-06 05:32:00,
2013-03-05 23:33:00,56.3,15.8,30.15,NW,315,0.0,1.1,20,0.00,,,0.00,VWS V14.01,2013-03-06 05:33:00,
2013-03-05 23:34:00,56.3,15.8,30.15,NW,315,0.0,0.0,20,0.00,,,0.00,VWS V14.01,2013-03-06 05:34:00,
2013-03-05 23:35:00,55.9,15.5,30.15,NW,315,0.0,0.0,20,0.00,,,0.00,VWS V14.01,2013-03-06 05:35:00,
2013-03-05 23:36:00,56.5,15.9,30.15,NW,315,1.1,2.0,20,0.00,,,0.00,VWS V14.01,2013-03-06 05:36:00,
2013-03-05 23:37:00,56.5,15.9,30.15,NW,315,1.3,2.2,20,0.00,,,0.00,VWS V14.01,2013-03-06 05:37:00,
2013-03-05 23:38:00,56.5,15.9,30.15,NW,315,2.2,2.2,20,0.00,,,0.00,VWS V14.01,2013-03-06 05:38:00,
2013-03-05 23:39:00,56.5,15.9,30.15,NW,315,0.9,2.2,20,0.00,,,0.00,VWS V14.01,2013-03-06 05:39:00,
2013-03-05 23:40:00,55.8,15.3,30.15,NW,315,0.0,0.0,20,0.00,,,0.00,VWS V14.01,2013-03-06 05:40:00,
2013-03-05 23:41:00,56.3,15.8,30.18,NW,315,0.0,1.1,20,0.00,,,0.00,VWS V14.01,2013-03-06 05:41:00,
2013-03-05 23:42:00,56.3,15.8,30.18,NW,315,0.0,0.0,20,0.00,,,0.00,VWS V14.01,2013-03-06 05:42:00,
2013-03-05 23:43:00,56.3,15.8,30.18,NW,315,0.0,0.0,20,0.00,,,0.00,VWS V14.01,2013-03-06 05:43:00,
2013-03-05 23:44:00,56.3,15.8,30.18,NW,315,0.0,0.0,20,0.00,,,0.00,VWS V14.01,2013-03-06 05:44:00,
2013-03-05 23:45:00,55.6,15.2,30.15,NW,315,0.0,0.0,20,0.00,,,0.00,VWS V14.01,2013-03-06 05:45:00,
2013-03-05 23:46:00,56.3,15.8,30.18,NW,315,0.0,0.0,20,0.00,,,0.00,VWS V14.01,2013-03-06 05:46:00,
2013-03-05 23:47:00,56.3,15.8,30.18,NW,315,0.0,0.0,20,0.00,,,0.00,VWS V14.01,2013-03-06 05:47:00,
2013-03-05 23:48:00,56.3,15.8,30.18,NW,315,0.0,0.0,20,0.00,,,0.00,VWS V14.01,2013-03-06 05:48:00,
2013-03-05 23:49:00,56.3,15.8,30.18,NW,315,0.0,0.0,20,0.00,,,0.00,VWS V14.01,2013-03-06 05:49:00,
2013-03-05 23:50:00,55.6,15.2,30.15,NW,315,2.0,2.0,20,0.00,,,0.00,VWS V14.01,2013-03-06 05:50:00,
2013-03-05 23:51:00,56.3,15.8,30.18,NW,315,0.0,0.0,20,0.00,,,0.00,VWS V14.01,2013-03-06 05:51:00,
2013-03-05 23:52:00,56.1,15.6,30.18,NW,315,0.0,0.0,20,0.00,,,0.00,VWS V14.01,2013-03-06 05:52:00,
2013-03-05 23:53:00,56.1,15.6,30.18,NW,315,0.0,0.0,20,0.00,,,0.00,VWS V14.01,2013-03-06 05:53:00,
2013-03-05 23:54:00,56.1,15.6,30.18,NW,315,0.0,0.0,20,0.00,,,0.00,VWS V14.01,2013-03-06 05:54:00,
2013-03-05 23:55:00,55.4,17.2,30.15,NW,315,0.0,0.0,22,0.00,,,0.00,VWS V14.01,2013-03-06 05:55:00,
2013-03-05 23:56:00,56.1,15.6,30.18,NW,315,0.0,0.0,20,0.00,,,0.00,VWS V14.01,2013-03-06 05:56:00,
2013-03-05 23:57:00,55.9,15.5,30.15,NW,315,0.0,0.0,20,0.00,,,0.00,VWS V14.01,2013-03-06 05:57:00,
2013-03-05 23:58:00,55.9,15.5,30.15,NW,315,0.0,0.0,20,0.00,,,0.00,VWS V14.01,2013-03-06 05:58:00,
2013-03-05 23:59:00,55.9,15.5,30.15,NW,315,0.0,0.0,20,0.00,,,0.00,VWS V14.01,2013-03-06 05:59:00,